<?xml version="1.0" encoding="UTF-8" standalone="no" ?>
<gpx xmlns="http://www.topografix.com/GPX/1/1" xmlns:xsi="http://www.w3.org/2001/XMLSchema-instance" xsi:schemaLocation="http://www.topografix.com/GPX/1/1 http://www.topografix.com/GPX/1/1/gpx.xsd" version="1.1" creator="VisuGPX - https://www.visugpx.com">
  <metadata>
    <name>Du mont Serein au Lac tu paty</name>
    <desc><![CDATA[25 Kilomètre majoritairement en descente avec plusieurs passage technique  ]]></desc>
  </metadata>
  <trk>
    <name><![CDATA[ACTIVE LOG 001]]></name>
    <trkseg>
      <trkpt lat="44.18106" lon="5.25884">
        <ele>1441.1535645</ele>
        <time>2015-06-06T06:36:19Z</time>
      </trkpt>
      <trkpt lat="44.18107" lon="5.25887">
        <ele>1439.7116699</ele>
        <time>2015-06-06T06:36:54Z</time>
      </trkpt>
      <trkpt lat="44.18108" lon="5.25872">
        <ele>1438.2697754</ele>
        <time>2015-06-06T06:37:01Z</time>
      </trkpt>
      <trkpt lat="44.18103" lon="5.25866">
        <ele>1438.7504883</ele>
        <time>2015-06-06T06:37:07Z</time>
      </trkpt>
      <trkpt lat="44.18103" lon="5.25869">
        <ele>1437.7890625</ele>
        <time>2015-06-06T06:37:17Z</time>
      </trkpt>
      <trkpt lat="44.18103" lon="5.25863">
        <ele>1437.7890625</ele>
        <time>2015-06-06T06:37:20Z</time>
      </trkpt>
      <trkpt lat="44.181" lon="5.25861">
        <ele>1437.3083496</ele>
        <time>2015-06-06T06:37:24Z</time>
      </trkpt>
      <trkpt lat="44.18104" lon="5.25865">
        <ele>1436.347168</ele>
        <time>2015-06-06T06:37:35Z</time>
      </trkpt>
      <trkpt lat="44.18102" lon="5.25864">
        <ele>1437.3083496</ele>
        <time>2015-06-06T06:37:47Z</time>
      </trkpt>
      <trkpt lat="44.18101" lon="5.25864">
        <ele>1437.7890625</ele>
        <time>2015-06-06T06:38:19Z</time>
      </trkpt>
      <trkpt lat="44.18109" lon="5.2587">
        <ele>1437.3083496</ele>
        <time>2015-06-06T06:38:26Z</time>
      </trkpt>
      <trkpt lat="44.18106" lon="5.25884">
        <ele>1437.7890625</ele>
        <time>2015-06-06T06:38:35Z</time>
      </trkpt>
      <trkpt lat="44.18106" lon="5.25884">
        <ele>1437.3083496</ele>
        <time>2015-06-06T06:38:50Z</time>
      </trkpt>
      <trkpt lat="44.18104" lon="5.25886">
        <ele>1437.7890625</ele>
        <time>2015-06-06T06:38:53Z</time>
      </trkpt>
      <trkpt lat="44.18105" lon="5.25879">
        <ele>1437.3083496</ele>
        <time>2015-06-06T06:38:57Z</time>
      </trkpt>
      <trkpt lat="44.18103" lon="5.25875">
        <ele>1437.3083496</ele>
        <time>2015-06-06T06:39:10Z</time>
      </trkpt>
      <trkpt lat="44.18103" lon="5.25873">
        <ele>1437.3083496</ele>
        <time>2015-06-06T06:39:22Z</time>
      </trkpt>
      <trkpt lat="44.18098" lon="5.25873">
        <ele>1437.3083496</ele>
        <time>2015-06-06T06:39:32Z</time>
      </trkpt>
      <trkpt lat="44.18098" lon="5.25873">
        <ele>1436.8276367</ele>
        <time>2015-06-06T06:40:15Z</time>
      </trkpt>
      <trkpt lat="44.18099" lon="5.25874">
        <ele>1436.347168</ele>
        <time>2015-06-06T06:40:37Z</time>
      </trkpt>
      <trkpt lat="44.18099" lon="5.25874">
        <ele>1436.347168</ele>
        <time>2015-06-06T06:40:50Z</time>
      </trkpt>
      <trkpt lat="44.18101" lon="5.25874">
        <ele>1436.8276367</ele>
        <time>2015-06-06T06:40:59Z</time>
      </trkpt>
      <trkpt lat="44.181" lon="5.25873">
        <ele>1436.8276367</ele>
        <time>2015-06-06T06:41:54Z</time>
      </trkpt>
      <trkpt lat="44.181" lon="5.25873">
        <ele>1436.8276367</ele>
        <time>2015-06-06T06:42:22Z</time>
      </trkpt>
      <trkpt lat="44.18102" lon="5.25871">
        <ele>1436.8276367</ele>
        <time>2015-06-06T06:42:34Z</time>
      </trkpt>
      <trkpt lat="44.18103" lon="5.25871">
        <ele>1436.8276367</ele>
        <time>2015-06-06T06:42:35Z</time>
      </trkpt>
      <trkpt lat="44.18113" lon="5.2588">
        <ele>1436.347168</ele>
        <time>2015-06-06T06:42:44Z</time>
      </trkpt>
      <trkpt lat="44.18125" lon="5.25891">
        <ele>1431.5402832</ele>
        <time>2015-06-06T06:42:51Z</time>
      </trkpt>
      <trkpt lat="44.18131" lon="5.25903">
        <ele>1430.0983887</ele>
        <time>2015-06-06T06:42:53Z</time>
      </trkpt>
      <trkpt lat="44.18139" lon="5.25971">
        <ele>1429.1369629</ele>
        <time>2015-06-06T06:43:03Z</time>
      </trkpt>
      <trkpt lat="44.18127" lon="5.25981">
        <ele>1427.6950684</ele>
        <time>2015-06-06T06:43:07Z</time>
      </trkpt>
      <trkpt lat="44.18107" lon="5.2601">
        <ele>1426.7338867</ele>
        <time>2015-06-06T06:43:14Z</time>
      </trkpt>
      <trkpt lat="44.18108" lon="5.26015">
        <ele>1426.7338867</ele>
        <time>2015-06-06T06:43:15Z</time>
      </trkpt>
      <trkpt lat="44.18116" lon="5.26075">
        <ele>1432.0209961</ele>
        <time>2015-06-06T06:43:29Z</time>
      </trkpt>
      <trkpt lat="44.18119" lon="5.26118">
        <ele>1437.7890625</ele>
        <time>2015-06-06T06:43:43Z</time>
      </trkpt>
      <trkpt lat="44.1812" lon="5.26168">
        <ele>1439.7116699</ele>
        <time>2015-06-06T06:43:57Z</time>
      </trkpt>
      <trkpt lat="44.18127" lon="5.262">
        <ele>1439.7116699</ele>
        <time>2015-06-06T06:44:10Z</time>
      </trkpt>
      <trkpt lat="44.18128" lon="5.26202">
        <ele>1439.7116699</ele>
        <time>2015-06-06T06:44:11Z</time>
      </trkpt>
      <trkpt lat="44.18129" lon="5.26205">
        <ele>1440.1923828</ele>
        <time>2015-06-06T06:44:22Z</time>
      </trkpt>
      <trkpt lat="44.1813" lon="5.26224">
        <ele>1440.1923828</ele>
        <time>2015-06-06T06:44:48Z</time>
      </trkpt>
      <trkpt lat="44.1813" lon="5.26227">
        <ele>1440.1923828</ele>
        <time>2015-06-06T06:44:49Z</time>
      </trkpt>
      <trkpt lat="44.18124" lon="5.26272">
        <ele>1440.6728516</ele>
        <time>2015-06-06T06:45:06Z</time>
      </trkpt>
      <trkpt lat="44.18118" lon="5.26317">
        <ele>1442.1149902</ele>
        <time>2015-06-06T06:45:23Z</time>
      </trkpt>
      <trkpt lat="44.18118" lon="5.26323">
        <ele>1442.5957031</ele>
        <time>2015-06-06T06:45:30Z</time>
      </trkpt>
      <trkpt lat="44.18122" lon="5.26349">
        <ele>1441.1535645</ele>
        <time>2015-06-06T06:45:40Z</time>
      </trkpt>
      <trkpt lat="44.18139" lon="5.26385">
        <ele>1436.8276367</ele>
        <time>2015-06-06T06:45:48Z</time>
      </trkpt>
      <trkpt lat="44.18145" lon="5.26396">
        <ele>1435.8662109</ele>
        <time>2015-06-06T06:45:50Z</time>
      </trkpt>
      <trkpt lat="44.18156" lon="5.26411">
        <ele>1433.9436035</ele>
        <time>2015-06-06T06:45:53Z</time>
      </trkpt>
      <trkpt lat="44.18166" lon="5.26429">
        <ele>1432.9821777</ele>
        <time>2015-06-06T06:45:56Z</time>
      </trkpt>
      <trkpt lat="44.182" lon="5.26476">
        <ele>1429.1369629</ele>
        <time>2015-06-06T06:46:06Z</time>
      </trkpt>
      <trkpt lat="44.18211" lon="5.26505">
        <ele>1426.7338867</ele>
        <time>2015-06-06T06:46:14Z</time>
      </trkpt>
      <trkpt lat="44.18218" lon="5.26551">
        <ele>1423.8498535</ele>
        <time>2015-06-06T06:46:26Z</time>
      </trkpt>
      <trkpt lat="44.18242" lon="5.26588">
        <ele>1416.6398926</ele>
        <time>2015-06-06T06:46:33Z</time>
      </trkpt>
      <trkpt lat="44.18259" lon="5.26625">
        <ele>1415.197998</ele>
        <time>2015-06-06T06:46:41Z</time>
      </trkpt>
      <trkpt lat="44.18285" lon="5.2668">
        <ele>1414.2365723</ele>
        <time>2015-06-06T06:46:54Z</time>
      </trkpt>
      <trkpt lat="44.18288" lon="5.26697">
        <ele>1415.197998</ele>
        <time>2015-06-06T06:46:59Z</time>
      </trkpt>
      <trkpt lat="44.18297" lon="5.26722">
        <ele>1413.7558594</ele>
        <time>2015-06-06T06:47:09Z</time>
      </trkpt>
      <trkpt lat="44.1831" lon="5.26738">
        <ele>1414.2365723</ele>
        <time>2015-06-06T06:47:19Z</time>
      </trkpt>
      <trkpt lat="44.18318" lon="5.26758">
        <ele>1414.7172852</ele>
        <time>2015-06-06T06:47:27Z</time>
      </trkpt>
      <trkpt lat="44.18327" lon="5.26787">
        <ele>1415.197998</ele>
        <time>2015-06-06T06:47:36Z</time>
      </trkpt>
      <trkpt lat="44.1834" lon="5.26829">
        <ele>1415.197998</ele>
        <time>2015-06-06T06:47:50Z</time>
      </trkpt>
      <trkpt lat="44.18342" lon="5.26836">
        <ele>1415.6787109</ele>
        <time>2015-06-06T06:47:54Z</time>
      </trkpt>
      <trkpt lat="44.18346" lon="5.26871">
        <ele>1417.6010742</ele>
        <time>2015-06-06T06:48:05Z</time>
      </trkpt>
      <trkpt lat="44.18348" lon="5.26881">
        <ele>1417.6010742</ele>
        <time>2015-06-06T06:48:07Z</time>
      </trkpt>
      <trkpt lat="44.18369" lon="5.26929">
        <ele>1412.7946777</ele>
        <time>2015-06-06T06:48:17Z</time>
      </trkpt>
      <trkpt lat="44.18395" lon="5.26986">
        <ele>1410.3913574</ele>
        <time>2015-06-06T06:48:27Z</time>
      </trkpt>
      <trkpt lat="44.18401" lon="5.27031">
        <ele>1413.2753906</ele>
        <time>2015-06-06T06:48:39Z</time>
      </trkpt>
      <trkpt lat="44.18413" lon="5.27075">
        <ele>1414.2365723</ele>
        <time>2015-06-06T06:48:50Z</time>
      </trkpt>
      <trkpt lat="44.18424" lon="5.2713">
        <ele>1413.7558594</ele>
        <time>2015-06-06T06:49:02Z</time>
      </trkpt>
      <trkpt lat="44.18433" lon="5.27179">
        <ele>1415.6787109</ele>
        <time>2015-06-06T06:49:14Z</time>
      </trkpt>
      <trkpt lat="44.18441" lon="5.27237">
        <ele>1419.0432129</ele>
        <time>2015-06-06T06:49:30Z</time>
      </trkpt>
      <trkpt lat="44.18451" lon="5.27282">
        <ele>1419.5239258</ele>
        <time>2015-06-06T06:49:44Z</time>
      </trkpt>
      <trkpt lat="44.18461" lon="5.27332">
        <ele>1420.4853516</ele>
        <time>2015-06-06T06:49:57Z</time>
      </trkpt>
      <trkpt lat="44.18463" lon="5.27339">
        <ele>1420.9660645</ele>
        <time>2015-06-06T06:49:59Z</time>
      </trkpt>
      <trkpt lat="44.18474" lon="5.27376">
        <ele>1421.4465332</ele>
        <time>2015-06-06T06:50:10Z</time>
      </trkpt>
      <trkpt lat="44.18473" lon="5.27385">
        <ele>1421.9272461</ele>
        <time>2015-06-06T06:50:13Z</time>
      </trkpt>
      <trkpt lat="44.18477" lon="5.27407">
        <ele>1422.8886719</ele>
        <time>2015-06-06T06:50:19Z</time>
      </trkpt>
      <trkpt lat="44.18486" lon="5.27418">
        <ele>1419.0432129</ele>
        <time>2015-06-06T06:50:23Z</time>
      </trkpt>
      <trkpt lat="44.18487" lon="5.27443">
        <ele>1418.0817871</ele>
        <time>2015-06-06T06:50:29Z</time>
      </trkpt>
      <trkpt lat="44.18481" lon="5.27477">
        <ele>1417.6010742</ele>
        <time>2015-06-06T06:50:35Z</time>
      </trkpt>
      <trkpt lat="44.18461" lon="5.27512">
        <ele>1416.6398926</ele>
        <time>2015-06-06T06:50:43Z</time>
      </trkpt>
      <trkpt lat="44.18441" lon="5.27556">
        <ele>1415.6787109</ele>
        <time>2015-06-06T06:50:53Z</time>
      </trkpt>
      <trkpt lat="44.18431" lon="5.27616">
        <ele>1415.197998</ele>
        <time>2015-06-06T06:51:05Z</time>
      </trkpt>
      <trkpt lat="44.18429" lon="5.27661">
        <ele>1415.197998</ele>
        <time>2015-06-06T06:51:15Z</time>
      </trkpt>
      <trkpt lat="44.18423" lon="5.27717">
        <ele>1414.7172852</ele>
        <time>2015-06-06T06:51:27Z</time>
      </trkpt>
      <trkpt lat="44.18425" lon="5.27751">
        <ele>1413.7558594</ele>
        <time>2015-06-06T06:51:34Z</time>
      </trkpt>
      <trkpt lat="44.18427" lon="5.27794">
        <ele>1413.2753906</ele>
        <time>2015-06-06T06:51:41Z</time>
      </trkpt>
      <trkpt lat="44.18427" lon="5.27813">
        <ele>1413.2753906</ele>
        <time>2015-06-06T06:51:44Z</time>
      </trkpt>
      <trkpt lat="44.18435" lon="5.27858">
        <ele>1412.7946777</ele>
        <time>2015-06-06T06:51:52Z</time>
      </trkpt>
      <trkpt lat="44.18449" lon="5.27914">
        <ele>1413.2753906</ele>
        <time>2015-06-06T06:52:04Z</time>
      </trkpt>
      <trkpt lat="44.18449" lon="5.27969">
        <ele>1411.8334961</ele>
        <time>2015-06-06T06:52:14Z</time>
      </trkpt>
      <trkpt lat="44.18453" lon="5.27995">
        <ele>1410.3913574</ele>
        <time>2015-06-06T06:52:19Z</time>
      </trkpt>
      <trkpt lat="44.18465" lon="5.28005">
        <ele>1407.0268555</ele>
        <time>2015-06-06T06:52:26Z</time>
      </trkpt>
      <trkpt lat="44.18469" lon="5.28008">
        <ele>1406.5461426</ele>
        <time>2015-06-06T06:52:28Z</time>
      </trkpt>
      <trkpt lat="44.18478" lon="5.28008">
        <ele>1406.5461426</ele>
        <time>2015-06-06T06:52:31Z</time>
      </trkpt>
      <trkpt lat="44.18502" lon="5.28016">
        <ele>1405.5849609</ele>
        <time>2015-06-06T06:52:40Z</time>
      </trkpt>
      <trkpt lat="44.18507" lon="5.28014">
        <ele>1404.6235352</ele>
        <time>2015-06-06T06:52:49Z</time>
      </trkpt>
      <trkpt lat="44.18512" lon="5.28">
        <ele>1401.739502</ele>
        <time>2015-06-06T06:53:37Z</time>
      </trkpt>
      <trkpt lat="44.18506" lon="5.27966">
        <ele>1399.8168945</ele>
        <time>2015-06-06T06:53:42Z</time>
      </trkpt>
      <trkpt lat="44.18502" lon="5.27953">
        <ele>1399.3361816</ele>
        <time>2015-06-06T06:53:44Z</time>
      </trkpt>
      <trkpt lat="44.1852" lon="5.27935">
        <ele>1396.4523926</ele>
        <time>2015-06-06T06:53:50Z</time>
      </trkpt>
      <trkpt lat="44.18529" lon="5.2794">
        <ele>1396.4523926</ele>
        <time>2015-06-06T06:53:52Z</time>
      </trkpt>
      <trkpt lat="44.18545" lon="5.27951">
        <ele>1395.4909668</ele>
        <time>2015-06-06T06:53:56Z</time>
      </trkpt>
      <trkpt lat="44.18566" lon="5.27958">
        <ele>1394.529541</ele>
        <time>2015-06-06T06:54:00Z</time>
      </trkpt>
      <trkpt lat="44.18589" lon="5.27952">
        <ele>1393.0876465</ele>
        <time>2015-06-06T06:54:04Z</time>
      </trkpt>
      <trkpt lat="44.18608" lon="5.2796">
        <ele>1393.5683594</ele>
        <time>2015-06-06T06:54:08Z</time>
      </trkpt>
      <trkpt lat="44.18639" lon="5.28027">
        <ele>1388.28125</ele>
        <time>2015-06-06T06:54:17Z</time>
      </trkpt>
      <trkpt lat="44.18641" lon="5.28038">
        <ele>1387.800293</ele>
        <time>2015-06-06T06:54:18Z</time>
      </trkpt>
      <trkpt lat="44.18674" lon="5.28104">
        <ele>1383.4743652</ele>
        <time>2015-06-06T06:54:25Z</time>
      </trkpt>
      <trkpt lat="44.18682" lon="5.28123">
        <ele>1382.5131836</ele>
        <time>2015-06-06T06:54:27Z</time>
      </trkpt>
      <trkpt lat="44.18698" lon="5.28132">
        <ele>1381.0712891</ele>
        <time>2015-06-06T06:54:32Z</time>
      </trkpt>
      <trkpt lat="44.18701" lon="5.2812">
        <ele>1381.0712891</ele>
        <time>2015-06-06T06:54:35Z</time>
      </trkpt>
      <trkpt lat="44.18695" lon="5.28042">
        <ele>1381.0712891</ele>
        <time>2015-06-06T06:54:44Z</time>
      </trkpt>
      <trkpt lat="44.18708" lon="5.27972">
        <ele>1380.5905762</ele>
        <time>2015-06-06T06:54:50Z</time>
      </trkpt>
      <trkpt lat="44.18711" lon="5.2794">
        <ele>1380.1098633</ele>
        <time>2015-06-06T06:54:53Z</time>
      </trkpt>
      <trkpt lat="44.1871" lon="5.27883">
        <ele>1378.6679688</ele>
        <time>2015-06-06T06:54:59Z</time>
      </trkpt>
      <trkpt lat="44.18723" lon="5.27853">
        <ele>1373.3808594</ele>
        <time>2015-06-06T06:55:04Z</time>
      </trkpt>
      <trkpt lat="44.18743" lon="5.27838">
        <ele>1372.4194336</ele>
        <time>2015-06-06T06:55:07Z</time>
      </trkpt>
      <trkpt lat="44.18768" lon="5.27805">
        <ele>1369.5354004</ele>
        <time>2015-06-06T06:55:12Z</time>
      </trkpt>
      <trkpt lat="44.18803" lon="5.27746">
        <ele>1364.7287598</ele>
        <time>2015-06-06T06:55:22Z</time>
      </trkpt>
      <trkpt lat="44.1882" lon="5.27711">
        <ele>1355.5961914</ele>
        <time>2015-06-06T06:55:27Z</time>
      </trkpt>
      <trkpt lat="44.18828" lon="5.27699">
        <ele>1352.7121582</ele>
        <time>2015-06-06T06:55:30Z</time>
      </trkpt>
      <trkpt lat="44.18826" lon="5.27691">
        <ele>1352.2314453</ele>
        <time>2015-06-06T06:55:39Z</time>
      </trkpt>
      <trkpt lat="44.18825" lon="5.27688">
        <ele>1361.3642578</ele>
        <time>2015-06-06T06:57:29Z</time>
      </trkpt>
      <trkpt lat="44.18825" lon="5.27688">
        <ele>1361.3642578</ele>
        <time>2015-06-06T06:57:31Z</time>
      </trkpt>
      <trkpt lat="44.18826" lon="5.27684">
        <ele>1360.8835449</ele>
        <time>2015-06-06T06:57:33Z</time>
      </trkpt>
      <trkpt lat="44.18809" lon="5.27668">
        <ele>1357.0383301</ele>
        <time>2015-06-06T06:57:40Z</time>
      </trkpt>
      <trkpt lat="44.18798" lon="5.27661">
        <ele>1355.1154785</ele>
        <time>2015-06-06T06:57:43Z</time>
      </trkpt>
      <trkpt lat="44.18787" lon="5.27631">
        <ele>1350.7895508</ele>
        <time>2015-06-06T06:57:50Z</time>
      </trkpt>
      <trkpt lat="44.18782" lon="5.27615">
        <ele>1346.9443359</ele>
        <time>2015-06-06T06:57:55Z</time>
      </trkpt>
      <trkpt lat="44.18779" lon="5.27585">
        <ele>1342.6186523</ele>
        <time>2015-06-06T06:58:02Z</time>
      </trkpt>
      <trkpt lat="44.18783" lon="5.27572">
        <ele>1340.6958008</ele>
        <time>2015-06-06T06:58:05Z</time>
      </trkpt>
      <trkpt lat="44.18789" lon="5.2754">
        <ele>1336.369873</ele>
        <time>2015-06-06T06:58:14Z</time>
      </trkpt>
      <trkpt lat="44.18784" lon="5.27537">
        <ele>1334.4472656</ele>
        <time>2015-06-06T06:58:20Z</time>
      </trkpt>
      <trkpt lat="44.18771" lon="5.27543">
        <ele>1332.5246582</ele>
        <time>2015-06-06T06:58:24Z</time>
      </trkpt>
      <trkpt lat="44.18758" lon="5.2757">
        <ele>1328.6794434</ele>
        <time>2015-06-06T06:58:32Z</time>
      </trkpt>
      <trkpt lat="44.18756" lon="5.27572">
        <ele>1327.2375488</ele>
        <time>2015-06-06T06:58:33Z</time>
      </trkpt>
      <trkpt lat="44.18753" lon="5.27548">
        <ele>1323.8725586</ele>
        <time>2015-06-06T06:58:40Z</time>
      </trkpt>
      <trkpt lat="44.18751" lon="5.27531">
        <ele>1324.3535156</ele>
        <time>2015-06-06T06:58:44Z</time>
      </trkpt>
      <trkpt lat="44.18765" lon="5.275">
        <ele>1322.4306641</ele>
        <time>2015-06-06T06:58:51Z</time>
      </trkpt>
      <trkpt lat="44.18775" lon="5.2745">
        <ele>1322.4306641</ele>
        <time>2015-06-06T06:58:59Z</time>
      </trkpt>
      <trkpt lat="44.18796" lon="5.27404">
        <ele>1320.9887695</ele>
        <time>2015-06-06T06:59:07Z</time>
      </trkpt>
      <trkpt lat="44.18797" lon="5.27398">
        <ele>1321.4692383</ele>
        <time>2015-06-06T06:59:08Z</time>
      </trkpt>
      <trkpt lat="44.18814" lon="5.27346">
        <ele>1318.5854492</ele>
        <time>2015-06-06T06:59:18Z</time>
      </trkpt>
      <trkpt lat="44.18828" lon="5.27303">
        <ele>1316.1821289</ele>
        <time>2015-06-06T06:59:27Z</time>
      </trkpt>
      <trkpt lat="44.18838" lon="5.27266">
        <ele>1312.817627</ele>
        <time>2015-06-06T06:59:33Z</time>
      </trkpt>
      <trkpt lat="44.18845" lon="5.27249">
        <ele>1309.453125</ele>
        <time>2015-06-06T06:59:38Z</time>
      </trkpt>
      <trkpt lat="44.18854" lon="5.27226">
        <ele>1303.2043457</ele>
        <time>2015-06-06T06:59:45Z</time>
      </trkpt>
      <trkpt lat="44.18857" lon="5.27217">
        <ele>1300.8010254</ele>
        <time>2015-06-06T06:59:54Z</time>
      </trkpt>
      <trkpt lat="44.18859" lon="5.27208">
        <ele>1299.8398438</ele>
        <time>2015-06-06T07:00:03Z</time>
      </trkpt>
      <trkpt lat="44.1886" lon="5.272">
        <ele>1294.5524902</ele>
        <time>2015-06-06T07:00:13Z</time>
      </trkpt>
      <trkpt lat="44.18873" lon="5.27177">
        <ele>1289.7458496</ele>
        <time>2015-06-06T07:00:22Z</time>
      </trkpt>
      <trkpt lat="44.18877" lon="5.2717">
        <ele>1288.3039551</ele>
        <time>2015-06-06T07:00:24Z</time>
      </trkpt>
      <trkpt lat="44.18889" lon="5.27155">
        <ele>1286.3813477</ele>
        <time>2015-06-06T07:00:29Z</time>
      </trkpt>
      <trkpt lat="44.18905" lon="5.27128">
        <ele>1283.4973145</ele>
        <time>2015-06-06T07:00:35Z</time>
      </trkpt>
      <trkpt lat="44.18929" lon="5.27097">
        <ele>1282.0554199</ele>
        <time>2015-06-06T07:00:41Z</time>
      </trkpt>
      <trkpt lat="44.18937" lon="5.27086">
        <ele>1281.574707</ele>
        <time>2015-06-06T07:00:43Z</time>
      </trkpt>
      <trkpt lat="44.18951" lon="5.27061">
        <ele>1281.0942383</ele>
        <time>2015-06-06T07:00:47Z</time>
      </trkpt>
      <trkpt lat="44.1897" lon="5.27026">
        <ele>1276.2875977</ele>
        <time>2015-06-06T07:00:55Z</time>
      </trkpt>
      <trkpt lat="44.18975" lon="5.27007">
        <ele>1274.845459</ele>
        <time>2015-06-06T07:00:59Z</time>
      </trkpt>
      <trkpt lat="44.18985" lon="5.26977">
        <ele>1269.0776367</ele>
        <time>2015-06-06T07:01:04Z</time>
      </trkpt>
      <trkpt lat="44.18992" lon="5.26915">
        <ele>1261.8679199</ele>
        <time>2015-06-06T07:01:13Z</time>
      </trkpt>
      <trkpt lat="44.18998" lon="5.26892">
        <ele>1258.5029297</ele>
        <time>2015-06-06T07:01:18Z</time>
      </trkpt>
      <trkpt lat="44.19" lon="5.26853">
        <ele>1255.1384277</ele>
        <time>2015-06-06T07:01:28Z</time>
      </trkpt>
      <trkpt lat="44.19007" lon="5.26826">
        <ele>1253.2158203</ele>
        <time>2015-06-06T07:01:35Z</time>
      </trkpt>
      <trkpt lat="44.19014" lon="5.26808">
        <ele>1252.2543945</ele>
        <time>2015-06-06T07:01:40Z</time>
      </trkpt>
      <trkpt lat="44.19021" lon="5.26796">
        <ele>1251.2932129</ele>
        <time>2015-06-06T07:01:43Z</time>
      </trkpt>
      <trkpt lat="44.19028" lon="5.26754">
        <ele>1247.9287109</ele>
        <time>2015-06-06T07:01:52Z</time>
      </trkpt>
      <trkpt lat="44.19025" lon="5.26739">
        <ele>1246.9672852</ele>
        <time>2015-06-06T07:01:58Z</time>
      </trkpt>
      <trkpt lat="44.1902" lon="5.26728">
        <ele>1246.9672852</ele>
        <time>2015-06-06T07:02:03Z</time>
      </trkpt>
      <trkpt lat="44.1901" lon="5.26681">
        <ele>1243.6025391</ele>
        <time>2015-06-06T07:02:13Z</time>
      </trkpt>
      <trkpt lat="44.19006" lon="5.26663">
        <ele>1240.7185059</ele>
        <time>2015-06-06T07:02:21Z</time>
      </trkpt>
      <trkpt lat="44.19005" lon="5.2666">
        <ele>1242.1606445</ele>
        <time>2015-06-06T07:02:26Z</time>
      </trkpt>
      <trkpt lat="44.18999" lon="5.26648">
        <ele>1241.6799316</ele>
        <time>2015-06-06T07:02:38Z</time>
      </trkpt>
      <trkpt lat="44.18995" lon="5.26639">
        <ele>1242.1606445</ele>
        <time>2015-06-06T07:02:49Z</time>
      </trkpt>
      <trkpt lat="44.18994" lon="5.26635">
        <ele>1242.1606445</ele>
        <time>2015-06-06T07:02:53Z</time>
      </trkpt>
      <trkpt lat="44.18992" lon="5.26633">
        <ele>1242.6413574</ele>
        <time>2015-06-06T07:02:55Z</time>
      </trkpt>
      <trkpt lat="44.18987" lon="5.26625">
        <ele>1242.1606445</ele>
        <time>2015-06-06T07:03:01Z</time>
      </trkpt>
      <trkpt lat="44.18975" lon="5.26611">
        <ele>1241.1992188</ele>
        <time>2015-06-06T07:03:12Z</time>
      </trkpt>
      <trkpt lat="44.1896" lon="5.26595">
        <ele>1240.7185059</ele>
        <time>2015-06-06T07:03:20Z</time>
      </trkpt>
      <trkpt lat="44.18939" lon="5.26569">
        <ele>1238.7961426</ele>
        <time>2015-06-06T07:03:29Z</time>
      </trkpt>
      <trkpt lat="44.18936" lon="5.26565">
        <ele>1238.7961426</ele>
        <time>2015-06-06T07:03:30Z</time>
      </trkpt>
      <trkpt lat="44.18926" lon="5.26552">
        <ele>1238.3154297</ele>
        <time>2015-06-06T07:03:34Z</time>
      </trkpt>
      <trkpt lat="44.18918" lon="5.26534">
        <ele>1236.873291</ele>
        <time>2015-06-06T07:03:38Z</time>
      </trkpt>
      <trkpt lat="44.18913" lon="5.26531">
        <ele>1237.8347168</ele>
        <time>2015-06-06T07:03:43Z</time>
      </trkpt>
      <trkpt lat="44.18898" lon="5.26523">
        <ele>1237.3540039</ele>
        <time>2015-06-06T07:03:59Z</time>
      </trkpt>
      <trkpt lat="44.18891" lon="5.26518">
        <ele>1237.8347168</ele>
        <time>2015-06-06T07:04:08Z</time>
      </trkpt>
      <trkpt lat="44.18885" lon="5.26509">
        <ele>1238.3154297</ele>
        <time>2015-06-06T07:04:16Z</time>
      </trkpt>
      <trkpt lat="44.18874" lon="5.26507">
        <ele>1241.6799316</ele>
        <time>2015-06-06T07:04:31Z</time>
      </trkpt>
      <trkpt lat="44.18861" lon="5.26495">
        <ele>1240.7185059</ele>
        <time>2015-06-06T07:04:47Z</time>
      </trkpt>
      <trkpt lat="44.18846" lon="5.26483">
        <ele>1242.6413574</ele>
        <time>2015-06-06T07:05:08Z</time>
      </trkpt>
      <trkpt lat="44.18843" lon="5.26479">
        <ele>1242.1606445</ele>
        <time>2015-06-06T07:05:12Z</time>
      </trkpt>
      <trkpt lat="44.18833" lon="5.26462">
        <ele>1239.7573242</ele>
        <time>2015-06-06T07:05:21Z</time>
      </trkpt>
      <trkpt lat="44.1883" lon="5.26459">
        <ele>1240.2380371</ele>
        <time>2015-06-06T07:05:30Z</time>
      </trkpt>
      <trkpt lat="44.1883" lon="5.26459">
        <ele>1239.7573242</ele>
        <time>2015-06-06T07:08:22Z</time>
      </trkpt>
      <trkpt lat="44.18829" lon="5.26458">
        <ele>1239.2766113</ele>
        <time>2015-06-06T07:17:01Z</time>
      </trkpt>
      <trkpt lat="44.18824" lon="5.26451">
        <ele>1239.7573242</ele>
        <time>2015-06-06T07:17:17Z</time>
      </trkpt>
      <trkpt lat="44.18819" lon="5.26444">
        <ele>1240.2380371</ele>
        <time>2015-06-06T07:17:29Z</time>
      </trkpt>
      <trkpt lat="44.18815" lon="5.26436">
        <ele>1240.7185059</ele>
        <time>2015-06-06T07:17:37Z</time>
      </trkpt>
      <trkpt lat="44.18806" lon="5.26422">
        <ele>1239.7573242</ele>
        <time>2015-06-06T07:17:51Z</time>
      </trkpt>
      <trkpt lat="44.188" lon="5.26413">
        <ele>1241.6799316</ele>
        <time>2015-06-06T07:18:04Z</time>
      </trkpt>
      <trkpt lat="44.18795" lon="5.26402">
        <ele>1241.6799316</ele>
        <time>2015-06-06T07:18:19Z</time>
      </trkpt>
      <trkpt lat="44.18788" lon="5.26389">
        <ele>1242.6413574</ele>
        <time>2015-06-06T07:18:33Z</time>
      </trkpt>
      <trkpt lat="44.18788" lon="5.26386">
        <ele>1242.1606445</ele>
        <time>2015-06-06T07:18:35Z</time>
      </trkpt>
      <trkpt lat="44.18788" lon="5.2638">
        <ele>1242.1606445</ele>
        <time>2015-06-06T07:18:39Z</time>
      </trkpt>
      <trkpt lat="44.18787" lon="5.26359">
        <ele>1242.1606445</ele>
        <time>2015-06-06T07:18:56Z</time>
      </trkpt>
      <trkpt lat="44.1879" lon="5.2635">
        <ele>1245.5253906</ele>
        <time>2015-06-06T07:19:07Z</time>
      </trkpt>
      <trkpt lat="44.18792" lon="5.26349">
        <ele>1245.5253906</ele>
        <time>2015-06-06T07:19:11Z</time>
      </trkpt>
      <trkpt lat="44.18805" lon="5.26349">
        <ele>1245.5253906</ele>
        <time>2015-06-06T07:19:26Z</time>
      </trkpt>
      <trkpt lat="44.18814" lon="5.26354">
        <ele>1242.6413574</ele>
        <time>2015-06-06T07:19:31Z</time>
      </trkpt>
      <trkpt lat="44.18825" lon="5.26357">
        <ele>1242.6413574</ele>
        <time>2015-06-06T07:19:41Z</time>
      </trkpt>
      <trkpt lat="44.1883" lon="5.26357">
        <ele>1242.6413574</ele>
        <time>2015-06-06T07:19:51Z</time>
      </trkpt>
      <trkpt lat="44.18842" lon="5.26362">
        <ele>1241.1992188</ele>
        <time>2015-06-06T07:19:59Z</time>
      </trkpt>
      <trkpt lat="44.18855" lon="5.26364">
        <ele>1239.7573242</ele>
        <time>2015-06-06T07:20:07Z</time>
      </trkpt>
      <trkpt lat="44.18878" lon="5.26361">
        <ele>1234.4702148</ele>
        <time>2015-06-06T07:20:17Z</time>
      </trkpt>
      <trkpt lat="44.18892" lon="5.26352">
        <ele>1233.0280762</ele>
        <time>2015-06-06T07:20:25Z</time>
      </trkpt>
      <trkpt lat="44.18908" lon="5.26344">
        <ele>1231.5861816</ele>
        <time>2015-06-06T07:20:33Z</time>
      </trkpt>
      <trkpt lat="44.18908" lon="5.26344">
        <ele>1231.1057129</ele>
        <time>2015-06-06T07:20:34Z</time>
      </trkpt>
      <trkpt lat="44.18912" lon="5.26341">
        <ele>1230.1442871</ele>
        <time>2015-06-06T07:20:38Z</time>
      </trkpt>
      <trkpt lat="44.1893" lon="5.26332">
        <ele>1228.7023926</ele>
        <time>2015-06-06T07:20:50Z</time>
      </trkpt>
      <trkpt lat="44.18942" lon="5.26321">
        <ele>1230.1442871</ele>
        <time>2015-06-06T07:21:03Z</time>
      </trkpt>
      <trkpt lat="44.18955" lon="5.26317">
        <ele>1228.2216797</ele>
        <time>2015-06-06T07:21:13Z</time>
      </trkpt>
      <trkpt lat="44.18961" lon="5.26315">
        <ele>1227.7407227</ele>
        <time>2015-06-06T07:21:16Z</time>
      </trkpt>
      <trkpt lat="44.18974" lon="5.26317">
        <ele>1226.2988281</ele>
        <time>2015-06-06T07:21:24Z</time>
      </trkpt>
      <trkpt lat="44.18988" lon="5.26313">
        <ele>1224.3762207</ele>
        <time>2015-06-06T07:21:33Z</time>
      </trkpt>
      <trkpt lat="44.18997" lon="5.26307">
        <ele>1224.3762207</ele>
        <time>2015-06-06T07:21:39Z</time>
      </trkpt>
      <trkpt lat="44.19011" lon="5.26302">
        <ele>1221.9729004</ele>
        <time>2015-06-06T07:21:48Z</time>
      </trkpt>
      <trkpt lat="44.19015" lon="5.26297">
        <ele>1223.8955078</ele>
        <time>2015-06-06T07:21:56Z</time>
      </trkpt>
      <trkpt lat="44.19034" lon="5.2629">
        <ele>1223.8955078</ele>
        <time>2015-06-06T07:22:08Z</time>
      </trkpt>
      <trkpt lat="44.19038" lon="5.2629">
        <ele>1222.4536133</ele>
        <time>2015-06-06T07:22:10Z</time>
      </trkpt>
      <trkpt lat="44.1905" lon="5.26286">
        <ele>1221.0117188</ele>
        <time>2015-06-06T07:22:20Z</time>
      </trkpt>
      <trkpt lat="44.19054" lon="5.26285">
        <ele>1220.050293</ele>
        <time>2015-06-06T07:22:34Z</time>
      </trkpt>
      <trkpt lat="44.19054" lon="5.26285">
        <ele>1219.5698242</ele>
        <time>2015-06-06T07:22:49Z</time>
      </trkpt>
      <trkpt lat="44.19057" lon="5.26279">
        <ele>1218.1276855</ele>
        <time>2015-06-06T07:26:00Z</time>
      </trkpt>
      <trkpt lat="44.19069" lon="5.26275">
        <ele>1217.1665039</ele>
        <time>2015-06-06T07:26:14Z</time>
      </trkpt>
      <trkpt lat="44.1909" lon="5.26264">
        <ele>1217.6469727</ele>
        <time>2015-06-06T07:26:22Z</time>
      </trkpt>
      <trkpt lat="44.19106" lon="5.26257">
        <ele>1216.2050781</ele>
        <time>2015-06-06T07:26:26Z</time>
      </trkpt>
      <trkpt lat="44.1913" lon="5.26236">
        <ele>1213.8017578</ele>
        <time>2015-06-06T07:26:34Z</time>
      </trkpt>
      <trkpt lat="44.19159" lon="5.2621">
        <ele>1212.8405762</ele>
        <time>2015-06-06T07:26:43Z</time>
      </trkpt>
      <trkpt lat="44.19173" lon="5.26157">
        <ele>1209.9562988</ele>
        <time>2015-06-06T07:26:51Z</time>
      </trkpt>
      <trkpt lat="44.19176" lon="5.26125">
        <ele>1208.0339355</ele>
        <time>2015-06-06T07:26:58Z</time>
      </trkpt>
      <trkpt lat="44.19177" lon="5.26103">
        <ele>1207.0725098</ele>
        <time>2015-06-06T07:27:02Z</time>
      </trkpt>
      <trkpt lat="44.19177" lon="5.26071">
        <ele>1205.1499023</ele>
        <time>2015-06-06T07:27:08Z</time>
      </trkpt>
      <trkpt lat="44.19183" lon="5.26024">
        <ele>1203.2272949</ele>
        <time>2015-06-06T07:27:15Z</time>
      </trkpt>
      <trkpt lat="44.19182" lon="5.26019">
        <ele>1203.2272949</ele>
        <time>2015-06-06T07:27:16Z</time>
      </trkpt>
      <trkpt lat="44.19184" lon="5.25992">
        <ele>1202.746582</ele>
        <time>2015-06-06T07:27:20Z</time>
      </trkpt>
      <trkpt lat="44.19193" lon="5.25939">
        <ele>1198.4206543</ele>
        <time>2015-06-06T07:27:29Z</time>
      </trkpt>
      <trkpt lat="44.19194" lon="5.25927">
        <ele>1197.4594727</ele>
        <time>2015-06-06T07:27:31Z</time>
      </trkpt>
      <trkpt lat="44.19191" lon="5.25892">
        <ele>1196.0175781</ele>
        <time>2015-06-06T07:27:37Z</time>
      </trkpt>
      <trkpt lat="44.1919" lon="5.25881">
        <ele>1196.498291</ele>
        <time>2015-06-06T07:27:43Z</time>
      </trkpt>
      <trkpt lat="44.1919" lon="5.2588">
        <ele>1196.498291</ele>
        <time>2015-06-06T07:28:17Z</time>
      </trkpt>
      <trkpt lat="44.1919" lon="5.25878">
        <ele>1195.5366211</ele>
        <time>2015-06-06T07:28:32Z</time>
      </trkpt>
      <trkpt lat="44.1919" lon="5.25877">
        <ele>1196.0175781</ele>
        <time>2015-06-06T07:29:57Z</time>
      </trkpt>
      <trkpt lat="44.1919" lon="5.25877">
        <ele>1196.498291</ele>
        <time>2015-06-06T07:33:32Z</time>
      </trkpt>
      <trkpt lat="44.1919" lon="5.25866">
        <ele>1196.9787598</ele>
        <time>2015-06-06T07:34:08Z</time>
      </trkpt>
      <trkpt lat="44.1919" lon="5.2584">
        <ele>1195.0559082</ele>
        <time>2015-06-06T07:34:14Z</time>
      </trkpt>
      <trkpt lat="44.19196" lon="5.25805">
        <ele>1194.0947266</ele>
        <time>2015-06-06T07:34:20Z</time>
      </trkpt>
      <trkpt lat="44.19203" lon="5.25789">
        <ele>1192.652832</ele>
        <time>2015-06-06T07:34:21Z</time>
      </trkpt>
      <trkpt lat="44.19205" lon="5.25759">
        <ele>1190.7299805</ele>
        <time>2015-06-06T07:34:25Z</time>
      </trkpt>
      <trkpt lat="44.19216" lon="5.25718">
        <ele>1186.4042969</ele>
        <time>2015-06-06T07:34:31Z</time>
      </trkpt>
      <trkpt lat="44.19218" lon="5.25699">
        <ele>1184.9624023</ele>
        <time>2015-06-06T07:34:33Z</time>
      </trkpt>
      <trkpt lat="44.1921" lon="5.25669">
        <ele>1183.5202637</ele>
        <time>2015-06-06T07:34:37Z</time>
      </trkpt>
      <trkpt lat="44.19192" lon="5.25639">
        <ele>1182.559082</ele>
        <time>2015-06-06T07:34:40Z</time>
      </trkpt>
      <trkpt lat="44.19181" lon="5.25572">
        <ele>1178.713623</ele>
        <time>2015-06-06T07:34:45Z</time>
      </trkpt>
      <trkpt lat="44.19151" lon="5.25535">
        <ele>1176.3103027</ele>
        <time>2015-06-06T07:34:51Z</time>
      </trkpt>
      <trkpt lat="44.19152" lon="5.25534">
        <ele>1175.348877</ele>
        <time>2015-06-06T07:35:05Z</time>
      </trkpt>
      <trkpt lat="44.19152" lon="5.25533">
        <ele>1174.8684082</ele>
        <time>2015-06-06T07:36:34Z</time>
      </trkpt>
      <trkpt lat="44.19151" lon="5.25533">
        <ele>1174.3876953</ele>
        <time>2015-06-06T07:36:36Z</time>
      </trkpt>
      <trkpt lat="44.19152" lon="5.25521">
        <ele>1172.9458008</ele>
        <time>2015-06-06T07:36:41Z</time>
      </trkpt>
      <trkpt lat="44.19146" lon="5.25504">
        <ele>1172.4650879</ele>
        <time>2015-06-06T07:36:46Z</time>
      </trkpt>
      <trkpt lat="44.19144" lon="5.25489">
        <ele>1172.4650879</ele>
        <time>2015-06-06T07:36:49Z</time>
      </trkpt>
      <trkpt lat="44.1914" lon="5.25467">
        <ele>1171.5036621</ele>
        <time>2015-06-06T07:36:54Z</time>
      </trkpt>
      <trkpt lat="44.19133" lon="5.25452">
        <ele>1171.5036621</ele>
        <time>2015-06-06T07:36:58Z</time>
      </trkpt>
      <trkpt lat="44.19115" lon="5.25407">
        <ele>1169.5812988</ele>
        <time>2015-06-06T07:37:07Z</time>
      </trkpt>
      <trkpt lat="44.19109" lon="5.25382">
        <ele>1164.7746582</ele>
        <time>2015-06-06T07:37:13Z</time>
      </trkpt>
      <trkpt lat="44.19106" lon="5.25359">
        <ele>1160.4484863</ele>
        <time>2015-06-06T07:37:19Z</time>
      </trkpt>
      <trkpt lat="44.19107" lon="5.25346">
        <ele>1158.0454102</ele>
        <time>2015-06-06T07:37:23Z</time>
      </trkpt>
      <trkpt lat="44.19107" lon="5.25344">
        <ele>1156.6032715</ele>
        <time>2015-06-06T07:37:38Z</time>
      </trkpt>
      <trkpt lat="44.19107" lon="5.25344">
        <ele>1156.6032715</ele>
        <time>2015-06-06T07:37:46Z</time>
      </trkpt>
      <trkpt lat="44.19107" lon="5.2534">
        <ele>1155.161377</ele>
        <time>2015-06-06T07:37:48Z</time>
      </trkpt>
      <trkpt lat="44.19107" lon="5.25334">
        <ele>1153.2387695</ele>
        <time>2015-06-06T07:37:51Z</time>
      </trkpt>
      <trkpt lat="44.19105" lon="5.25314">
        <ele>1150.8354492</ele>
        <time>2015-06-06T07:38:02Z</time>
      </trkpt>
      <trkpt lat="44.19104" lon="5.25312">
        <ele>1149.8742676</ele>
        <time>2015-06-06T07:38:17Z</time>
      </trkpt>
      <trkpt lat="44.19102" lon="5.25294">
        <ele>1146.5095215</ele>
        <time>2015-06-06T07:38:24Z</time>
      </trkpt>
      <trkpt lat="44.19099" lon="5.25254">
        <ele>1142.1835938</ele>
        <time>2015-06-06T07:38:33Z</time>
      </trkpt>
      <trkpt lat="44.19099" lon="5.25242">
        <ele>1139.7802734</ele>
        <time>2015-06-06T07:38:36Z</time>
      </trkpt>
      <trkpt lat="44.19096" lon="5.25223">
        <ele>1136.4157715</ele>
        <time>2015-06-06T07:38:44Z</time>
      </trkpt>
      <trkpt lat="44.19095" lon="5.25196">
        <ele>1131.6088867</ele>
        <time>2015-06-06T07:38:51Z</time>
      </trkpt>
      <trkpt lat="44.19095" lon="5.25191">
        <ele>1131.128418</ele>
        <time>2015-06-06T07:38:52Z</time>
      </trkpt>
      <trkpt lat="44.19095" lon="5.25151">
        <ele>1127.7636719</ele>
        <time>2015-06-06T07:39:01Z</time>
      </trkpt>
      <trkpt lat="44.19096" lon="5.25127">
        <ele>1123.4379883</ele>
        <time>2015-06-06T07:39:09Z</time>
      </trkpt>
      <trkpt lat="44.19096" lon="5.25125">
        <ele>1122.9572754</ele>
        <time>2015-06-06T07:39:10Z</time>
      </trkpt>
      <trkpt lat="44.191" lon="5.25098">
        <ele>1120.0732422</ele>
        <time>2015-06-06T07:39:20Z</time>
      </trkpt>
      <trkpt lat="44.19107" lon="5.25079">
        <ele>1118.6313477</ele>
        <time>2015-06-06T07:39:24Z</time>
      </trkpt>
      <trkpt lat="44.1911" lon="5.25035">
        <ele>1116.2280273</ele>
        <time>2015-06-06T07:39:31Z</time>
      </trkpt>
      <trkpt lat="44.19112" lon="5.24995">
        <ele>1112.8632813</ele>
        <time>2015-06-06T07:39:36Z</time>
      </trkpt>
      <trkpt lat="44.19122" lon="5.24955">
        <ele>1109.0180664</ele>
        <time>2015-06-06T07:39:41Z</time>
      </trkpt>
      <trkpt lat="44.19125" lon="5.24907">
        <ele>1103.730957</ele>
        <time>2015-06-06T07:39:49Z</time>
      </trkpt>
      <trkpt lat="44.19129" lon="5.2489">
        <ele>1100.8469238</ele>
        <time>2015-06-06T07:39:56Z</time>
      </trkpt>
      <trkpt lat="44.19131" lon="5.24864">
        <ele>1097.9628906</ele>
        <time>2015-06-06T07:41:30Z</time>
      </trkpt>
      <trkpt lat="44.19129" lon="5.24825">
        <ele>1095.5595703</ele>
        <time>2015-06-06T07:41:37Z</time>
      </trkpt>
      <trkpt lat="44.19126" lon="5.24785">
        <ele>1092.6757813</ele>
        <time>2015-06-06T07:41:44Z</time>
      </trkpt>
      <trkpt lat="44.19126" lon="5.2474">
        <ele>1090.2724609</ele>
        <time>2015-06-06T07:41:53Z</time>
      </trkpt>
      <trkpt lat="44.19128" lon="5.24723">
        <ele>1089.791748</ele>
        <time>2015-06-06T07:41:56Z</time>
      </trkpt>
      <trkpt lat="44.19125" lon="5.24702">
        <ele>1089.3110352</ele>
        <time>2015-06-06T07:41:59Z</time>
      </trkpt>
      <trkpt lat="44.19126" lon="5.24649">
        <ele>1086.9077148</ele>
        <time>2015-06-06T07:42:06Z</time>
      </trkpt>
      <trkpt lat="44.19121" lon="5.24603">
        <ele>1084.5046387</ele>
        <time>2015-06-06T07:42:13Z</time>
      </trkpt>
      <trkpt lat="44.19102" lon="5.2454">
        <ele>1079.217041</ele>
        <time>2015-06-06T07:42:21Z</time>
      </trkpt>
      <trkpt lat="44.1909" lon="5.24474">
        <ele>1070.0847168</ele>
        <time>2015-06-06T07:42:30Z</time>
      </trkpt>
      <trkpt lat="44.19085" lon="5.24445">
        <ele>1063.8359375</ele>
        <time>2015-06-06T07:42:36Z</time>
      </trkpt>
      <trkpt lat="44.19086" lon="5.24416">
        <ele>1059.9907227</ele>
        <time>2015-06-06T07:42:46Z</time>
      </trkpt>
      <trkpt lat="44.1908" lon="5.24376">
        <ele>1054.7036133</ele>
        <time>2015-06-06T07:42:56Z</time>
      </trkpt>
      <trkpt lat="44.19078" lon="5.24368">
        <ele>1054.2231445</ele>
        <time>2015-06-06T07:42:58Z</time>
      </trkpt>
      <trkpt lat="44.19073" lon="5.24346">
        <ele>1049.8969727</ele>
        <time>2015-06-06T07:43:06Z</time>
      </trkpt>
      <trkpt lat="44.19072" lon="5.24321">
        <ele>1046.5324707</ele>
        <time>2015-06-06T07:43:14Z</time>
      </trkpt>
      <trkpt lat="44.19075" lon="5.24295">
        <ele>1041.7258301</ele>
        <time>2015-06-06T07:43:22Z</time>
      </trkpt>
      <trkpt lat="44.19079" lon="5.24276">
        <ele>1042.206543</ele>
        <time>2015-06-06T07:43:29Z</time>
      </trkpt>
      <trkpt lat="44.19084" lon="5.24258">
        <ele>1040.2839355</ele>
        <time>2015-06-06T07:43:35Z</time>
      </trkpt>
      <trkpt lat="44.19085" lon="5.24251">
        <ele>1039.8032227</ele>
        <time>2015-06-06T07:43:49Z</time>
      </trkpt>
      <trkpt lat="44.19085" lon="5.24249">
        <ele>1039.3225098</ele>
        <time>2015-06-06T07:43:50Z</time>
      </trkpt>
      <trkpt lat="44.19081" lon="5.24237">
        <ele>1035.9577637</ele>
        <time>2015-06-06T07:43:54Z</time>
      </trkpt>
      <trkpt lat="44.19083" lon="5.24233">
        <ele>1033.5544434</ele>
        <time>2015-06-06T07:44:04Z</time>
      </trkpt>
      <trkpt lat="44.19082" lon="5.24241">
        <ele>1032.1125488</ele>
        <time>2015-06-06T07:44:12Z</time>
      </trkpt>
      <trkpt lat="44.19081" lon="5.24248">
        <ele>1032.1125488</ele>
        <time>2015-06-06T07:44:17Z</time>
      </trkpt>
      <trkpt lat="44.1908" lon="5.24249">
        <ele>1032.1125488</ele>
        <time>2015-06-06T07:44:32Z</time>
      </trkpt>
      <trkpt lat="44.19082" lon="5.2425">
        <ele>1032.5932617</ele>
        <time>2015-06-06T07:44:43Z</time>
      </trkpt>
      <trkpt lat="44.19081" lon="5.2425">
        <ele>1032.1125488</ele>
        <time>2015-06-06T07:45:49Z</time>
      </trkpt>
      <trkpt lat="44.1908" lon="5.24256">
        <ele>1031.1513672</ele>
        <time>2015-06-06T07:45:59Z</time>
      </trkpt>
      <trkpt lat="44.19078" lon="5.24259">
        <ele>1031.1513672</ele>
        <time>2015-06-06T07:46:07Z</time>
      </trkpt>
      <trkpt lat="44.19074" lon="5.24268">
        <ele>1032.1125488</ele>
        <time>2015-06-06T07:46:12Z</time>
      </trkpt>
      <trkpt lat="44.19073" lon="5.24275">
        <ele>1032.1125488</ele>
        <time>2015-06-06T07:46:15Z</time>
      </trkpt>
      <trkpt lat="44.19075" lon="5.24274">
        <ele>1031.6318359</ele>
        <time>2015-06-06T07:46:24Z</time>
      </trkpt>
      <trkpt lat="44.1908" lon="5.2425">
        <ele>1030.6706543</ele>
        <time>2015-06-06T07:46:33Z</time>
      </trkpt>
      <trkpt lat="44.19081" lon="5.24249">
        <ele>1030.6706543</ele>
        <time>2015-06-06T07:47:09Z</time>
      </trkpt>
      <trkpt lat="44.19079" lon="5.24256">
        <ele>1030.1899414</ele>
        <time>2015-06-06T07:55:37Z</time>
      </trkpt>
      <trkpt lat="44.19071" lon="5.24288">
        <ele>1032.1125488</ele>
        <time>2015-06-06T07:55:49Z</time>
      </trkpt>
      <trkpt lat="44.19065" lon="5.24331">
        <ele>1034.5158691</ele>
        <time>2015-06-06T07:56:05Z</time>
      </trkpt>
      <trkpt lat="44.19069" lon="5.24372">
        <ele>1034.996582</ele>
        <time>2015-06-06T07:56:19Z</time>
      </trkpt>
      <trkpt lat="44.19072" lon="5.2442">
        <ele>1041.7258301</ele>
        <time>2015-06-06T07:56:34Z</time>
      </trkpt>
      <trkpt lat="44.19074" lon="5.24469">
        <ele>1044.6096191</ele>
        <time>2015-06-06T07:56:50Z</time>
      </trkpt>
      <trkpt lat="44.19079" lon="5.2454">
        <ele>1045.5710449</ele>
        <time>2015-06-06T07:57:09Z</time>
      </trkpt>
      <trkpt lat="44.19085" lon="5.24606">
        <ele>1048.9355469</ele>
        <time>2015-06-06T07:57:26Z</time>
      </trkpt>
      <trkpt lat="44.19086" lon="5.24656">
        <ele>1050.3776855</ele>
        <time>2015-06-06T07:57:39Z</time>
      </trkpt>
      <trkpt lat="44.19088" lon="5.24692">
        <ele>1049.8969727</ele>
        <time>2015-06-06T07:57:48Z</time>
      </trkpt>
      <trkpt lat="44.19085" lon="5.24745">
        <ele>1049.8969727</ele>
        <time>2015-06-06T07:58:01Z</time>
      </trkpt>
      <trkpt lat="44.1909" lon="5.24808">
        <ele>1052.7810059</ele>
        <time>2015-06-06T07:58:17Z</time>
      </trkpt>
      <trkpt lat="44.19084" lon="5.24853">
        <ele>1052.7810059</ele>
        <time>2015-06-06T07:58:30Z</time>
      </trkpt>
      <trkpt lat="44.19069" lon="5.24844">
        <ele>1054.2231445</ele>
        <time>2015-06-06T07:58:37Z</time>
      </trkpt>
      <trkpt lat="44.19049" lon="5.24798">
        <ele>1056.6262207</ele>
        <time>2015-06-06T07:58:50Z</time>
      </trkpt>
      <trkpt lat="44.19023" lon="5.24743">
        <ele>1059.029541</ele>
        <time>2015-06-06T07:59:04Z</time>
      </trkpt>
      <trkpt lat="44.18993" lon="5.24686">
        <ele>1060.4714355</ele>
        <time>2015-06-06T07:59:17Z</time>
      </trkpt>
      <trkpt lat="44.18969" lon="5.2464">
        <ele>1061.9135742</ele>
        <time>2015-06-06T07:59:28Z</time>
      </trkpt>
      <trkpt lat="44.18949" lon="5.2461">
        <ele>1062.8747559</ele>
        <time>2015-06-06T07:59:37Z</time>
      </trkpt>
      <trkpt lat="44.18916" lon="5.24569">
        <ele>1065.2780762</ele>
        <time>2015-06-06T07:59:52Z</time>
      </trkpt>
      <trkpt lat="44.18892" lon="5.24526">
        <ele>1066.2392578</ele>
        <time>2015-06-06T08:00:06Z</time>
      </trkpt>
      <trkpt lat="44.1887" lon="5.2448">
        <ele>1066.7199707</ele>
        <time>2015-06-06T08:00:21Z</time>
      </trkpt>
      <trkpt lat="44.18848" lon="5.24431">
        <ele>1067.6811523</ele>
        <time>2015-06-06T08:00:35Z</time>
      </trkpt>
      <trkpt lat="44.18835" lon="5.2439">
        <ele>1069.604248</ele>
        <time>2015-06-06T08:00:45Z</time>
      </trkpt>
      <trkpt lat="44.18823" lon="5.24341">
        <ele>1072.4880371</ele>
        <time>2015-06-06T08:00:57Z</time>
      </trkpt>
      <trkpt lat="44.1881" lon="5.24286">
        <ele>1073.9299316</ele>
        <time>2015-06-06T08:01:10Z</time>
      </trkpt>
      <trkpt lat="44.1879" lon="5.24239">
        <ele>1073.4494629</ele>
        <time>2015-06-06T08:01:22Z</time>
      </trkpt>
      <trkpt lat="44.18761" lon="5.24234">
        <ele>1074.8913574</ele>
        <time>2015-06-06T08:01:31Z</time>
      </trkpt>
      <trkpt lat="44.1873" lon="5.24269">
        <ele>1076.8139648</ele>
        <time>2015-06-06T08:01:43Z</time>
      </trkpt>
      <trkpt lat="44.18701" lon="5.24315">
        <ele>1080.1784668</ele>
        <time>2015-06-06T08:01:57Z</time>
      </trkpt>
      <trkpt lat="44.18671" lon="5.24349">
        <ele>1079.6977539</ele>
        <time>2015-06-06T08:02:09Z</time>
      </trkpt>
      <trkpt lat="44.18638" lon="5.24387">
        <ele>1079.6977539</ele>
        <time>2015-06-06T08:02:23Z</time>
      </trkpt>
      <trkpt lat="44.18612" lon="5.24434">
        <ele>1083.0622559</ele>
        <time>2015-06-06T08:02:36Z</time>
      </trkpt>
      <trkpt lat="44.18596" lon="5.24509">
        <ele>1083.0622559</ele>
        <time>2015-06-06T08:02:50Z</time>
      </trkpt>
      <trkpt lat="44.18585" lon="5.2455">
        <ele>1084.0239258</ele>
        <time>2015-06-06T08:02:58Z</time>
      </trkpt>
      <trkpt lat="44.18559" lon="5.24591">
        <ele>1084.9853516</ele>
        <time>2015-06-06T08:03:09Z</time>
      </trkpt>
      <trkpt lat="44.18558" lon="5.24592">
        <ele>1084.5046387</ele>
        <time>2015-06-06T08:03:20Z</time>
      </trkpt>
      <trkpt lat="44.18545" lon="5.24586">
        <ele>1086.4272461</ele>
        <time>2015-06-06T08:03:36Z</time>
      </trkpt>
      <trkpt lat="44.18541" lon="5.24583">
        <ele>1086.9077148</ele>
        <time>2015-06-06T08:03:37Z</time>
      </trkpt>
      <trkpt lat="44.18527" lon="5.24559">
        <ele>1088.3498535</ele>
        <time>2015-06-06T08:03:43Z</time>
      </trkpt>
      <trkpt lat="44.18511" lon="5.24505">
        <ele>1088.8305664</ele>
        <time>2015-06-06T08:03:54Z</time>
      </trkpt>
      <trkpt lat="44.18494" lon="5.24449">
        <ele>1089.791748</ele>
        <time>2015-06-06T08:04:04Z</time>
      </trkpt>
      <trkpt lat="44.1849" lon="5.24438">
        <ele>1089.3110352</ele>
        <time>2015-06-06T08:04:06Z</time>
      </trkpt>
      <trkpt lat="44.18465" lon="5.24353">
        <ele>1086.9077148</ele>
        <time>2015-06-06T08:04:20Z</time>
      </trkpt>
      <trkpt lat="44.18464" lon="5.24341">
        <ele>1086.9077148</ele>
        <time>2015-06-06T08:04:22Z</time>
      </trkpt>
      <trkpt lat="44.18463" lon="5.24323">
        <ele>1088.3498535</ele>
        <time>2015-06-06T08:04:25Z</time>
      </trkpt>
      <trkpt lat="44.18465" lon="5.24287">
        <ele>1090.7529297</ele>
        <time>2015-06-06T08:04:31Z</time>
      </trkpt>
      <trkpt lat="44.18469" lon="5.24269">
        <ele>1091.2336426</ele>
        <time>2015-06-06T08:04:34Z</time>
      </trkpt>
      <trkpt lat="44.18475" lon="5.24252">
        <ele>1091.2336426</ele>
        <time>2015-06-06T08:04:37Z</time>
      </trkpt>
      <trkpt lat="44.18479" lon="5.24241">
        <ele>1091.7143555</ele>
        <time>2015-06-06T08:04:39Z</time>
      </trkpt>
      <trkpt lat="44.18484" lon="5.24218">
        <ele>1093.15625</ele>
        <time>2015-06-06T08:04:43Z</time>
      </trkpt>
      <trkpt lat="44.1848" lon="5.24156">
        <ele>1092.6757813</ele>
        <time>2015-06-06T08:04:53Z</time>
      </trkpt>
      <trkpt lat="44.18471" lon="5.24106">
        <ele>1091.7143555</ele>
        <time>2015-06-06T08:05:01Z</time>
      </trkpt>
      <trkpt lat="44.18449" lon="5.24018">
        <ele>1091.7143555</ele>
        <time>2015-06-06T08:05:16Z</time>
      </trkpt>
      <trkpt lat="44.18445" lon="5.24001">
        <ele>1091.7143555</ele>
        <time>2015-06-06T08:05:19Z</time>
      </trkpt>
      <trkpt lat="44.18436" lon="5.23917">
        <ele>1092.1950684</ele>
        <time>2015-06-06T08:05:34Z</time>
      </trkpt>
      <trkpt lat="44.18436" lon="5.23912">
        <ele>1092.1950684</ele>
        <time>2015-06-06T08:05:35Z</time>
      </trkpt>
      <trkpt lat="44.1844" lon="5.2388">
        <ele>1094.5981445</ele>
        <time>2015-06-06T08:05:41Z</time>
      </trkpt>
      <trkpt lat="44.18445" lon="5.23851">
        <ele>1095.0788574</ele>
        <time>2015-06-06T08:05:46Z</time>
      </trkpt>
      <trkpt lat="44.18449" lon="5.23828">
        <ele>1096.0402832</ele>
        <time>2015-06-06T08:05:50Z</time>
      </trkpt>
      <trkpt lat="44.18451" lon="5.238">
        <ele>1095.5595703</ele>
        <time>2015-06-06T08:05:55Z</time>
      </trkpt>
      <trkpt lat="44.18452" lon="5.23778">
        <ele>1096.5209961</ele>
        <time>2015-06-06T08:05:59Z</time>
      </trkpt>
      <trkpt lat="44.18433" lon="5.2373">
        <ele>1097.0014648</ele>
        <time>2015-06-06T08:06:09Z</time>
      </trkpt>
      <trkpt lat="44.18424" lon="5.23716">
        <ele>1097.0014648</ele>
        <time>2015-06-06T08:06:12Z</time>
      </trkpt>
      <trkpt lat="44.18385" lon="5.23662">
        <ele>1099.885498</ele>
        <time>2015-06-06T08:06:26Z</time>
      </trkpt>
      <trkpt lat="44.18352" lon="5.23619">
        <ele>1100.3664551</ele>
        <time>2015-06-06T08:06:38Z</time>
      </trkpt>
      <trkpt lat="44.18311" lon="5.23561">
        <ele>1101.8083496</ele>
        <time>2015-06-06T08:06:54Z</time>
      </trkpt>
      <trkpt lat="44.18281" lon="5.23525">
        <ele>1103.2502441</ele>
        <time>2015-06-06T08:07:03Z</time>
      </trkpt>
      <trkpt lat="44.18263" lon="5.23504">
        <ele>1104.6921387</ele>
        <time>2015-06-06T08:07:09Z</time>
      </trkpt>
      <trkpt lat="44.18241" lon="5.23514">
        <ele>1105.6535645</ele>
        <time>2015-06-06T08:07:16Z</time>
      </trkpt>
      <trkpt lat="44.1821" lon="5.23584">
        <ele>1105.6535645</ele>
        <time>2015-06-06T08:07:29Z</time>
      </trkpt>
      <trkpt lat="44.18191" lon="5.23622">
        <ele>1105.6535645</ele>
        <time>2015-06-06T08:07:36Z</time>
      </trkpt>
      <trkpt lat="44.18151" lon="5.23656">
        <ele>1106.1340332</ele>
        <time>2015-06-06T08:07:47Z</time>
      </trkpt>
      <trkpt lat="44.18111" lon="5.23656">
        <ele>1107.5761719</ele>
        <time>2015-06-06T08:07:59Z</time>
      </trkpt>
      <trkpt lat="44.1805" lon="5.23623">
        <ele>1111.4213867</ele>
        <time>2015-06-06T08:08:18Z</time>
      </trkpt>
      <trkpt lat="44.18012" lon="5.23581">
        <ele>1111.4213867</ele>
        <time>2015-06-06T08:08:32Z</time>
      </trkpt>
      <trkpt lat="44.17969" lon="5.23542">
        <ele>1112.8632813</ele>
        <time>2015-06-06T08:08:47Z</time>
      </trkpt>
      <trkpt lat="44.17932" lon="5.23507">
        <ele>1112.8632813</ele>
        <time>2015-06-06T08:09:00Z</time>
      </trkpt>
      <trkpt lat="44.17898" lon="5.23471">
        <ele>1114.7858887</ele>
        <time>2015-06-06T08:09:13Z</time>
      </trkpt>
      <trkpt lat="44.17894" lon="5.23438">
        <ele>1116.7087402</ele>
        <time>2015-06-06T08:09:21Z</time>
      </trkpt>
      <trkpt lat="44.17913" lon="5.23397">
        <ele>1118.6313477</ele>
        <time>2015-06-06T08:09:33Z</time>
      </trkpt>
      <trkpt lat="44.17925" lon="5.23346">
        <ele>1120.5539551</ele>
        <time>2015-06-06T08:09:46Z</time>
      </trkpt>
      <trkpt lat="44.17926" lon="5.23281">
        <ele>1121.034668</ele>
        <time>2015-06-06T08:10:00Z</time>
      </trkpt>
      <trkpt lat="44.17923" lon="5.23207">
        <ele>1122.9572754</ele>
        <time>2015-06-06T08:10:14Z</time>
      </trkpt>
      <trkpt lat="44.17931" lon="5.23167">
        <ele>1124.3991699</ele>
        <time>2015-06-06T08:10:22Z</time>
      </trkpt>
      <trkpt lat="44.17934" lon="5.23149">
        <ele>1125.3603516</ele>
        <time>2015-06-06T08:10:25Z</time>
      </trkpt>
      <trkpt lat="44.17948" lon="5.23071">
        <ele>1126.8024902</ele>
        <time>2015-06-06T08:10:38Z</time>
      </trkpt>
      <trkpt lat="44.1795" lon="5.23036">
        <ele>1126.3217773</ele>
        <time>2015-06-06T08:10:44Z</time>
      </trkpt>
      <trkpt lat="44.17951" lon="5.22951">
        <ele>1126.3217773</ele>
        <time>2015-06-06T08:10:58Z</time>
      </trkpt>
      <trkpt lat="44.1795" lon="5.22939">
        <ele>1125.8410645</ele>
        <time>2015-06-06T08:11:00Z</time>
      </trkpt>
      <trkpt lat="44.17948" lon="5.22908">
        <ele>1125.8410645</ele>
        <time>2015-06-06T08:11:05Z</time>
      </trkpt>
      <trkpt lat="44.17944" lon="5.22891">
        <ele>1125.3603516</ele>
        <time>2015-06-06T08:11:08Z</time>
      </trkpt>
      <trkpt lat="44.17938" lon="5.22876">
        <ele>1125.3603516</ele>
        <time>2015-06-06T08:11:11Z</time>
      </trkpt>
      <trkpt lat="44.17898" lon="5.22824">
        <ele>1125.8410645</ele>
        <time>2015-06-06T08:11:25Z</time>
      </trkpt>
      <trkpt lat="44.17872" lon="5.22783">
        <ele>1127.7636719</ele>
        <time>2015-06-06T08:11:36Z</time>
      </trkpt>
      <trkpt lat="44.17844" lon="5.2272">
        <ele>1128.7250977</ele>
        <time>2015-06-06T08:11:52Z</time>
      </trkpt>
      <trkpt lat="44.1782" lon="5.22654">
        <ele>1129.2055664</ele>
        <time>2015-06-06T08:12:08Z</time>
      </trkpt>
      <trkpt lat="44.17795" lon="5.22588">
        <ele>1130.1669922</ele>
        <time>2015-06-06T08:12:24Z</time>
      </trkpt>
      <trkpt lat="44.17773" lon="5.22569">
        <ele>1131.6088867</ele>
        <time>2015-06-06T08:12:32Z</time>
      </trkpt>
      <trkpt lat="44.17743" lon="5.22555">
        <ele>1133.0510254</ele>
        <time>2015-06-06T08:12:43Z</time>
      </trkpt>
      <trkpt lat="44.17701" lon="5.22543">
        <ele>1136.4157715</ele>
        <time>2015-06-06T08:12:56Z</time>
      </trkpt>
      <trkpt lat="44.1766" lon="5.22557">
        <ele>1139.2995605</ele>
        <time>2015-06-06T08:13:11Z</time>
      </trkpt>
      <trkpt lat="44.17625" lon="5.22585">
        <ele>1142.1835938</ele>
        <time>2015-06-06T08:13:27Z</time>
      </trkpt>
      <trkpt lat="44.17584" lon="5.22619">
        <ele>1146.5095215</ele>
        <time>2015-06-06T08:13:46Z</time>
      </trkpt>
      <trkpt lat="44.17553" lon="5.22639">
        <ele>1147.951416</ele>
        <time>2015-06-06T08:14:01Z</time>
      </trkpt>
      <trkpt lat="44.17523" lon="5.22643">
        <ele>1148.9128418</ele>
        <time>2015-06-06T08:14:13Z</time>
      </trkpt>
      <trkpt lat="44.17492" lon="5.22615">
        <ele>1148.4321289</ele>
        <time>2015-06-06T08:14:27Z</time>
      </trkpt>
      <trkpt lat="44.17472" lon="5.22559">
        <ele>1152.2773438</ele>
        <time>2015-06-06T08:14:40Z</time>
      </trkpt>
      <trkpt lat="44.17449" lon="5.22499">
        <ele>1155.6420898</ele>
        <time>2015-06-06T08:14:52Z</time>
      </trkpt>
      <trkpt lat="44.17419" lon="5.22442">
        <ele>1153.2387695</ele>
        <time>2015-06-06T08:15:04Z</time>
      </trkpt>
      <trkpt lat="44.17412" lon="5.22428">
        <ele>1152.7580566</ele>
        <time>2015-06-06T08:15:07Z</time>
      </trkpt>
      <trkpt lat="44.174" lon="5.22404">
        <ele>1153.2387695</ele>
        <time>2015-06-06T08:15:12Z</time>
      </trkpt>
      <trkpt lat="44.17383" lon="5.22334">
        <ele>1152.7580566</ele>
        <time>2015-06-06T08:15:25Z</time>
      </trkpt>
      <trkpt lat="44.1737" lon="5.22247">
        <ele>1151.796875</ele>
        <time>2015-06-06T08:15:41Z</time>
      </trkpt>
      <trkpt lat="44.17367" lon="5.22202">
        <ele>1152.2773438</ele>
        <time>2015-06-06T08:15:50Z</time>
      </trkpt>
      <trkpt lat="44.17359" lon="5.22153">
        <ele>1153.7194824</ele>
        <time>2015-06-06T08:16:00Z</time>
      </trkpt>
      <trkpt lat="44.17352" lon="5.22126">
        <ele>1151.796875</ele>
        <time>2015-06-06T08:16:11Z</time>
      </trkpt>
      <trkpt lat="44.1735" lon="5.22122">
        <ele>1152.7580566</ele>
        <time>2015-06-06T08:17:01Z</time>
      </trkpt>
      <trkpt lat="44.17351" lon="5.22122">
        <ele>1152.7580566</ele>
        <time>2015-06-06T08:18:00Z</time>
      </trkpt>
      <trkpt lat="44.1735" lon="5.22121">
        <ele>1153.2387695</ele>
        <time>2015-06-06T08:19:59Z</time>
      </trkpt>
      <trkpt lat="44.1735" lon="5.22122">
        <ele>1152.7580566</ele>
        <time>2015-06-06T08:20:59Z</time>
      </trkpt>
      <trkpt lat="44.1735" lon="5.22122">
        <ele>1152.7580566</ele>
        <time>2015-06-06T08:22:32Z</time>
      </trkpt>
      <trkpt lat="44.1735" lon="5.22122">
        <ele>1152.7580566</ele>
        <time>2015-06-06T08:25:49Z</time>
      </trkpt>
      <trkpt lat="44.17353" lon="5.22117">
        <ele>1152.7580566</ele>
        <time>2015-06-06T08:25:53Z</time>
      </trkpt>
      <trkpt lat="44.17356" lon="5.22106">
        <ele>1151.796875</ele>
        <time>2015-06-06T08:25:59Z</time>
      </trkpt>
      <trkpt lat="44.17356" lon="5.22098">
        <ele>1151.796875</ele>
        <time>2015-06-06T08:26:03Z</time>
      </trkpt>
      <trkpt lat="44.17354" lon="5.22093">
        <ele>1150.8354492</ele>
        <time>2015-06-06T08:26:16Z</time>
      </trkpt>
      <trkpt lat="44.17354" lon="5.22093">
        <ele>1150.8354492</ele>
        <time>2015-06-06T08:26:22Z</time>
      </trkpt>
      <trkpt lat="44.17344" lon="5.22088">
        <ele>1150.3549805</ele>
        <time>2015-06-06T08:26:28Z</time>
      </trkpt>
      <trkpt lat="44.17319" lon="5.22055">
        <ele>1146.5095215</ele>
        <time>2015-06-06T08:26:34Z</time>
      </trkpt>
      <trkpt lat="44.17313" lon="5.22046">
        <ele>1145.5480957</ele>
        <time>2015-06-06T08:26:36Z</time>
      </trkpt>
      <trkpt lat="44.17307" lon="5.22036">
        <ele>1144.5866699</ele>
        <time>2015-06-06T08:26:41Z</time>
      </trkpt>
      <trkpt lat="44.17307" lon="5.22031">
        <ele>1144.5866699</ele>
        <time>2015-06-06T08:26:53Z</time>
      </trkpt>
      <trkpt lat="44.17306" lon="5.22024">
        <ele>1145.0673828</ele>
        <time>2015-06-06T08:27:04Z</time>
      </trkpt>
      <trkpt lat="44.17306" lon="5.22023">
        <ele>1144.5866699</ele>
        <time>2015-06-06T08:27:13Z</time>
      </trkpt>
      <trkpt lat="44.17302" lon="5.22021">
        <ele>1142.1835938</ele>
        <time>2015-06-06T08:27:16Z</time>
      </trkpt>
      <trkpt lat="44.173" lon="5.22009">
        <ele>1141.222168</ele>
        <time>2015-06-06T08:27:24Z</time>
      </trkpt>
      <trkpt lat="44.17299" lon="5.22001">
        <ele>1140.7414551</ele>
        <time>2015-06-06T08:27:54Z</time>
      </trkpt>
      <trkpt lat="44.17301" lon="5.21993">
        <ele>1140.2609863</ele>
        <time>2015-06-06T08:27:57Z</time>
      </trkpt>
      <trkpt lat="44.173" lon="5.21965">
        <ele>1137.3769531</ele>
        <time>2015-06-06T08:28:06Z</time>
      </trkpt>
      <trkpt lat="44.17297" lon="5.21947">
        <ele>1134.973877</ele>
        <time>2015-06-06T08:28:11Z</time>
      </trkpt>
      <trkpt lat="44.17297" lon="5.21943">
        <ele>1134.973877</ele>
        <time>2015-06-06T08:28:12Z</time>
      </trkpt>
      <trkpt lat="44.17304" lon="5.21903">
        <ele>1133.0510254</ele>
        <time>2015-06-06T08:28:19Z</time>
      </trkpt>
      <trkpt lat="44.17303" lon="5.21884">
        <ele>1132.0898438</ele>
        <time>2015-06-06T08:28:22Z</time>
      </trkpt>
      <trkpt lat="44.17299" lon="5.21857">
        <ele>1125.3603516</ele>
        <time>2015-06-06T08:28:28Z</time>
      </trkpt>
      <trkpt lat="44.17296" lon="5.2185">
        <ele>1124.3991699</ele>
        <time>2015-06-06T08:28:30Z</time>
      </trkpt>
      <trkpt lat="44.17291" lon="5.21816">
        <ele>1120.5539551</ele>
        <time>2015-06-06T08:28:37Z</time>
      </trkpt>
      <trkpt lat="44.17289" lon="5.21791">
        <ele>1118.6313477</ele>
        <time>2015-06-06T08:28:42Z</time>
      </trkpt>
      <trkpt lat="44.17295" lon="5.2178">
        <ele>1116.7087402</ele>
        <time>2015-06-06T08:28:45Z</time>
      </trkpt>
      <trkpt lat="44.1729" lon="5.21769">
        <ele>1114.7858887</ele>
        <time>2015-06-06T08:28:56Z</time>
      </trkpt>
      <trkpt lat="44.17292" lon="5.21745">
        <ele>1110.4599609</ele>
        <time>2015-06-06T08:29:02Z</time>
      </trkpt>
      <trkpt lat="44.17301" lon="5.21734">
        <ele>1110.4599609</ele>
        <time>2015-06-06T08:29:06Z</time>
      </trkpt>
      <trkpt lat="44.17313" lon="5.21724">
        <ele>1109.979248</ele>
        <time>2015-06-06T08:29:11Z</time>
      </trkpt>
      <trkpt lat="44.17317" lon="5.21721">
        <ele>1109.979248</ele>
        <time>2015-06-06T08:29:20Z</time>
      </trkpt>
      <trkpt lat="44.17317" lon="5.21721">
        <ele>1109.4987793</ele>
        <time>2015-06-06T08:30:36Z</time>
      </trkpt>
      <trkpt lat="44.17329" lon="5.21691">
        <ele>1105.6535645</ele>
        <time>2015-06-06T08:30:44Z</time>
      </trkpt>
      <trkpt lat="44.17332" lon="5.21673">
        <ele>1102.7695313</ele>
        <time>2015-06-06T08:30:47Z</time>
      </trkpt>
      <trkpt lat="44.17327" lon="5.21651">
        <ele>1097.0014648</ele>
        <time>2015-06-06T08:30:51Z</time>
      </trkpt>
      <trkpt lat="44.17319" lon="5.21624">
        <ele>1092.6757813</ele>
        <time>2015-06-06T08:30:56Z</time>
      </trkpt>
      <trkpt lat="44.17314" lon="5.21614">
        <ele>1090.2724609</ele>
        <time>2015-06-06T08:31:01Z</time>
      </trkpt>
      <trkpt lat="44.17301" lon="5.21573">
        <ele>1085.9465332</ele>
        <time>2015-06-06T08:31:09Z</time>
      </trkpt>
      <trkpt lat="44.17288" lon="5.21525">
        <ele>1082.1010742</ele>
        <time>2015-06-06T08:31:16Z</time>
      </trkpt>
      <trkpt lat="44.17286" lon="5.21507">
        <ele>1080.6591797</ele>
        <time>2015-06-06T08:31:19Z</time>
      </trkpt>
      <trkpt lat="44.17276" lon="5.21473">
        <ele>1077.7751465</ele>
        <time>2015-06-06T08:31:26Z</time>
      </trkpt>
      <trkpt lat="44.1726" lon="5.21442">
        <ele>1075.3718262</ele>
        <time>2015-06-06T08:31:33Z</time>
      </trkpt>
      <trkpt lat="44.17247" lon="5.21415">
        <ele>1071.0461426</ele>
        <time>2015-06-06T08:31:39Z</time>
      </trkpt>
      <trkpt lat="44.17233" lon="5.21377">
        <ele>1065.7587891</ele>
        <time>2015-06-06T08:31:46Z</time>
      </trkpt>
      <trkpt lat="44.17226" lon="5.21329">
        <ele>1062.394043</ele>
        <time>2015-06-06T08:31:52Z</time>
      </trkpt>
      <trkpt lat="44.17229" lon="5.21272">
        <ele>1062.8747559</ele>
        <time>2015-06-06T08:32:01Z</time>
      </trkpt>
      <trkpt lat="44.1723" lon="5.21263">
        <ele>1063.3554688</ele>
        <time>2015-06-06T08:32:04Z</time>
      </trkpt>
      <trkpt lat="44.17224" lon="5.21243">
        <ele>1062.394043</ele>
        <time>2015-06-06T08:32:12Z</time>
      </trkpt>
      <trkpt lat="44.1722" lon="5.21216">
        <ele>1058.5488281</ele>
        <time>2015-06-06T08:32:20Z</time>
      </trkpt>
      <trkpt lat="44.17219" lon="5.212">
        <ele>1056.6262207</ele>
        <time>2015-06-06T08:32:25Z</time>
      </trkpt>
      <trkpt lat="44.1722" lon="5.21177">
        <ele>1054.2231445</ele>
        <time>2015-06-06T08:32:33Z</time>
      </trkpt>
      <trkpt lat="44.1722" lon="5.21175">
        <ele>1053.7424316</ele>
        <time>2015-06-06T08:32:43Z</time>
      </trkpt>
      <trkpt lat="44.17221" lon="5.2117">
        <ele>1053.2617188</ele>
        <time>2015-06-06T08:33:00Z</time>
      </trkpt>
      <trkpt lat="44.17221" lon="5.21166">
        <ele>1053.2617188</ele>
        <time>2015-06-06T08:33:03Z</time>
      </trkpt>
      <trkpt lat="44.17218" lon="5.21131">
        <ele>1048.9355469</ele>
        <time>2015-06-06T08:33:11Z</time>
      </trkpt>
      <trkpt lat="44.1722" lon="5.2112">
        <ele>1048.9355469</ele>
        <time>2015-06-06T08:33:14Z</time>
      </trkpt>
      <trkpt lat="44.1722" lon="5.21094">
        <ele>1047.4936523</ele>
        <time>2015-06-06T08:33:21Z</time>
      </trkpt>
      <trkpt lat="44.17217" lon="5.21088">
        <ele>1047.9743652</ele>
        <time>2015-06-06T08:33:23Z</time>
      </trkpt>
      <trkpt lat="44.17215" lon="5.21075">
        <ele>1047.9743652</ele>
        <time>2015-06-06T08:33:26Z</time>
      </trkpt>
      <trkpt lat="44.17211" lon="5.21053">
        <ele>1046.5324707</ele>
        <time>2015-06-06T08:33:29Z</time>
      </trkpt>
      <trkpt lat="44.17209" lon="5.21032">
        <ele>1046.5324707</ele>
        <time>2015-06-06T08:33:33Z</time>
      </trkpt>
      <trkpt lat="44.17205" lon="5.21023">
        <ele>1046.0517578</ele>
        <time>2015-06-06T08:33:35Z</time>
      </trkpt>
      <trkpt lat="44.17198" lon="5.20989">
        <ele>1045.5710449</ele>
        <time>2015-06-06T08:33:43Z</time>
      </trkpt>
      <trkpt lat="44.17199" lon="5.20981">
        <ele>1046.5324707</ele>
        <time>2015-06-06T08:33:49Z</time>
      </trkpt>
      <trkpt lat="44.17197" lon="5.20958">
        <ele>1047.4936523</ele>
        <time>2015-06-06T08:34:03Z</time>
      </trkpt>
      <trkpt lat="44.17198" lon="5.20953">
        <ele>1045.5710449</ele>
        <time>2015-06-06T08:34:15Z</time>
      </trkpt>
      <trkpt lat="44.17199" lon="5.20947">
        <ele>1045.5710449</ele>
        <time>2015-06-06T08:34:23Z</time>
      </trkpt>
      <trkpt lat="44.17199" lon="5.20922">
        <ele>1043.1677246</ele>
        <time>2015-06-06T08:34:32Z</time>
      </trkpt>
      <trkpt lat="44.17198" lon="5.20916">
        <ele>1042.6872559</ele>
        <time>2015-06-06T08:34:33Z</time>
      </trkpt>
      <trkpt lat="44.17199" lon="5.20869">
        <ele>1041.7258301</ele>
        <time>2015-06-06T08:34:41Z</time>
      </trkpt>
      <trkpt lat="44.172" lon="5.20867">
        <ele>1041.2451172</ele>
        <time>2015-06-06T08:34:43Z</time>
      </trkpt>
      <trkpt lat="44.17207" lon="5.20852">
        <ele>1040.2839355</ele>
        <time>2015-06-06T08:34:52Z</time>
      </trkpt>
      <trkpt lat="44.17209" lon="5.20847">
        <ele>1041.2451172</ele>
        <time>2015-06-06T08:35:05Z</time>
      </trkpt>
      <trkpt lat="44.17209" lon="5.20847">
        <ele>1040.2839355</ele>
        <time>2015-06-06T08:35:37Z</time>
      </trkpt>
      <trkpt lat="44.1721" lon="5.20843">
        <ele>1038.842041</ele>
        <time>2015-06-06T08:35:56Z</time>
      </trkpt>
      <trkpt lat="44.1721" lon="5.20843">
        <ele>1038.842041</ele>
        <time>2015-06-06T08:36:51Z</time>
      </trkpt>
      <trkpt lat="44.17203" lon="5.20813">
        <ele>1037.3999023</ele>
        <time>2015-06-06T08:37:00Z</time>
      </trkpt>
      <trkpt lat="44.17204" lon="5.20803">
        <ele>1036.9191895</ele>
        <time>2015-06-06T08:37:02Z</time>
      </trkpt>
      <trkpt lat="44.17201" lon="5.20782">
        <ele>1035.4770508</ele>
        <time>2015-06-06T08:37:06Z</time>
      </trkpt>
      <trkpt lat="44.172" lon="5.20763">
        <ele>1034.996582</ele>
        <time>2015-06-06T08:37:09Z</time>
      </trkpt>
      <trkpt lat="44.17191" lon="5.20707">
        <ele>1031.1513672</ele>
        <time>2015-06-06T08:37:19Z</time>
      </trkpt>
      <trkpt lat="44.17186" lon="5.20689">
        <ele>1031.1513672</ele>
        <time>2015-06-06T08:37:23Z</time>
      </trkpt>
      <trkpt lat="44.17181" lon="5.2066">
        <ele>1029.2285156</ele>
        <time>2015-06-06T08:37:29Z</time>
      </trkpt>
      <trkpt lat="44.1717" lon="5.20617">
        <ele>1026.3447266</ele>
        <time>2015-06-06T08:37:36Z</time>
      </trkpt>
      <trkpt lat="44.17165" lon="5.20608">
        <ele>1025.3833008</ele>
        <time>2015-06-06T08:37:38Z</time>
      </trkpt>
      <trkpt lat="44.17157" lon="5.20582">
        <ele>1022.4995117</ele>
        <time>2015-06-06T08:37:42Z</time>
      </trkpt>
      <trkpt lat="44.17142" lon="5.20551">
        <ele>1019.6154785</ele>
        <time>2015-06-06T08:37:47Z</time>
      </trkpt>
      <trkpt lat="44.1713" lon="5.20518">
        <ele>1016.7314453</ele>
        <time>2015-06-06T08:37:53Z</time>
      </trkpt>
      <trkpt lat="44.17128" lon="5.20498">
        <ele>1014.328125</ele>
        <time>2015-06-06T08:37:56Z</time>
      </trkpt>
      <trkpt lat="44.17119" lon="5.20465">
        <ele>1011.9250488</ele>
        <time>2015-06-06T08:38:01Z</time>
      </trkpt>
      <trkpt lat="44.17119" lon="5.20456">
        <ele>1011.4443359</ele>
        <time>2015-06-06T08:38:03Z</time>
      </trkpt>
      <trkpt lat="44.17108" lon="5.20427">
        <ele>1008.079834</ele>
        <time>2015-06-06T08:38:10Z</time>
      </trkpt>
      <trkpt lat="44.171" lon="5.20408">
        <ele>1004.2346191</ele>
        <time>2015-06-06T08:38:16Z</time>
      </trkpt>
      <trkpt lat="44.171" lon="5.20404">
        <ele>1003.7536621</ele>
        <time>2015-06-06T08:38:17Z</time>
      </trkpt>
      <trkpt lat="44.17098" lon="5.20389">
        <ele>1001.3503418</ele>
        <time>2015-06-06T08:38:21Z</time>
      </trkpt>
      <trkpt lat="44.171" lon="5.2037">
        <ele>997.9858398</ele>
        <time>2015-06-06T08:38:26Z</time>
      </trkpt>
      <trkpt lat="44.1709" lon="5.20349">
        <ele>994.6210938</ele>
        <time>2015-06-06T08:38:34Z</time>
      </trkpt>
      <trkpt lat="44.17089" lon="5.20314">
        <ele>991.2565918</ele>
        <time>2015-06-06T08:38:42Z</time>
      </trkpt>
      <trkpt lat="44.17091" lon="5.20298">
        <ele>989.8146973</ele>
        <time>2015-06-06T08:38:45Z</time>
      </trkpt>
      <trkpt lat="44.17096" lon="5.20274">
        <ele>986.4499512</ele>
        <time>2015-06-06T08:38:48Z</time>
      </trkpt>
      <trkpt lat="44.17096" lon="5.20211">
        <ele>982.1240234</ele>
        <time>2015-06-06T08:38:55Z</time>
      </trkpt>
      <trkpt lat="44.17096" lon="5.20207">
        <ele>980.6821289</ele>
        <time>2015-06-06T08:39:03Z</time>
      </trkpt>
      <trkpt lat="44.17095" lon="5.20201">
        <ele>980.201416</ele>
        <time>2015-06-06T08:39:42Z</time>
      </trkpt>
      <trkpt lat="44.17099" lon="5.20195">
        <ele>978.7595215</ele>
        <time>2015-06-06T08:39:45Z</time>
      </trkpt>
      <trkpt lat="44.17101" lon="5.20179">
        <ele>976.8369141</ele>
        <time>2015-06-06T08:39:49Z</time>
      </trkpt>
      <trkpt lat="44.17097" lon="5.20171">
        <ele>975.8754883</ele>
        <time>2015-06-06T08:39:51Z</time>
      </trkpt>
      <trkpt lat="44.17092" lon="5.20155">
        <ele>975.8754883</ele>
        <time>2015-06-06T08:39:54Z</time>
      </trkpt>
      <trkpt lat="44.17094" lon="5.20145">
        <ele>975.3947754</ele>
        <time>2015-06-06T08:39:57Z</time>
      </trkpt>
      <trkpt lat="44.17091" lon="5.20116">
        <ele>973.4724121</ele>
        <time>2015-06-06T08:40:04Z</time>
      </trkpt>
      <trkpt lat="44.17078" lon="5.20077">
        <ele>971.0688477</ele>
        <time>2015-06-06T08:40:13Z</time>
      </trkpt>
      <trkpt lat="44.17078" lon="5.20051">
        <ele>967.2236328</ele>
        <time>2015-06-06T08:40:19Z</time>
      </trkpt>
      <trkpt lat="44.17077" lon="5.20036">
        <ele>966.262207</ele>
        <time>2015-06-06T08:40:22Z</time>
      </trkpt>
      <trkpt lat="44.17075" lon="5.20017">
        <ele>964.8203125</ele>
        <time>2015-06-06T08:40:27Z</time>
      </trkpt>
      <trkpt lat="44.17067" lon="5.19998">
        <ele>964.3395996</ele>
        <time>2015-06-06T08:40:32Z</time>
      </trkpt>
      <trkpt lat="44.17066" lon="5.19964">
        <ele>961.9365234</ele>
        <time>2015-06-06T08:40:39Z</time>
      </trkpt>
      <trkpt lat="44.17067" lon="5.19962">
        <ele>960.9750977</ele>
        <time>2015-06-06T08:40:49Z</time>
      </trkpt>
      <trkpt lat="44.17067" lon="5.1996">
        <ele>960.4943848</ele>
        <time>2015-06-06T08:40:50Z</time>
      </trkpt>
      <trkpt lat="44.17067" lon="5.19949">
        <ele>959.5332031</ele>
        <time>2015-06-06T08:40:56Z</time>
      </trkpt>
      <trkpt lat="44.17066" lon="5.19943">
        <ele>958.0913086</ele>
        <time>2015-06-06T08:40:58Z</time>
      </trkpt>
      <trkpt lat="44.17068" lon="5.19923">
        <ele>955.2070313</ele>
        <time>2015-06-06T08:41:07Z</time>
      </trkpt>
      <trkpt lat="44.17067" lon="5.19908">
        <ele>954.7263184</ele>
        <time>2015-06-06T08:41:14Z</time>
      </trkpt>
      <trkpt lat="44.17073" lon="5.19888">
        <ele>952.8037109</ele>
        <time>2015-06-06T08:41:21Z</time>
      </trkpt>
      <trkpt lat="44.17069" lon="5.19877">
        <ele>950.8811035</ele>
        <time>2015-06-06T08:41:25Z</time>
      </trkpt>
      <trkpt lat="44.17067" lon="5.1987">
        <ele>950.4006348</ele>
        <time>2015-06-06T08:41:27Z</time>
      </trkpt>
      <trkpt lat="44.17053" lon="5.19842">
        <ele>950.4006348</ele>
        <time>2015-06-06T08:41:34Z</time>
      </trkpt>
      <trkpt lat="44.17043" lon="5.19814">
        <ele>948.9584961</ele>
        <time>2015-06-06T08:41:41Z</time>
      </trkpt>
      <trkpt lat="44.17039" lon="5.19792">
        <ele>947.9973145</ele>
        <time>2015-06-06T08:41:44Z</time>
      </trkpt>
      <trkpt lat="44.1703" lon="5.19767">
        <ele>947.5166016</ele>
        <time>2015-06-06T08:41:48Z</time>
      </trkpt>
      <trkpt lat="44.17019" lon="5.19735">
        <ele>945.5939941</ele>
        <time>2015-06-06T08:41:52Z</time>
      </trkpt>
      <trkpt lat="44.17011" lon="5.1971">
        <ele>944.6325684</ele>
        <time>2015-06-06T08:41:55Z</time>
      </trkpt>
      <trkpt lat="44.16988" lon="5.19672">
        <ele>942.7102051</ele>
        <time>2015-06-06T08:42:01Z</time>
      </trkpt>
      <trkpt lat="44.16982" lon="5.19666">
        <ele>940.3068848</ele>
        <time>2015-06-06T08:42:10Z</time>
      </trkpt>
      <trkpt lat="44.16981" lon="5.19652">
        <ele>938.3840332</ele>
        <time>2015-06-06T08:43:00Z</time>
      </trkpt>
      <trkpt lat="44.1698" lon="5.19651">
        <ele>937.4226074</ele>
        <time>2015-06-06T08:43:12Z</time>
      </trkpt>
      <trkpt lat="44.16977" lon="5.19636">
        <ele>935.5</ele>
        <time>2015-06-06T08:43:20Z</time>
      </trkpt>
      <trkpt lat="44.16983" lon="5.19623">
        <ele>933.5773926</ele>
        <time>2015-06-06T08:43:25Z</time>
      </trkpt>
      <trkpt lat="44.16986" lon="5.19607">
        <ele>929.7321777</ele>
        <time>2015-06-06T08:43:32Z</time>
      </trkpt>
      <trkpt lat="44.16991" lon="5.19573">
        <ele>924.9257813</ele>
        <time>2015-06-06T08:43:40Z</time>
      </trkpt>
      <trkpt lat="44.1699" lon="5.19539">
        <ele>923.0029297</ele>
        <time>2015-06-06T08:43:46Z</time>
      </trkpt>
      <trkpt lat="44.16993" lon="5.19511">
        <ele>917.2351074</ele>
        <time>2015-06-06T08:43:53Z</time>
      </trkpt>
      <trkpt lat="44.17" lon="5.19514">
        <ele>916.7543945</ele>
        <time>2015-06-06T08:43:56Z</time>
      </trkpt>
      <trkpt lat="44.17007" lon="5.1953">
        <ele>914.3510742</ele>
        <time>2015-06-06T08:44:01Z</time>
      </trkpt>
      <trkpt lat="44.17021" lon="5.1956">
        <ele>911.4672852</ele>
        <time>2015-06-06T08:44:09Z</time>
      </trkpt>
      <trkpt lat="44.17033" lon="5.19585">
        <ele>908.1027832</ele>
        <time>2015-06-06T08:44:16Z</time>
      </trkpt>
      <trkpt lat="44.17036" lon="5.19591">
        <ele>907.6218262</ele>
        <time>2015-06-06T08:44:22Z</time>
      </trkpt>
      <trkpt lat="44.17037" lon="5.19591">
        <ele>907.1411133</ele>
        <time>2015-06-06T08:44:23Z</time>
      </trkpt>
      <trkpt lat="44.17051" lon="5.19577">
        <ele>903.7766113</ele>
        <time>2015-06-06T08:44:31Z</time>
      </trkpt>
      <trkpt lat="44.17053" lon="5.19575">
        <ele>903.2958984</ele>
        <time>2015-06-06T08:44:32Z</time>
      </trkpt>
      <trkpt lat="44.17055" lon="5.1956">
        <ele>900.8925781</ele>
        <time>2015-06-06T08:44:36Z</time>
      </trkpt>
      <trkpt lat="44.17057" lon="5.19533">
        <ele>897.0473633</ele>
        <time>2015-06-06T08:44:42Z</time>
      </trkpt>
      <trkpt lat="44.17058" lon="5.19526">
        <ele>895.6054688</ele>
        <time>2015-06-06T08:44:44Z</time>
      </trkpt>
      <trkpt lat="44.17063" lon="5.19517">
        <ele>893.2021484</ele>
        <time>2015-06-06T08:44:50Z</time>
      </trkpt>
      <trkpt lat="44.1708" lon="5.19541">
        <ele>888.8762207</ele>
        <time>2015-06-06T08:44:57Z</time>
      </trkpt>
      <trkpt lat="44.1709" lon="5.19561">
        <ele>885.5114746</ele>
        <time>2015-06-06T08:45:03Z</time>
      </trkpt>
      <trkpt lat="44.17099" lon="5.19574">
        <ele>882.6276855</ele>
        <time>2015-06-06T08:45:08Z</time>
      </trkpt>
      <trkpt lat="44.1711" lon="5.19587">
        <ele>879.7436523</ele>
        <time>2015-06-06T08:45:16Z</time>
      </trkpt>
      <trkpt lat="44.17115" lon="5.1959">
        <ele>880.2243652</ele>
        <time>2015-06-06T08:45:24Z</time>
      </trkpt>
      <trkpt lat="44.17122" lon="5.19578">
        <ele>876.8598633</ele>
        <time>2015-06-06T08:45:29Z</time>
      </trkpt>
      <trkpt lat="44.17125" lon="5.1957">
        <ele>874.9370117</ele>
        <time>2015-06-06T08:45:33Z</time>
      </trkpt>
      <trkpt lat="44.17128" lon="5.19567">
        <ele>873.4951172</ele>
        <time>2015-06-06T08:45:36Z</time>
      </trkpt>
      <trkpt lat="44.17133" lon="5.19571">
        <ele>872.0529785</ele>
        <time>2015-06-06T08:45:39Z</time>
      </trkpt>
      <trkpt lat="44.17142" lon="5.19588">
        <ele>868.2077637</ele>
        <time>2015-06-06T08:45:45Z</time>
      </trkpt>
      <trkpt lat="44.17151" lon="5.19594">
        <ele>866.7658691</ele>
        <time>2015-06-06T08:45:49Z</time>
      </trkpt>
      <trkpt lat="44.17167" lon="5.1962">
        <ele>859.5559082</ele>
        <time>2015-06-06T08:45:57Z</time>
      </trkpt>
      <trkpt lat="44.1717" lon="5.19627">
        <ele>858.5944824</ele>
        <time>2015-06-06T08:45:59Z</time>
      </trkpt>
      <trkpt lat="44.17187" lon="5.19659">
        <ele>851.8654785</ele>
        <time>2015-06-06T08:46:07Z</time>
      </trkpt>
      <trkpt lat="44.172" lon="5.19678">
        <ele>849.4621582</ele>
        <time>2015-06-06T08:46:11Z</time>
      </trkpt>
      <trkpt lat="44.17217" lon="5.19701">
        <ele>845.6169434</ele>
        <time>2015-06-06T08:46:18Z</time>
      </trkpt>
      <trkpt lat="44.17217" lon="5.19703">
        <ele>845.1362305</ele>
        <time>2015-06-06T08:46:25Z</time>
      </trkpt>
      <trkpt lat="44.1723" lon="5.1972">
        <ele>841.2907715</ele>
        <time>2015-06-06T08:46:33Z</time>
      </trkpt>
      <trkpt lat="44.17238" lon="5.19725">
        <ele>839.3681641</ele>
        <time>2015-06-06T08:46:35Z</time>
      </trkpt>
      <trkpt lat="44.1724" lon="5.1974">
        <ele>838.8876953</ele>
        <time>2015-06-06T08:46:39Z</time>
      </trkpt>
      <trkpt lat="44.17252" lon="5.19783">
        <ele>840.8100586</ele>
        <time>2015-06-06T08:46:47Z</time>
      </trkpt>
      <trkpt lat="44.1726" lon="5.19814">
        <ele>838.4069824</ele>
        <time>2015-06-06T08:46:56Z</time>
      </trkpt>
      <trkpt lat="44.17277" lon="5.19847">
        <ele>833.1196289</ele>
        <time>2015-06-06T08:47:02Z</time>
      </trkpt>
      <trkpt lat="44.17289" lon="5.19879">
        <ele>826.8710938</ele>
        <time>2015-06-06T08:47:09Z</time>
      </trkpt>
      <trkpt lat="44.17299" lon="5.19901">
        <ele>822.0644531</ele>
        <time>2015-06-06T08:47:15Z</time>
      </trkpt>
      <trkpt lat="44.17304" lon="5.19926">
        <ele>817.7385254</ele>
        <time>2015-06-06T08:47:20Z</time>
      </trkpt>
      <trkpt lat="44.17313" lon="5.19967">
        <ele>806.2026367</ele>
        <time>2015-06-06T08:47:27Z</time>
      </trkpt>
      <trkpt lat="44.1732" lon="5.20006">
        <ele>802.3574219</ele>
        <time>2015-06-06T08:47:33Z</time>
      </trkpt>
      <trkpt lat="44.17331" lon="5.20022">
        <ele>805.2414551</ele>
        <time>2015-06-06T08:47:35Z</time>
      </trkpt>
      <trkpt lat="44.17338" lon="5.20044">
        <ele>803.7995605</ele>
        <time>2015-06-06T08:47:38Z</time>
      </trkpt>
      <trkpt lat="44.17359" lon="5.20088">
        <ele>799.9543457</ele>
        <time>2015-06-06T08:47:45Z</time>
      </trkpt>
      <trkpt lat="44.17384" lon="5.2011">
        <ele>799.9543457</ele>
        <time>2015-06-06T08:47:49Z</time>
      </trkpt>
      <trkpt lat="44.17392" lon="5.20125">
        <ele>798.9929199</ele>
        <time>2015-06-06T08:47:52Z</time>
      </trkpt>
      <trkpt lat="44.17403" lon="5.20144">
        <ele>797.0703125</ele>
        <time>2015-06-06T08:47:54Z</time>
      </trkpt>
      <trkpt lat="44.17403" lon="5.20155">
        <ele>797.0703125</ele>
        <time>2015-06-06T08:48:03Z</time>
      </trkpt>
      <trkpt lat="44.17403" lon="5.20155">
        <ele>797.0703125</ele>
        <time>2015-06-06T08:48:36Z</time>
      </trkpt>
      <trkpt lat="44.17402" lon="5.20156">
        <ele>796.5898438</ele>
        <time>2015-06-06T08:50:47Z</time>
      </trkpt>
      <trkpt lat="44.17402" lon="5.20156">
        <ele>796.5898438</ele>
        <time>2015-06-06T08:51:34Z</time>
      </trkpt>
      <trkpt lat="44.17402" lon="5.20165">
        <ele>795.1474609</ele>
        <time>2015-06-06T08:51:46Z</time>
      </trkpt>
      <trkpt lat="44.17401" lon="5.20165">
        <ele>794.666748</ele>
        <time>2015-06-06T08:51:48Z</time>
      </trkpt>
      <trkpt lat="44.17407" lon="5.20168">
        <ele>792.7443848</ele>
        <time>2015-06-06T08:51:52Z</time>
      </trkpt>
      <trkpt lat="44.17418" lon="5.20186">
        <ele>789.3796387</ele>
        <time>2015-06-06T08:51:57Z</time>
      </trkpt>
      <trkpt lat="44.17431" lon="5.20211">
        <ele>787.4570313</ele>
        <time>2015-06-06T08:52:05Z</time>
      </trkpt>
      <trkpt lat="44.17438" lon="5.2022">
        <ele>786.9763184</ele>
        <time>2015-06-06T08:52:07Z</time>
      </trkpt>
      <trkpt lat="44.17441" lon="5.20216">
        <ele>786.0151367</ele>
        <time>2015-06-06T08:52:10Z</time>
      </trkpt>
      <trkpt lat="44.17449" lon="5.20194">
        <ele>783.1311035</ele>
        <time>2015-06-06T08:52:16Z</time>
      </trkpt>
      <trkpt lat="44.17457" lon="5.2016">
        <ele>777.84375</ele>
        <time>2015-06-06T08:52:25Z</time>
      </trkpt>
      <trkpt lat="44.17449" lon="5.20132">
        <ele>773.9985352</ele>
        <time>2015-06-06T08:52:31Z</time>
      </trkpt>
      <trkpt lat="44.17447" lon="5.20105">
        <ele>773.0373535</ele>
        <time>2015-06-06T08:52:37Z</time>
      </trkpt>
      <trkpt lat="44.17453" lon="5.20071">
        <ele>771.1147461</ele>
        <time>2015-06-06T08:52:44Z</time>
      </trkpt>
      <trkpt lat="44.17454" lon="5.2004">
        <ele>770.6340332</ele>
        <time>2015-06-06T08:52:51Z</time>
      </trkpt>
      <trkpt lat="44.17452" lon="5.20004">
        <ele>771.1147461</ele>
        <time>2015-06-06T08:53:00Z</time>
      </trkpt>
      <trkpt lat="44.17452" lon="5.19994">
        <ele>770.1533203</ele>
        <time>2015-06-06T08:53:02Z</time>
      </trkpt>
      <trkpt lat="44.17452" lon="5.19983">
        <ele>769.6728516</ele>
        <time>2015-06-06T08:53:05Z</time>
      </trkpt>
      <trkpt lat="44.17448" lon="5.19974">
        <ele>769.6728516</ele>
        <time>2015-06-06T08:53:07Z</time>
      </trkpt>
      <trkpt lat="44.17444" lon="5.19927">
        <ele>764.385498</ele>
        <time>2015-06-06T08:53:19Z</time>
      </trkpt>
      <trkpt lat="44.17443" lon="5.1992">
        <ele>762.4626465</ele>
        <time>2015-06-06T08:53:28Z</time>
      </trkpt>
      <trkpt lat="44.17441" lon="5.19915">
        <ele>761.5014648</ele>
        <time>2015-06-06T08:53:36Z</time>
      </trkpt>
      <trkpt lat="44.1744" lon="5.19914">
        <ele>761.5014648</ele>
        <time>2015-06-06T08:53:37Z</time>
      </trkpt>
      <trkpt lat="44.17445" lon="5.19885">
        <ele>761.9821777</ele>
        <time>2015-06-06T08:53:47Z</time>
      </trkpt>
      <trkpt lat="44.17445" lon="5.19882">
        <ele>762.4626465</ele>
        <time>2015-06-06T08:53:48Z</time>
      </trkpt>
      <trkpt lat="44.17449" lon="5.19846">
        <ele>763.904541</ele>
        <time>2015-06-06T08:53:58Z</time>
      </trkpt>
      <trkpt lat="44.17448" lon="5.19836">
        <ele>763.4240723</ele>
        <time>2015-06-06T08:54:00Z</time>
      </trkpt>
      <trkpt lat="44.1745" lon="5.1983">
        <ele>763.4240723</ele>
        <time>2015-06-06T08:54:02Z</time>
      </trkpt>
      <trkpt lat="44.17452" lon="5.19817">
        <ele>761.5014648</ele>
        <time>2015-06-06T08:54:11Z</time>
      </trkpt>
      <trkpt lat="44.17452" lon="5.19817">
        <ele>761.5014648</ele>
        <time>2015-06-06T08:54:41Z</time>
      </trkpt>
      <trkpt lat="44.17453" lon="5.19817">
        <ele>761.020752</ele>
        <time>2015-06-06T08:55:03Z</time>
      </trkpt>
      <trkpt lat="44.17453" lon="5.19795">
        <ele>761.020752</ele>
        <time>2015-06-06T08:55:10Z</time>
      </trkpt>
      <trkpt lat="44.17445" lon="5.19777">
        <ele>760.0593262</ele>
        <time>2015-06-06T08:55:14Z</time>
      </trkpt>
      <trkpt lat="44.17421" lon="5.19726">
        <ele>758.6174316</ele>
        <time>2015-06-06T08:55:22Z</time>
      </trkpt>
      <trkpt lat="44.17413" lon="5.197">
        <ele>757.65625</ele>
        <time>2015-06-06T08:55:27Z</time>
      </trkpt>
      <trkpt lat="44.17385" lon="5.19651">
        <ele>757.65625</ele>
        <time>2015-06-06T08:55:38Z</time>
      </trkpt>
      <trkpt lat="44.17353" lon="5.19618">
        <ele>756.2141113</ele>
        <time>2015-06-06T08:55:46Z</time>
      </trkpt>
      <trkpt lat="44.17319" lon="5.19604">
        <ele>755.2529297</ele>
        <time>2015-06-06T08:55:51Z</time>
      </trkpt>
      <trkpt lat="44.17306" lon="5.19567">
        <ele>753.8110352</ele>
        <time>2015-06-06T08:55:56Z</time>
      </trkpt>
      <trkpt lat="44.17315" lon="5.19553">
        <ele>752.8496094</ele>
        <time>2015-06-06T08:55:58Z</time>
      </trkpt>
      <trkpt lat="44.17343" lon="5.19509">
        <ele>749.9658203</ele>
        <time>2015-06-06T08:56:04Z</time>
      </trkpt>
      <trkpt lat="44.17353" lon="5.19468">
        <ele>747.5622559</ele>
        <time>2015-06-06T08:56:08Z</time>
      </trkpt>
      <trkpt lat="44.17351" lon="5.19411">
        <ele>745.1589355</ele>
        <time>2015-06-06T08:56:13Z</time>
      </trkpt>
      <trkpt lat="44.17339" lon="5.19358">
        <ele>743.2363281</ele>
        <time>2015-06-06T08:56:18Z</time>
      </trkpt>
      <trkpt lat="44.17304" lon="5.193">
        <ele>740.8330078</ele>
        <time>2015-06-06T08:56:25Z</time>
      </trkpt>
      <trkpt lat="44.17291" lon="5.1929">
        <ele>739.8718262</ele>
        <time>2015-06-06T08:56:27Z</time>
      </trkpt>
      <trkpt lat="44.17262" lon="5.19286">
        <ele>738.9106445</ele>
        <time>2015-06-06T08:56:31Z</time>
      </trkpt>
      <trkpt lat="44.17244" lon="5.19255">
        <ele>736.987793</ele>
        <time>2015-06-06T08:56:36Z</time>
      </trkpt>
      <trkpt lat="44.17248" lon="5.19166">
        <ele>734.5847168</ele>
        <time>2015-06-06T08:56:44Z</time>
      </trkpt>
      <trkpt lat="44.17254" lon="5.19143">
        <ele>732.6621094</ele>
        <time>2015-06-06T08:56:46Z</time>
      </trkpt>
      <trkpt lat="44.17254" lon="5.19109">
        <ele>731.7004395</ele>
        <time>2015-06-06T08:56:49Z</time>
      </trkpt>
      <trkpt lat="44.17244" lon="5.19053">
        <ele>730.7392578</ele>
        <time>2015-06-06T08:56:55Z</time>
      </trkpt>
      <trkpt lat="44.17239" lon="5.19037">
        <ele>730.2585449</ele>
        <time>2015-06-06T08:56:57Z</time>
      </trkpt>
      <trkpt lat="44.17207" lon="5.18999">
        <ele>730.2585449</ele>
        <time>2015-06-06T08:57:03Z</time>
      </trkpt>
      <trkpt lat="44.17192" lon="5.1898">
        <ele>731.2199707</ele>
        <time>2015-06-06T08:57:06Z</time>
      </trkpt>
      <trkpt lat="44.1718" lon="5.18935">
        <ele>733.623291</ele>
        <time>2015-06-06T08:57:13Z</time>
      </trkpt>
      <trkpt lat="44.17171" lon="5.18893">
        <ele>737.4685059</ele>
        <time>2015-06-06T08:57:22Z</time>
      </trkpt>
      <trkpt lat="44.17168" lon="5.18879">
        <ele>739.3911133</ele>
        <time>2015-06-06T08:57:26Z</time>
      </trkpt>
      <trkpt lat="44.17163" lon="5.18858">
        <ele>741.3137207</ele>
        <time>2015-06-06T08:57:31Z</time>
      </trkpt>
      <trkpt lat="44.17166" lon="5.18849">
        <ele>742.7558594</ele>
        <time>2015-06-06T08:57:35Z</time>
      </trkpt>
      <trkpt lat="44.17166" lon="5.1883">
        <ele>746.6010742</ele>
        <time>2015-06-06T08:57:43Z</time>
      </trkpt>
      <trkpt lat="44.17165" lon="5.18816">
        <ele>747.081543</ele>
        <time>2015-06-06T08:57:49Z</time>
      </trkpt>
      <trkpt lat="44.17167" lon="5.18808">
        <ele>747.081543</ele>
        <time>2015-06-06T08:57:53Z</time>
      </trkpt>
      <trkpt lat="44.17167" lon="5.18802">
        <ele>747.081543</ele>
        <time>2015-06-06T08:57:55Z</time>
      </trkpt>
      <trkpt lat="44.17168" lon="5.18796">
        <ele>747.5622559</ele>
        <time>2015-06-06T08:57:58Z</time>
      </trkpt>
      <trkpt lat="44.17165" lon="5.18787">
        <ele>748.0432129</ele>
        <time>2015-06-06T08:58:01Z</time>
      </trkpt>
      <trkpt lat="44.17164" lon="5.18783">
        <ele>748.5236816</ele>
        <time>2015-06-06T08:58:03Z</time>
      </trkpt>
      <trkpt lat="44.17161" lon="5.18775">
        <ele>748.5236816</ele>
        <time>2015-06-06T08:58:07Z</time>
      </trkpt>
      <trkpt lat="44.17157" lon="5.18743">
        <ele>748.5236816</ele>
        <time>2015-06-06T08:58:18Z</time>
      </trkpt>
      <trkpt lat="44.17158" lon="5.18736">
        <ele>749.0043945</ele>
        <time>2015-06-06T08:58:22Z</time>
      </trkpt>
      <trkpt lat="44.17163" lon="5.18727">
        <ele>749.9658203</ele>
        <time>2015-06-06T08:58:26Z</time>
      </trkpt>
      <trkpt lat="44.17163" lon="5.18696">
        <ele>749.9658203</ele>
        <time>2015-06-06T08:58:37Z</time>
      </trkpt>
      <trkpt lat="44.17162" lon="5.18684">
        <ele>750.4465332</ele>
        <time>2015-06-06T08:58:42Z</time>
      </trkpt>
      <trkpt lat="44.17155" lon="5.18666">
        <ele>749.9658203</ele>
        <time>2015-06-06T08:58:50Z</time>
      </trkpt>
      <trkpt lat="44.17148" lon="5.18651">
        <ele>750.4465332</ele>
        <time>2015-06-06T08:58:55Z</time>
      </trkpt>
      <trkpt lat="44.1714" lon="5.18626">
        <ele>751.8884277</ele>
        <time>2015-06-06T08:59:04Z</time>
      </trkpt>
      <trkpt lat="44.17137" lon="5.18615">
        <ele>752.8496094</ele>
        <time>2015-06-06T08:59:09Z</time>
      </trkpt>
      <trkpt lat="44.17134" lon="5.18596">
        <ele>755.2529297</ele>
        <time>2015-06-06T08:59:23Z</time>
      </trkpt>
      <trkpt lat="44.17133" lon="5.18594">
        <ele>756.6948242</ele>
        <time>2015-06-06T08:59:38Z</time>
      </trkpt>
      <trkpt lat="44.17132" lon="5.18593">
        <ele>755.7336426</ele>
        <time>2015-06-06T09:02:22Z</time>
      </trkpt>
      <trkpt lat="44.17131" lon="5.18576">
        <ele>756.2141113</ele>
        <time>2015-06-06T09:05:01Z</time>
      </trkpt>
      <trkpt lat="44.17122" lon="5.18546">
        <ele>757.1755371</ele>
        <time>2015-06-06T09:05:10Z</time>
      </trkpt>
      <trkpt lat="44.17107" lon="5.18503">
        <ele>759.5788574</ele>
        <time>2015-06-06T09:05:18Z</time>
      </trkpt>
      <trkpt lat="44.17105" lon="5.18466">
        <ele>762.4626465</ele>
        <time>2015-06-06T09:05:25Z</time>
      </trkpt>
      <trkpt lat="44.17104" lon="5.18441">
        <ele>764.8662109</ele>
        <time>2015-06-06T09:05:31Z</time>
      </trkpt>
      <trkpt lat="44.17102" lon="5.18399">
        <ele>766.7888184</ele>
        <time>2015-06-06T09:05:39Z</time>
      </trkpt>
      <trkpt lat="44.17089" lon="5.18354">
        <ele>767.75</ele>
        <time>2015-06-06T09:05:49Z</time>
      </trkpt>
      <trkpt lat="44.17081" lon="5.18321">
        <ele>766.7888184</ele>
        <time>2015-06-06T09:05:56Z</time>
      </trkpt>
      <trkpt lat="44.17079" lon="5.18288">
        <ele>764.385498</ele>
        <time>2015-06-06T09:06:04Z</time>
      </trkpt>
      <trkpt lat="44.17077" lon="5.18254">
        <ele>761.9821777</ele>
        <time>2015-06-06T09:06:08Z</time>
      </trkpt>
      <trkpt lat="44.17074" lon="5.18208">
        <ele>760.5400391</ele>
        <time>2015-06-06T09:06:13Z</time>
      </trkpt>
      <trkpt lat="44.17051" lon="5.18151">
        <ele>758.6174316</ele>
        <time>2015-06-06T09:06:18Z</time>
      </trkpt>
      <trkpt lat="44.17048" lon="5.18134">
        <ele>758.1369629</ele>
        <time>2015-06-06T09:06:21Z</time>
      </trkpt>
      <trkpt lat="44.17037" lon="5.18081">
        <ele>757.1755371</ele>
        <time>2015-06-06T09:06:27Z</time>
      </trkpt>
      <trkpt lat="44.17024" lon="5.18045">
        <ele>756.2141113</ele>
        <time>2015-06-06T09:06:31Z</time>
      </trkpt>
      <trkpt lat="44.17015" lon="5.18001">
        <ele>757.1755371</ele>
        <time>2015-06-06T09:06:36Z</time>
      </trkpt>
      <trkpt lat="44.17013" lon="5.17986">
        <ele>757.1755371</ele>
        <time>2015-06-06T09:06:38Z</time>
      </trkpt>
      <trkpt lat="44.17013" lon="5.17965">
        <ele>758.1369629</ele>
        <time>2015-06-06T09:06:41Z</time>
      </trkpt>
      <trkpt lat="44.17003" lon="5.17917">
        <ele>758.1369629</ele>
        <time>2015-06-06T09:06:47Z</time>
      </trkpt>
      <trkpt lat="44.17002" lon="5.1791">
        <ele>758.1369629</ele>
        <time>2015-06-06T09:06:48Z</time>
      </trkpt>
      <trkpt lat="44.16999" lon="5.17887">
        <ele>759.0981445</ele>
        <time>2015-06-06T09:06:52Z</time>
      </trkpt>
      <trkpt lat="44.16979" lon="5.17812">
        <ele>759.0981445</ele>
        <time>2015-06-06T09:07:02Z</time>
      </trkpt>
      <trkpt lat="44.16978" lon="5.17758">
        <ele>759.5788574</ele>
        <time>2015-06-06T09:07:11Z</time>
      </trkpt>
      <trkpt lat="44.16965" lon="5.17709">
        <ele>756.6948242</ele>
        <time>2015-06-06T09:07:21Z</time>
      </trkpt>
      <trkpt lat="44.16946" lon="5.17665">
        <ele>756.2141113</ele>
        <time>2015-06-06T09:07:31Z</time>
      </trkpt>
      <trkpt lat="44.1693" lon="5.17616">
        <ele>757.65625</ele>
        <time>2015-06-06T09:07:41Z</time>
      </trkpt>
      <trkpt lat="44.16907" lon="5.17575">
        <ele>757.1755371</ele>
        <time>2015-06-06T09:07:51Z</time>
      </trkpt>
      <trkpt lat="44.16894" lon="5.17537">
        <ele>758.6174316</ele>
        <time>2015-06-06T09:08:00Z</time>
      </trkpt>
      <trkpt lat="44.16878" lon="5.17497">
        <ele>759.0981445</ele>
        <time>2015-06-06T09:08:12Z</time>
      </trkpt>
      <trkpt lat="44.16863" lon="5.17469">
        <ele>759.5788574</ele>
        <time>2015-06-06T09:08:21Z</time>
      </trkpt>
      <trkpt lat="44.16846" lon="5.17438">
        <ele>758.6174316</ele>
        <time>2015-06-06T09:08:29Z</time>
      </trkpt>
      <trkpt lat="44.16838" lon="5.1742">
        <ele>759.0981445</ele>
        <time>2015-06-06T09:08:33Z</time>
      </trkpt>
      <trkpt lat="44.16824" lon="5.17385">
        <ele>760.5400391</ele>
        <time>2015-06-06T09:08:40Z</time>
      </trkpt>
      <trkpt lat="44.16817" lon="5.17372">
        <ele>761.5014648</ele>
        <time>2015-06-06T09:08:43Z</time>
      </trkpt>
      <trkpt lat="44.16803" lon="5.17356">
        <ele>761.020752</ele>
        <time>2015-06-06T09:08:47Z</time>
      </trkpt>
      <trkpt lat="44.16795" lon="5.17336">
        <ele>762.4626465</ele>
        <time>2015-06-06T09:08:51Z</time>
      </trkpt>
      <trkpt lat="44.16793" lon="5.17325">
        <ele>763.4240723</ele>
        <time>2015-06-06T09:08:53Z</time>
      </trkpt>
      <trkpt lat="44.1679" lon="5.17308">
        <ele>763.904541</ele>
        <time>2015-06-06T09:08:57Z</time>
      </trkpt>
      <trkpt lat="44.16784" lon="5.17286">
        <ele>764.8662109</ele>
        <time>2015-06-06T09:09:02Z</time>
      </trkpt>
      <trkpt lat="44.16766" lon="5.17235">
        <ele>766.3081055</ele>
        <time>2015-06-06T09:09:13Z</time>
      </trkpt>
      <trkpt lat="44.16755" lon="5.17193">
        <ele>767.75</ele>
        <time>2015-06-06T09:09:22Z</time>
      </trkpt>
      <trkpt lat="44.16748" lon="5.17155">
        <ele>769.6728516</ele>
        <time>2015-06-06T09:09:32Z</time>
      </trkpt>
      <trkpt lat="44.16745" lon="5.1713">
        <ele>772.0759277</ele>
        <time>2015-06-06T09:09:41Z</time>
      </trkpt>
      <trkpt lat="44.16738" lon="5.17089">
        <ele>774.9599609</ele>
        <time>2015-06-06T09:09:51Z</time>
      </trkpt>
      <trkpt lat="44.1674" lon="5.17071">
        <ele>773.5180664</ele>
        <time>2015-06-06T09:09:56Z</time>
      </trkpt>
      <trkpt lat="44.16737" lon="5.17049">
        <ele>773.0373535</ele>
        <time>2015-06-06T09:10:02Z</time>
      </trkpt>
      <trkpt lat="44.16736" lon="5.17017">
        <ele>773.9985352</ele>
        <time>2015-06-06T09:10:12Z</time>
      </trkpt>
      <trkpt lat="44.16724" lon="5.17018">
        <ele>770.1533203</ele>
        <time>2015-06-06T09:10:21Z</time>
      </trkpt>
      <trkpt lat="44.16724" lon="5.17022">
        <ele>770.1533203</ele>
        <time>2015-06-06T09:10:43Z</time>
      </trkpt>
      <trkpt lat="44.16722" lon="5.17026">
        <ele>768.7114258</ele>
        <time>2015-06-06T09:11:46Z</time>
      </trkpt>
      <trkpt lat="44.16719" lon="5.17029">
        <ele>767.75</ele>
        <time>2015-06-06T09:11:56Z</time>
      </trkpt>
      <trkpt lat="44.16717" lon="5.17029">
        <ele>766.3081055</ele>
        <time>2015-06-06T09:11:59Z</time>
      </trkpt>
      <trkpt lat="44.16711" lon="5.17016">
        <ele>765.3469238</ele>
        <time>2015-06-06T09:12:05Z</time>
      </trkpt>
      <trkpt lat="44.1671" lon="5.17003">
        <ele>764.8662109</ele>
        <time>2015-06-06T09:12:07Z</time>
      </trkpt>
      <trkpt lat="44.16707" lon="5.16989">
        <ele>763.4240723</ele>
        <time>2015-06-06T09:12:09Z</time>
      </trkpt>
      <trkpt lat="44.167" lon="5.16967">
        <ele>761.9821777</ele>
        <time>2015-06-06T09:12:13Z</time>
      </trkpt>
      <trkpt lat="44.16669" lon="5.16933">
        <ele>754.291748</ele>
        <time>2015-06-06T09:12:20Z</time>
      </trkpt>
      <trkpt lat="44.16649" lon="5.16922">
        <ele>747.5622559</ele>
        <time>2015-06-06T09:12:25Z</time>
      </trkpt>
      <trkpt lat="44.1663" lon="5.16907">
        <ele>744.6782227</ele>
        <time>2015-06-06T09:12:28Z</time>
      </trkpt>
      <trkpt lat="44.16617" lon="5.16882">
        <ele>742.7558594</ele>
        <time>2015-06-06T09:12:32Z</time>
      </trkpt>
      <trkpt lat="44.16589" lon="5.16808">
        <ele>739.8718262</ele>
        <time>2015-06-06T09:12:41Z</time>
      </trkpt>
      <trkpt lat="44.16586" lon="5.168">
        <ele>739.3911133</ele>
        <time>2015-06-06T09:12:42Z</time>
      </trkpt>
      <trkpt lat="44.16571" lon="5.16765">
        <ele>737.9492188</ele>
        <time>2015-06-06T09:12:46Z</time>
      </trkpt>
      <trkpt lat="44.16562" lon="5.16732">
        <ele>737.4685059</ele>
        <time>2015-06-06T09:12:50Z</time>
      </trkpt>
      <trkpt lat="44.16557" lon="5.16696">
        <ele>734.1040039</ele>
        <time>2015-06-06T09:12:54Z</time>
      </trkpt>
      <trkpt lat="44.16543" lon="5.16615">
        <ele>730.7392578</ele>
        <time>2015-06-06T09:13:03Z</time>
      </trkpt>
      <trkpt lat="44.16535" lon="5.16495">
        <ele>726.4133301</ele>
        <time>2015-06-06T09:13:14Z</time>
      </trkpt>
      <trkpt lat="44.16526" lon="5.1643">
        <ele>723.0488281</ele>
        <time>2015-06-06T09:13:20Z</time>
      </trkpt>
      <trkpt lat="44.16524" lon="5.16409">
        <ele>722.0874023</ele>
        <time>2015-06-06T09:13:22Z</time>
      </trkpt>
      <trkpt lat="44.16524" lon="5.1637">
        <ele>721.1262207</ele>
        <time>2015-06-06T09:13:26Z</time>
      </trkpt>
      <trkpt lat="44.1652" lon="5.16337">
        <ele>721.1262207</ele>
        <time>2015-06-06T09:13:30Z</time>
      </trkpt>
      <trkpt lat="44.16507" lon="5.16308">
        <ele>723.529541</ele>
        <time>2015-06-06T09:13:37Z</time>
      </trkpt>
      <trkpt lat="44.16495" lon="5.16293">
        <ele>726.4133301</ele>
        <time>2015-06-06T09:13:45Z</time>
      </trkpt>
      <trkpt lat="44.16489" lon="5.16286">
        <ele>727.3747559</ele>
        <time>2015-06-06T09:13:51Z</time>
      </trkpt>
      <trkpt lat="44.16483" lon="5.16282">
        <ele>727.8552246</ele>
        <time>2015-06-06T09:14:01Z</time>
      </trkpt>
      <trkpt lat="44.16484" lon="5.16276">
        <ele>728.8166504</ele>
        <time>2015-06-06T09:14:59Z</time>
      </trkpt>
      <trkpt lat="44.16485" lon="5.16279">
        <ele>729.2971191</ele>
        <time>2015-06-06T09:23:11Z</time>
      </trkpt>
      <trkpt lat="44.16485" lon="5.16278">
        <ele>729.2971191</ele>
        <time>2015-06-06T09:23:55Z</time>
      </trkpt>
      <trkpt lat="44.16482" lon="5.16276">
        <ele>729.777832</ele>
        <time>2015-06-06T09:34:10Z</time>
      </trkpt>
      <trkpt lat="44.16482" lon="5.16276">
        <ele>729.777832</ele>
        <time>2015-06-06T09:36:44Z</time>
      </trkpt>
      <trkpt lat="44.16481" lon="5.16276">
        <ele>729.777832</ele>
        <time>2015-06-06T09:37:23Z</time>
      </trkpt>
      <trkpt lat="44.1647" lon="5.16255">
        <ele>728.8166504</ele>
        <time>2015-06-06T09:37:31Z</time>
      </trkpt>
      <trkpt lat="44.16468" lon="5.16252">
        <ele>728.8166504</ele>
        <time>2015-06-06T09:37:32Z</time>
      </trkpt>
      <trkpt lat="44.16459" lon="5.16227">
        <ele>725.4519043</ele>
        <time>2015-06-06T09:37:38Z</time>
      </trkpt>
      <trkpt lat="44.16455" lon="5.16208">
        <ele>722.5681152</ele>
        <time>2015-06-06T09:37:42Z</time>
      </trkpt>
      <trkpt lat="44.16447" lon="5.16199">
        <ele>721.1262207</ele>
        <time>2015-06-06T09:37:47Z</time>
      </trkpt>
      <trkpt lat="44.16428" lon="5.16172">
        <ele>715.8388672</ele>
        <time>2015-06-06T09:37:54Z</time>
      </trkpt>
      <trkpt lat="44.16427" lon="5.16162">
        <ele>713.4355469</ele>
        <time>2015-06-06T09:37:57Z</time>
      </trkpt>
      <trkpt lat="44.16426" lon="5.16147">
        <ele>710.0708008</ele>
        <time>2015-06-06T09:38:02Z</time>
      </trkpt>
      <trkpt lat="44.1641" lon="5.16121">
        <ele>705.7451172</ele>
        <time>2015-06-06T09:38:06Z</time>
      </trkpt>
      <trkpt lat="44.16386" lon="5.16084">
        <ele>703.8225098</ele>
        <time>2015-06-06T09:38:13Z</time>
      </trkpt>
      <trkpt lat="44.16357" lon="5.16071">
        <ele>702.3803711</ele>
        <time>2015-06-06T09:38:18Z</time>
      </trkpt>
      <trkpt lat="44.16333" lon="5.16052">
        <ele>698.0544434</ele>
        <time>2015-06-06T09:38:24Z</time>
      </trkpt>
      <trkpt lat="44.16328" lon="5.16049">
        <ele>698.5349121</ele>
        <time>2015-06-06T09:38:25Z</time>
      </trkpt>
      <trkpt lat="44.16316" lon="5.16042">
        <ele>698.5349121</ele>
        <time>2015-06-06T09:38:28Z</time>
      </trkpt>
      <trkpt lat="44.16287" lon="5.16037">
        <ele>700.4580078</ele>
        <time>2015-06-06T09:38:34Z</time>
      </trkpt>
      <trkpt lat="44.1627" lon="5.16032">
        <ele>703.8225098</ele>
        <time>2015-06-06T09:38:39Z</time>
      </trkpt>
      <trkpt lat="44.16257" lon="5.16025">
        <ele>704.3032227</ele>
        <time>2015-06-06T09:38:42Z</time>
      </trkpt>
      <trkpt lat="44.16242" lon="5.16011">
        <ele>701.4191895</ele>
        <time>2015-06-06T09:38:45Z</time>
      </trkpt>
      <trkpt lat="44.16218" lon="5.15999">
        <ele>702.3803711</ele>
        <time>2015-06-06T09:38:52Z</time>
      </trkpt>
      <trkpt lat="44.16212" lon="5.15999">
        <ele>702.861084</ele>
        <time>2015-06-06T09:39:01Z</time>
      </trkpt>
      <trkpt lat="44.16211" lon="5.15999">
        <ele>702.3803711</ele>
        <time>2015-06-06T09:41:29Z</time>
      </trkpt>
      <trkpt lat="44.16205" lon="5.16005">
        <ele>699.9770508</ele>
        <time>2015-06-06T09:41:33Z</time>
      </trkpt>
      <trkpt lat="44.16191" lon="5.16016">
        <ele>695.1704102</ele>
        <time>2015-06-06T09:41:38Z</time>
      </trkpt>
      <trkpt lat="44.16168" lon="5.1601">
        <ele>692.2866211</ele>
        <time>2015-06-06T09:41:43Z</time>
      </trkpt>
      <trkpt lat="44.16146" lon="5.16005">
        <ele>689.8833008</ele>
        <time>2015-06-06T09:41:48Z</time>
      </trkpt>
      <trkpt lat="44.16121" lon="5.15991">
        <ele>687.9606934</ele>
        <time>2015-06-06T09:41:58Z</time>
      </trkpt>
      <trkpt lat="44.16109" lon="5.15985">
        <ele>686.9992676</ele>
        <time>2015-06-06T09:45:23Z</time>
      </trkpt>
      <trkpt lat="44.16078" lon="5.15959">
        <ele>686.5187988</ele>
        <time>2015-06-06T09:45:32Z</time>
      </trkpt>
      <trkpt lat="44.16074" lon="5.15936">
        <ele>683.6345215</ele>
        <time>2015-06-06T09:45:37Z</time>
      </trkpt>
      <trkpt lat="44.16078" lon="5.15899">
        <ele>677.3862305</ele>
        <time>2015-06-06T09:45:43Z</time>
      </trkpt>
      <trkpt lat="44.16065" lon="5.15872">
        <ele>674.9829102</ele>
        <time>2015-06-06T09:45:50Z</time>
      </trkpt>
      <trkpt lat="44.16044" lon="5.15864">
        <ele>672.098877</ele>
        <time>2015-06-06T09:45:55Z</time>
      </trkpt>
      <trkpt lat="44.16031" lon="5.15864">
        <ele>670.1762695</ele>
        <time>2015-06-06T09:45:58Z</time>
      </trkpt>
      <trkpt lat="44.16023" lon="5.15846">
        <ele>669.2150879</ele>
        <time>2015-06-06T09:46:03Z</time>
      </trkpt>
      <trkpt lat="44.16022" lon="5.15829">
        <ele>668.734375</ele>
        <time>2015-06-06T09:46:06Z</time>
      </trkpt>
      <trkpt lat="44.16027" lon="5.15792">
        <ele>660.0822754</ele>
        <time>2015-06-06T09:46:16Z</time>
      </trkpt>
      <trkpt lat="44.16028" lon="5.15792">
        <ele>658.1599121</ele>
        <time>2015-06-06T09:46:26Z</time>
      </trkpt>
      <trkpt lat="44.16028" lon="5.15791">
        <ele>658.1599121</ele>
        <time>2015-06-06T09:46:31Z</time>
      </trkpt>
      <trkpt lat="44.16029" lon="5.15787">
        <ele>655.2758789</ele>
        <time>2015-06-06T09:46:35Z</time>
      </trkpt>
      <trkpt lat="44.16033" lon="5.15781">
        <ele>652.8725586</ele>
        <time>2015-06-06T09:46:39Z</time>
      </trkpt>
      <trkpt lat="44.16036" lon="5.15776">
        <ele>650.4692383</ele>
        <time>2015-06-06T09:46:45Z</time>
      </trkpt>
      <trkpt lat="44.16037" lon="5.15767">
        <ele>647.5852051</ele>
        <time>2015-06-06T09:46:50Z</time>
      </trkpt>
      <trkpt lat="44.1603" lon="5.15749">
        <ele>641.8173828</ele>
        <time>2015-06-06T09:47:02Z</time>
      </trkpt>
      <trkpt lat="44.16037" lon="5.15726">
        <ele>635.0881348</ele>
        <time>2015-06-06T09:47:15Z</time>
      </trkpt>
      <trkpt lat="44.16041" lon="5.15708">
        <ele>632.6848145</ele>
        <time>2015-06-06T09:47:26Z</time>
      </trkpt>
      <trkpt lat="44.16044" lon="5.15694">
        <ele>631.7233887</ele>
        <time>2015-06-06T09:47:38Z</time>
      </trkpt>
      <trkpt lat="44.16044" lon="5.15694">
        <ele>631.7233887</ele>
        <time>2015-06-06T09:47:40Z</time>
      </trkpt>
      <trkpt lat="44.16041" lon="5.15691">
        <ele>632.2041016</ele>
        <time>2015-06-06T09:47:50Z</time>
      </trkpt>
      <trkpt lat="44.16035" lon="5.15692">
        <ele>632.2041016</ele>
        <time>2015-06-06T09:48:07Z</time>
      </trkpt>
      <trkpt lat="44.16033" lon="5.15692">
        <ele>632.2041016</ele>
        <time>2015-06-06T09:48:24Z</time>
      </trkpt>
      <trkpt lat="44.16022" lon="5.15689">
        <ele>631.7233887</ele>
        <time>2015-06-06T09:50:45Z</time>
      </trkpt>
      <trkpt lat="44.16019" lon="5.15689">
        <ele>631.7233887</ele>
        <time>2015-06-06T09:51:24Z</time>
      </trkpt>
      <trkpt lat="44.16013" lon="5.15691">
        <ele>631.2429199</ele>
        <time>2015-06-06T09:51:46Z</time>
      </trkpt>
      <trkpt lat="44.16016" lon="5.15687">
        <ele>631.7233887</ele>
        <time>2015-06-06T09:52:02Z</time>
      </trkpt>
      <trkpt lat="44.16009" lon="5.15686">
        <ele>631.2429199</ele>
        <time>2015-06-06T09:52:19Z</time>
      </trkpt>
      <trkpt lat="44.16037" lon="5.15693">
        <ele>630.762207</ele>
        <time>2015-06-06T09:52:55Z</time>
      </trkpt>
      <trkpt lat="44.16044" lon="5.15688">
        <ele>630.2814941</ele>
        <time>2015-06-06T09:53:15Z</time>
      </trkpt>
      <trkpt lat="44.16053" lon="5.15687">
        <ele>628.8395996</ele>
        <time>2015-06-06T09:53:46Z</time>
      </trkpt>
      <trkpt lat="44.16043" lon="5.15691">
        <ele>628.3588867</ele>
        <time>2015-06-06T09:54:19Z</time>
      </trkpt>
      <trkpt lat="44.16023" lon="5.1569">
        <ele>626.4362793</ele>
        <time>2015-06-06T09:56:55Z</time>
      </trkpt>
      <trkpt lat="44.16018" lon="5.15692">
        <ele>623.0717773</ele>
        <time>2015-06-06T09:58:03Z</time>
      </trkpt>
      <trkpt lat="44.16025" lon="5.15689">
        <ele>622.1103516</ele>
        <time>2015-06-06T09:58:33Z</time>
      </trkpt>
      <trkpt lat="44.16029" lon="5.15687">
        <ele>621.1491699</ele>
        <time>2015-06-06T09:59:13Z</time>
      </trkpt>
      <trkpt lat="44.1603" lon="5.15686">
        <ele>620.668457</ele>
        <time>2015-06-06T10:00:57Z</time>
      </trkpt>
      <trkpt lat="44.1603" lon="5.1568">
        <ele>620.668457</ele>
        <time>2015-06-06T10:02:20Z</time>
      </trkpt>
      <trkpt lat="44.16028" lon="5.15667">
        <ele>619.7070313</ele>
        <time>2015-06-06T10:02:27Z</time>
      </trkpt>
      <trkpt lat="44.16027" lon="5.15666">
        <ele>619.7070313</ele>
        <time>2015-06-06T10:02:30Z</time>
      </trkpt>
      <trkpt lat="44.16021" lon="5.15651">
        <ele>621.1491699</ele>
        <time>2015-06-06T10:02:42Z</time>
      </trkpt>
      <trkpt lat="44.16019" lon="5.15644">
        <ele>620.1877441</ele>
        <time>2015-06-06T10:03:18Z</time>
      </trkpt>
      <trkpt lat="44.16007" lon="5.15631">
        <ele>619.2263184</ele>
        <time>2015-06-06T10:03:24Z</time>
      </trkpt>
      <trkpt lat="44.15994" lon="5.15632">
        <ele>617.7841797</ele>
        <time>2015-06-06T10:03:28Z</time>
      </trkpt>
      <trkpt lat="44.15987" lon="5.15634">
        <ele>617.3037109</ele>
        <time>2015-06-06T10:03:30Z</time>
      </trkpt>
      <trkpt lat="44.15962" lon="5.15666">
        <ele>615.8618164</ele>
        <time>2015-06-06T10:03:39Z</time>
      </trkpt>
      <trkpt lat="44.15943" lon="5.15693">
        <ele>614.4196777</ele>
        <time>2015-06-06T10:03:45Z</time>
      </trkpt>
      <trkpt lat="44.15925" lon="5.15708">
        <ele>613.4584961</ele>
        <time>2015-06-06T10:03:49Z</time>
      </trkpt>
      <trkpt lat="44.15905" lon="5.15727">
        <ele>613.4584961</ele>
        <time>2015-06-06T10:03:53Z</time>
      </trkpt>
      <trkpt lat="44.15887" lon="5.15729">
        <ele>612.9777832</ele>
        <time>2015-06-06T10:03:56Z</time>
      </trkpt>
      <trkpt lat="44.15853" lon="5.15702">
        <ele>613.4584961</ele>
        <time>2015-06-06T10:04:02Z</time>
      </trkpt>
      <trkpt lat="44.15848" lon="5.15696">
        <ele>613.4584961</ele>
        <time>2015-06-06T10:04:03Z</time>
      </trkpt>
      <trkpt lat="44.15827" lon="5.15666">
        <ele>614.4196777</ele>
        <time>2015-06-06T10:04:09Z</time>
      </trkpt>
      <trkpt lat="44.1579" lon="5.15626">
        <ele>615.3811035</ele>
        <time>2015-06-06T10:04:15Z</time>
      </trkpt>
      <trkpt lat="44.15765" lon="5.15616">
        <ele>616.822998</ele>
        <time>2015-06-06T10:04:20Z</time>
      </trkpt>
      <trkpt lat="44.15762" lon="5.15614">
        <ele>616.822998</ele>
        <time>2015-06-06T10:04:32Z</time>
      </trkpt>
      <trkpt lat="44.15756" lon="5.15609">
        <ele>615.3811035</ele>
        <time>2015-06-06T10:04:42Z</time>
      </trkpt>
      <trkpt lat="44.15749" lon="5.15604">
        <ele>614.9003906</ele>
        <time>2015-06-06T10:04:52Z</time>
      </trkpt>
      <trkpt lat="44.15746" lon="5.15598">
        <ele>617.7841797</ele>
        <time>2015-06-06T10:05:05Z</time>
      </trkpt>
      <trkpt lat="44.1574" lon="5.15594">
        <ele>619.2263184</ele>
        <time>2015-06-06T10:05:19Z</time>
      </trkpt>
      <trkpt lat="44.15739" lon="5.15593">
        <ele>619.2263184</ele>
        <time>2015-06-06T10:05:21Z</time>
      </trkpt>
      <trkpt lat="44.15738" lon="5.1559">
        <ele>619.2263184</ele>
        <time>2015-06-06T10:05:23Z</time>
      </trkpt>
      <trkpt lat="44.15731" lon="5.15567">
        <ele>621.6296387</ele>
        <time>2015-06-06T10:05:36Z</time>
      </trkpt>
      <trkpt lat="44.15727" lon="5.15553">
        <ele>623.5524902</ele>
        <time>2015-06-06T10:05:44Z</time>
      </trkpt>
      <trkpt lat="44.15723" lon="5.15547">
        <ele>624.5136719</ele>
        <time>2015-06-06T10:05:54Z</time>
      </trkpt>
      <trkpt lat="44.15722" lon="5.15538">
        <ele>626.9169922</ele>
        <time>2015-06-06T10:06:07Z</time>
      </trkpt>
      <trkpt lat="44.15719" lon="5.1553">
        <ele>630.2814941</ele>
        <time>2015-06-06T10:06:19Z</time>
      </trkpt>
      <trkpt lat="44.15714" lon="5.1552">
        <ele>625.9555664</ele>
        <time>2015-06-06T10:06:29Z</time>
      </trkpt>
      <trkpt lat="44.15711" lon="5.15518">
        <ele>627.3977051</ele>
        <time>2015-06-06T10:06:45Z</time>
      </trkpt>
      <trkpt lat="44.15696" lon="5.15499">
        <ele>628.8395996</ele>
        <time>2015-06-06T10:07:00Z</time>
      </trkpt>
      <trkpt lat="44.15689" lon="5.15484">
        <ele>630.762207</ele>
        <time>2015-06-06T10:07:10Z</time>
      </trkpt>
      <trkpt lat="44.15676" lon="5.15468">
        <ele>634.126709</ele>
        <time>2015-06-06T10:07:24Z</time>
      </trkpt>
      <trkpt lat="44.15673" lon="5.15461">
        <ele>634.126709</ele>
        <time>2015-06-06T10:07:29Z</time>
      </trkpt>
      <trkpt lat="44.15671" lon="5.15457">
        <ele>634.6074219</ele>
        <time>2015-06-06T10:07:39Z</time>
      </trkpt>
      <trkpt lat="44.15672" lon="5.15449">
        <ele>633.6459961</ele>
        <time>2015-06-06T10:07:50Z</time>
      </trkpt>
      <trkpt lat="44.15668" lon="5.15441">
        <ele>636.5302734</ele>
        <time>2015-06-06T10:08:05Z</time>
      </trkpt>
      <trkpt lat="44.15663" lon="5.15429">
        <ele>637.4914551</ele>
        <time>2015-06-06T10:08:19Z</time>
      </trkpt>
      <trkpt lat="44.15655" lon="5.15416">
        <ele>636.0495605</ele>
        <time>2015-06-06T10:08:34Z</time>
      </trkpt>
      <trkpt lat="44.15643" lon="5.154">
        <ele>638.4528809</ele>
        <time>2015-06-06T10:08:44Z</time>
      </trkpt>
      <trkpt lat="44.1564" lon="5.15397">
        <ele>637.972168</ele>
        <time>2015-06-06T10:08:46Z</time>
      </trkpt>
      <trkpt lat="44.15637" lon="5.1539">
        <ele>637.0107422</ele>
        <time>2015-06-06T10:08:51Z</time>
      </trkpt>
      <trkpt lat="44.15627" lon="5.15385">
        <ele>638.4528809</ele>
        <time>2015-06-06T10:08:58Z</time>
      </trkpt>
      <trkpt lat="44.15621" lon="5.15385">
        <ele>637.0107422</ele>
        <time>2015-06-06T10:09:01Z</time>
      </trkpt>
      <trkpt lat="44.15603" lon="5.15377">
        <ele>642.7788086</ele>
        <time>2015-06-06T10:09:15Z</time>
      </trkpt>
      <trkpt lat="44.1559" lon="5.1537">
        <ele>642.7788086</ele>
        <time>2015-06-06T10:09:27Z</time>
      </trkpt>
      <trkpt lat="44.15574" lon="5.15367">
        <ele>642.2980957</ele>
        <time>2015-06-06T10:09:34Z</time>
      </trkpt>
      <trkpt lat="44.1557" lon="5.15359">
        <ele>643.2592773</ele>
        <time>2015-06-06T10:09:38Z</time>
      </trkpt>
      <trkpt lat="44.15551" lon="5.15334">
        <ele>641.8173828</ele>
        <time>2015-06-06T10:09:52Z</time>
      </trkpt>
      <trkpt lat="44.15541" lon="5.15304">
        <ele>643.7399902</ele>
        <time>2015-06-06T10:10:06Z</time>
      </trkpt>
      <trkpt lat="44.1554" lon="5.15298">
        <ele>643.7399902</ele>
        <time>2015-06-06T10:10:15Z</time>
      </trkpt>
      <trkpt lat="44.1554" lon="5.15286">
        <ele>645.6625977</ele>
        <time>2015-06-06T10:10:27Z</time>
      </trkpt>
      <trkpt lat="44.15542" lon="5.15267">
        <ele>648.5463867</ele>
        <time>2015-06-06T10:10:48Z</time>
      </trkpt>
      <trkpt lat="44.15548" lon="5.15252">
        <ele>649.9885254</ele>
        <time>2015-06-06T10:11:03Z</time>
      </trkpt>
      <trkpt lat="44.15547" lon="5.1523">
        <ele>648.5463867</ele>
        <time>2015-06-06T10:11:16Z</time>
      </trkpt>
      <trkpt lat="44.15535" lon="5.15214">
        <ele>644.7011719</ele>
        <time>2015-06-06T10:11:24Z</time>
      </trkpt>
      <trkpt lat="44.15532" lon="5.15205">
        <ele>642.2980957</ele>
        <time>2015-06-06T10:11:33Z</time>
      </trkpt>
      <trkpt lat="44.15532" lon="5.15205">
        <ele>642.2980957</ele>
        <time>2015-06-06T10:12:00Z</time>
      </trkpt>
      <trkpt lat="44.15531" lon="5.15206">
        <ele>642.2980957</ele>
        <time>2015-06-06T10:13:17Z</time>
      </trkpt>
      <trkpt lat="44.15531" lon="5.15206">
        <ele>642.7788086</ele>
        <time>2015-06-06T10:14:47Z</time>
      </trkpt>
      <trkpt lat="44.15513" lon="5.15192">
        <ele>638.4528809</ele>
        <time>2015-06-06T10:14:55Z</time>
      </trkpt>
      <trkpt lat="44.15501" lon="5.15181">
        <ele>635.0881348</ele>
        <time>2015-06-06T10:15:00Z</time>
      </trkpt>
      <trkpt lat="44.15485" lon="5.15179">
        <ele>633.1652832</ele>
        <time>2015-06-06T10:15:05Z</time>
      </trkpt>
      <trkpt lat="44.15472" lon="5.15186">
        <ele>632.2041016</ele>
        <time>2015-06-06T10:15:09Z</time>
      </trkpt>
      <trkpt lat="44.15448" lon="5.1519">
        <ele>627.8781738</ele>
        <time>2015-06-06T10:15:16Z</time>
      </trkpt>
      <trkpt lat="44.15442" lon="5.15193">
        <ele>626.9169922</ele>
        <time>2015-06-06T10:15:18Z</time>
      </trkpt>
      <trkpt lat="44.15429" lon="5.15193">
        <ele>624.9943848</ele>
        <time>2015-06-06T10:15:21Z</time>
      </trkpt>
      <trkpt lat="44.15422" lon="5.15196">
        <ele>624.5136719</ele>
        <time>2015-06-06T10:15:23Z</time>
      </trkpt>
      <trkpt lat="44.15402" lon="5.15198">
        <ele>622.1103516</ele>
        <time>2015-06-06T10:15:29Z</time>
      </trkpt>
      <trkpt lat="44.15378" lon="5.15197">
        <ele>620.668457</ele>
        <time>2015-06-06T10:15:36Z</time>
      </trkpt>
      <trkpt lat="44.15364" lon="5.15174">
        <ele>621.1491699</ele>
        <time>2015-06-06T10:15:41Z</time>
      </trkpt>
      <trkpt lat="44.15353" lon="5.15162">
        <ele>620.1877441</ele>
        <time>2015-06-06T10:15:44Z</time>
      </trkpt>
      <trkpt lat="44.15339" lon="5.15131">
        <ele>616.822998</ele>
        <time>2015-06-06T10:15:52Z</time>
      </trkpt>
      <trkpt lat="44.15331" lon="5.15114">
        <ele>615.8618164</ele>
        <time>2015-06-06T10:16:45Z</time>
      </trkpt>
      <trkpt lat="44.15329" lon="5.1511">
        <ele>615.3811035</ele>
        <time>2015-06-06T10:16:46Z</time>
      </trkpt>
      <trkpt lat="44.15312" lon="5.15031">
        <ele>611.0551758</ele>
        <time>2015-06-06T10:16:58Z</time>
      </trkpt>
      <trkpt lat="44.15294" lon="5.14996">
        <ele>609.6132813</ele>
        <time>2015-06-06T10:17:04Z</time>
      </trkpt>
      <trkpt lat="44.1528" lon="5.1497">
        <ele>607.2099609</ele>
        <time>2015-06-06T10:17:11Z</time>
      </trkpt>
      <trkpt lat="44.15266" lon="5.14952">
        <ele>606.729248</ele>
        <time>2015-06-06T10:17:15Z</time>
      </trkpt>
      <trkpt lat="44.15262" lon="5.14932">
        <ele>602.8837891</ele>
        <time>2015-06-06T10:17:19Z</time>
      </trkpt>
      <trkpt lat="44.15244" lon="5.149">
        <ele>602.4030762</ele>
        <time>2015-06-06T10:17:26Z</time>
      </trkpt>
      <trkpt lat="44.15242" lon="5.14887">
        <ele>600.4807129</ele>
        <time>2015-06-06T10:17:29Z</time>
      </trkpt>
      <trkpt lat="44.15231" lon="5.14863">
        <ele>596.1547852</ele>
        <time>2015-06-06T10:17:34Z</time>
      </trkpt>
      <trkpt lat="44.15225" lon="5.14855">
        <ele>595.1933594</ele>
        <time>2015-06-06T10:17:36Z</time>
      </trkpt>
      <trkpt lat="44.15222" lon="5.14849">
        <ele>594.7126465</ele>
        <time>2015-06-06T10:17:38Z</time>
      </trkpt>
      <trkpt lat="44.15216" lon="5.14822">
        <ele>591.3481445</ele>
        <time>2015-06-06T10:17:44Z</time>
      </trkpt>
      <trkpt lat="44.15215" lon="5.14821">
        <ele>590.8674316</ele>
        <time>2015-06-06T10:17:45Z</time>
      </trkpt>
      <trkpt lat="44.15223" lon="5.14798">
        <ele>589.4255371</ele>
        <time>2015-06-06T10:17:50Z</time>
      </trkpt>
      <trkpt lat="44.1523" lon="5.1479">
        <ele>589.4255371</ele>
        <time>2015-06-06T10:17:53Z</time>
      </trkpt>
      <trkpt lat="44.15245" lon="5.14763">
        <ele>589.4255371</ele>
        <time>2015-06-06T10:18:00Z</time>
      </trkpt>
      <trkpt lat="44.15269" lon="5.14736">
        <ele>587.9833984</ele>
        <time>2015-06-06T10:18:06Z</time>
      </trkpt>
      <trkpt lat="44.15276" lon="5.14726">
        <ele>587.0219727</ele>
        <time>2015-06-06T10:18:08Z</time>
      </trkpt>
      <trkpt lat="44.15266" lon="5.14691">
        <ele>584.1381836</ele>
        <time>2015-06-06T10:18:17Z</time>
      </trkpt>
      <trkpt lat="44.15264" lon="5.14687">
        <ele>584.6188965</ele>
        <time>2015-06-06T10:18:23Z</time>
      </trkpt>
      <trkpt lat="44.15256" lon="5.14673">
        <ele>585.0996094</ele>
        <time>2015-06-06T10:18:59Z</time>
      </trkpt>
      <trkpt lat="44.15248" lon="5.1466">
        <ele>584.1381836</ele>
        <time>2015-06-06T10:19:05Z</time>
      </trkpt>
      <trkpt lat="44.15244" lon="5.14652">
        <ele>582.2155762</ele>
        <time>2015-06-06T10:19:09Z</time>
      </trkpt>
      <trkpt lat="44.15214" lon="5.14646">
        <ele>575.4863281</ele>
        <time>2015-06-06T10:19:18Z</time>
      </trkpt>
      <trkpt lat="44.15211" lon="5.14643">
        <ele>573.083252</ele>
        <time>2015-06-06T10:19:20Z</time>
      </trkpt>
      <trkpt lat="44.1519" lon="5.14633">
        <ele>568.2763672</ele>
        <time>2015-06-06T10:19:30Z</time>
      </trkpt>
      <trkpt lat="44.15182" lon="5.14623">
        <ele>568.2763672</ele>
        <time>2015-06-06T10:19:36Z</time>
      </trkpt>
      <trkpt lat="44.1518" lon="5.14621">
        <ele>569.237793</ele>
        <time>2015-06-06T10:19:43Z</time>
      </trkpt>
      <trkpt lat="44.15167" lon="5.14594">
        <ele>570.1989746</ele>
        <time>2015-06-06T10:19:54Z</time>
      </trkpt>
      <trkpt lat="44.15163" lon="5.14591">
        <ele>571.6408691</ele>
        <time>2015-06-06T10:19:56Z</time>
      </trkpt>
      <trkpt lat="44.15153" lon="5.14577">
        <ele>572.1218262</ele>
        <time>2015-06-06T10:20:01Z</time>
      </trkpt>
      <trkpt lat="44.15135" lon="5.14568">
        <ele>570.6796875</ele>
        <time>2015-06-06T10:20:06Z</time>
      </trkpt>
      <trkpt lat="44.151" lon="5.14563">
        <ele>565.873291</ele>
        <time>2015-06-06T10:20:15Z</time>
      </trkpt>
      <trkpt lat="44.1508" lon="5.14567">
        <ele>561.5473633</ele>
        <time>2015-06-06T10:20:22Z</time>
      </trkpt>
      <trkpt lat="44.15073" lon="5.14567">
        <ele>559.144043</ele>
        <time>2015-06-06T10:20:34Z</time>
      </trkpt>
      <trkpt lat="44.15068" lon="5.14562">
        <ele>560.1052246</ele>
        <time>2015-06-06T10:20:42Z</time>
      </trkpt>
      <trkpt lat="44.15062" lon="5.14559">
        <ele>562.0280762</ele>
        <time>2015-06-06T10:20:54Z</time>
      </trkpt>
      <trkpt lat="44.1506" lon="5.14557">
        <ele>562.5085449</ele>
        <time>2015-06-06T10:20:57Z</time>
      </trkpt>
      <trkpt lat="44.15058" lon="5.14553">
        <ele>563.4699707</ele>
        <time>2015-06-06T10:21:01Z</time>
      </trkpt>
      <trkpt lat="44.15058" lon="5.14548">
        <ele>563.4699707</ele>
        <time>2015-06-06T10:21:04Z</time>
      </trkpt>
      <trkpt lat="44.15053" lon="5.14533">
        <ele>564.4311523</ele>
        <time>2015-06-06T10:21:15Z</time>
      </trkpt>
      <trkpt lat="44.15049" lon="5.14524">
        <ele>565.873291</ele>
        <time>2015-06-06T10:21:25Z</time>
      </trkpt>
      <trkpt lat="44.15045" lon="5.14518">
        <ele>565.873291</ele>
        <time>2015-06-06T10:21:28Z</time>
      </trkpt>
      <trkpt lat="44.15043" lon="5.14516">
        <ele>566.3537598</ele>
        <time>2015-06-06T10:21:30Z</time>
      </trkpt>
      <trkpt lat="44.15034" lon="5.14503">
        <ele>567.3151855</ele>
        <time>2015-06-06T10:21:38Z</time>
      </trkpt>
      <trkpt lat="44.15029" lon="5.14496">
        <ele>567.7956543</ele>
        <time>2015-06-06T10:21:42Z</time>
      </trkpt>
      <trkpt lat="44.15027" lon="5.14494">
        <ele>568.2763672</ele>
        <time>2015-06-06T10:21:44Z</time>
      </trkpt>
      <trkpt lat="44.15021" lon="5.14482">
        <ele>570.6796875</ele>
        <time>2015-06-06T10:21:49Z</time>
      </trkpt>
      <trkpt lat="44.15009" lon="5.1447">
        <ele>570.6796875</ele>
        <time>2015-06-06T10:21:57Z</time>
      </trkpt>
      <trkpt lat="44.15007" lon="5.14468">
        <ele>570.6796875</ele>
        <time>2015-06-06T10:21:58Z</time>
      </trkpt>
      <trkpt lat="44.15002" lon="5.14453">
        <ele>571.1604004</ele>
        <time>2015-06-06T10:22:05Z</time>
      </trkpt>
      <trkpt lat="44.14998" lon="5.14447">
        <ele>571.1604004</ele>
        <time>2015-06-06T10:22:08Z</time>
      </trkpt>
      <trkpt lat="44.14995" lon="5.1444">
        <ele>572.1218262</ele>
        <time>2015-06-06T10:22:13Z</time>
      </trkpt>
      <trkpt lat="44.14984" lon="5.14433">
        <ele>573.5639648</ele>
        <time>2015-06-06T10:22:18Z</time>
      </trkpt>
      <trkpt lat="44.1498" lon="5.14426">
        <ele>574.0444336</ele>
        <time>2015-06-06T10:22:22Z</time>
      </trkpt>
      <trkpt lat="44.14963" lon="5.14419">
        <ele>572.6025391</ele>
        <time>2015-06-06T10:22:29Z</time>
      </trkpt>
      <trkpt lat="44.14955" lon="5.14419">
        <ele>570.1989746</ele>
        <time>2015-06-06T10:22:37Z</time>
      </trkpt>
      <trkpt lat="44.14947" lon="5.14419">
        <ele>574.0444336</ele>
        <time>2015-06-06T10:22:52Z</time>
      </trkpt>
      <trkpt lat="44.14937" lon="5.14417">
        <ele>580.2929688</ele>
        <time>2015-06-06T10:23:04Z</time>
      </trkpt>
      <trkpt lat="44.14935" lon="5.14416">
        <ele>580.7736816</ele>
        <time>2015-06-06T10:23:07Z</time>
      </trkpt>
      <trkpt lat="44.14926" lon="5.14415">
        <ele>580.7736816</ele>
        <time>2015-06-06T10:23:18Z</time>
      </trkpt>
      <trkpt lat="44.14915" lon="5.1442">
        <ele>580.7736816</ele>
        <time>2015-06-06T10:23:26Z</time>
      </trkpt>
      <trkpt lat="44.14913" lon="5.14421">
        <ele>579.8122559</ele>
        <time>2015-06-06T10:24:06Z</time>
      </trkpt>
      <trkpt lat="44.1491" lon="5.14423">
        <ele>579.331543</ele>
        <time>2015-06-06T10:25:21Z</time>
      </trkpt>
      <trkpt lat="44.14909" lon="5.14423">
        <ele>578.8510742</ele>
        <time>2015-06-06T10:25:22Z</time>
      </trkpt>
      <trkpt lat="44.14897" lon="5.14403">
        <ele>576.9284668</ele>
        <time>2015-06-06T10:25:32Z</time>
      </trkpt>
      <trkpt lat="44.14882" lon="5.14377">
        <ele>574.5251465</ele>
        <time>2015-06-06T10:25:42Z</time>
      </trkpt>
      <trkpt lat="44.14876" lon="5.14364">
        <ele>573.083252</ele>
        <time>2015-06-06T10:25:46Z</time>
      </trkpt>
      <trkpt lat="44.14871" lon="5.14348">
        <ele>571.6408691</ele>
        <time>2015-06-06T10:25:51Z</time>
      </trkpt>
      <trkpt lat="44.14867" lon="5.14339">
        <ele>570.1989746</ele>
        <time>2015-06-06T10:25:55Z</time>
      </trkpt>
      <trkpt lat="44.14867" lon="5.14332">
        <ele>569.237793</ele>
        <time>2015-06-06T10:26:05Z</time>
      </trkpt>
      <trkpt lat="44.14866" lon="5.14331">
        <ele>568.7570801</ele>
        <time>2015-06-06T10:26:07Z</time>
      </trkpt>
      <trkpt lat="44.14858" lon="5.14313">
        <ele>566.8344727</ele>
        <time>2015-06-06T10:26:16Z</time>
      </trkpt>
      <trkpt lat="44.14856" lon="5.143">
        <ele>565.873291</ele>
        <time>2015-06-06T10:26:19Z</time>
      </trkpt>
      <trkpt lat="44.14843" lon="5.14267">
        <ele>564.9118652</ele>
        <time>2015-06-06T10:26:28Z</time>
      </trkpt>
      <trkpt lat="44.14839" lon="5.14259">
        <ele>563.9504395</ele>
        <time>2015-06-06T10:26:31Z</time>
      </trkpt>
      <trkpt lat="44.14837" lon="5.14251">
        <ele>564.4311523</ele>
        <time>2015-06-06T10:26:34Z</time>
      </trkpt>
      <trkpt lat="44.14832" lon="5.1424">
        <ele>565.3925781</ele>
        <time>2015-06-06T10:26:39Z</time>
      </trkpt>
      <trkpt lat="44.14829" lon="5.14231">
        <ele>564.9118652</ele>
        <time>2015-06-06T10:26:41Z</time>
      </trkpt>
      <trkpt lat="44.14825" lon="5.14221">
        <ele>566.3537598</ele>
        <time>2015-06-06T10:26:45Z</time>
      </trkpt>
      <trkpt lat="44.14824" lon="5.14213">
        <ele>564.9118652</ele>
        <time>2015-06-06T10:26:53Z</time>
      </trkpt>
      <trkpt lat="44.14815" lon="5.14187">
        <ele>563.9504395</ele>
        <time>2015-06-06T10:27:04Z</time>
      </trkpt>
      <trkpt lat="44.14804" lon="5.14154">
        <ele>562.0280762</ele>
        <time>2015-06-06T10:27:11Z</time>
      </trkpt>
      <trkpt lat="44.14797" lon="5.14129">
        <ele>557.7021484</ele>
        <time>2015-06-06T10:27:18Z</time>
      </trkpt>
      <trkpt lat="44.14792" lon="5.14125">
        <ele>556.7407227</ele>
        <time>2015-06-06T10:27:20Z</time>
      </trkpt>
      <trkpt lat="44.14777" lon="5.14096">
        <ele>549.5307617</ele>
        <time>2015-06-06T10:27:29Z</time>
      </trkpt>
      <trkpt lat="44.14765" lon="5.14071">
        <ele>545.204834</ele>
        <time>2015-06-06T10:27:37Z</time>
      </trkpt>
      <trkpt lat="44.14763" lon="5.14062">
        <ele>543.7628174</ele>
        <time>2015-06-06T10:27:46Z</time>
      </trkpt>
      <trkpt lat="44.14763" lon="5.14062">
        <ele>543.7628174</ele>
        <time>2015-06-06T10:27:49Z</time>
      </trkpt>
      <trkpt lat="44.14763" lon="5.14063">
        <ele>544.2436523</ele>
        <time>2015-06-06T10:27:55Z</time>
      </trkpt>
      <trkpt lat="44.14764" lon="5.14054">
        <ele>542.3209229</ele>
        <time>2015-06-06T10:28:04Z</time>
      </trkpt>
      <trkpt lat="44.14765" lon="5.1405">
        <ele>540.8789063</ele>
        <time>2015-06-06T10:28:11Z</time>
      </trkpt>
      <trkpt lat="44.14768" lon="5.14044">
        <ele>541.3594971</ele>
        <time>2015-06-06T10:28:19Z</time>
      </trkpt>
      <trkpt lat="44.14768" lon="5.14044">
        <ele>541.3594971</ele>
        <time>2015-06-06T10:28:25Z</time>
      </trkpt>
      <trkpt lat="44.1477" lon="5.14038">
        <ele>539.9176025</ele>
        <time>2015-06-06T10:28:38Z</time>
      </trkpt>
      <trkpt lat="44.1477" lon="5.14036">
        <ele>540.8789063</ele>
        <time>2015-06-06T10:28:56Z</time>
      </trkpt>
      <trkpt lat="44.14769" lon="5.14036">
        <ele>541.84021</ele>
        <time>2015-06-06T10:29:25Z</time>
      </trkpt>
      <trkpt lat="44.14769" lon="5.14027">
        <ele>540.3983154</ele>
        <time>2015-06-06T10:29:30Z</time>
      </trkpt>
      <trkpt lat="44.14766" lon="5.14005">
        <ele>538.9562988</ele>
        <time>2015-06-06T10:29:36Z</time>
      </trkpt>
      <trkpt lat="44.14764" lon="5.14002">
        <ele>538.475708</ele>
        <time>2015-06-06T10:29:42Z</time>
      </trkpt>
      <trkpt lat="44.14758" lon="5.13995">
        <ele>537.0336914</ele>
        <time>2015-06-06T10:29:48Z</time>
      </trkpt>
      <trkpt lat="44.14757" lon="5.1399">
        <ele>534.6303711</ele>
        <time>2015-06-06T10:29:54Z</time>
      </trkpt>
      <trkpt lat="44.14754" lon="5.1399">
        <ele>533.6689453</ele>
        <time>2015-06-06T10:29:57Z</time>
      </trkpt>
      <trkpt lat="44.14748" lon="5.13981">
        <ele>532.7077637</ele>
        <time>2015-06-06T10:30:01Z</time>
      </trkpt>
      <trkpt lat="44.14738" lon="5.13966">
        <ele>533.6689453</ele>
        <time>2015-06-06T10:30:07Z</time>
      </trkpt>
      <trkpt lat="44.14736" lon="5.13956">
        <ele>533.6689453</ele>
        <time>2015-06-06T10:30:09Z</time>
      </trkpt>
      <trkpt lat="44.14732" lon="5.13946">
        <ele>534.1496582</ele>
        <time>2015-06-06T10:30:13Z</time>
      </trkpt>
      <trkpt lat="44.14722" lon="5.13932">
        <ele>533.6689453</ele>
        <time>2015-06-06T10:30:20Z</time>
      </trkpt>
      <trkpt lat="44.14719" lon="5.13933">
        <ele>532.2270508</ele>
        <time>2015-06-06T10:30:22Z</time>
      </trkpt>
      <trkpt lat="44.14704" lon="5.13906">
        <ele>530.3044434</ele>
        <time>2015-06-06T10:30:31Z</time>
      </trkpt>
      <trkpt lat="44.14689" lon="5.13874">
        <ele>528.3818359</ele>
        <time>2015-06-06T10:30:42Z</time>
      </trkpt>
      <trkpt lat="44.14685" lon="5.13867">
        <ele>527.901001</ele>
        <time>2015-06-06T10:30:45Z</time>
      </trkpt>
      <trkpt lat="44.14675" lon="5.13845">
        <ele>527.901001</ele>
        <time>2015-06-06T10:30:56Z</time>
      </trkpt>
      <trkpt lat="44.14673" lon="5.13842">
        <ele>527.4204102</ele>
        <time>2015-06-06T10:31:10Z</time>
      </trkpt>
      <trkpt lat="44.1467" lon="5.13834">
        <ele>526.4591064</ele>
        <time>2015-06-06T10:31:19Z</time>
      </trkpt>
      <trkpt lat="44.1466" lon="5.13821">
        <ele>524.536499</ele>
        <time>2015-06-06T10:31:26Z</time>
      </trkpt>
      <trkpt lat="44.1466" lon="5.13818">
        <ele>524.0557861</ele>
        <time>2015-06-06T10:31:39Z</time>
      </trkpt>
      <trkpt lat="44.14644" lon="5.138">
        <ele>521.1719971</ele>
        <time>2015-06-06T10:31:47Z</time>
      </trkpt>
      <trkpt lat="44.14626" lon="5.1379">
        <ele>520.6912842</ele>
        <time>2015-06-06T10:31:53Z</time>
      </trkpt>
      <trkpt lat="44.14617" lon="5.13778">
        <ele>519.2492676</ele>
        <time>2015-06-06T10:31:59Z</time>
      </trkpt>
      <trkpt lat="44.14613" lon="5.13775">
        <ele>518.7685547</ele>
        <time>2015-06-06T10:32:01Z</time>
      </trkpt>
      <trkpt lat="44.14584" lon="5.13744">
        <ele>513.0007324</ele>
        <time>2015-06-06T10:32:12Z</time>
      </trkpt>
      <trkpt lat="44.14563" lon="5.13734">
        <ele>509.1553955</ele>
        <time>2015-06-06T10:32:19Z</time>
      </trkpt>
      <trkpt lat="44.14556" lon="5.13728">
        <ele>508.6746826</ele>
        <time>2015-06-06T10:32:26Z</time>
      </trkpt>
      <trkpt lat="44.14556" lon="5.13716">
        <ele>509.1553955</ele>
        <time>2015-06-06T10:32:43Z</time>
      </trkpt>
      <trkpt lat="44.14554" lon="5.13683">
        <ele>506.7520752</ele>
        <time>2015-06-06T10:32:48Z</time>
      </trkpt>
      <trkpt lat="44.14545" lon="5.13657">
        <ele>503.3874512</ele>
        <time>2015-06-06T10:32:54Z</time>
      </trkpt>
      <trkpt lat="44.14525" lon="5.13667">
        <ele>501.9455566</ele>
        <time>2015-06-06T10:32:59Z</time>
      </trkpt>
      <trkpt lat="44.14481" lon="5.13709">
        <ele>496.1777344</ele>
        <time>2015-06-06T10:33:10Z</time>
      </trkpt>
      <trkpt lat="44.14474" lon="5.1371">
        <ele>494.2550049</ele>
        <time>2015-06-06T10:33:12Z</time>
      </trkpt>
      <trkpt lat="44.14456" lon="5.13714">
        <ele>491.3709717</ele>
        <time>2015-06-06T10:33:17Z</time>
      </trkpt>
      <trkpt lat="44.1445" lon="5.1372">
        <ele>490.40979</ele>
        <time>2015-06-06T10:33:20Z</time>
      </trkpt>
      <trkpt lat="44.14438" lon="5.13723">
        <ele>488.0064697</ele>
        <time>2015-06-06T10:33:24Z</time>
      </trkpt>
      <trkpt lat="44.14409" lon="5.13702">
        <ele>480.7966309</ele>
        <time>2015-06-06T10:33:34Z</time>
      </trkpt>
      <trkpt lat="44.14404" lon="5.13699">
        <ele>479.835083</ele>
        <time>2015-06-06T10:33:36Z</time>
      </trkpt>
      <trkpt lat="44.14386" lon="5.13687">
        <ele>474.0672607</ele>
        <time>2015-06-06T10:33:44Z</time>
      </trkpt>
      <trkpt lat="44.14393" lon="5.13668">
        <ele>472.1446533</ele>
        <time>2015-06-06T10:33:51Z</time>
      </trkpt>
      <trkpt lat="44.14394" lon="5.13667">
        <ele>472.1446533</ele>
        <time>2015-06-06T10:34:04Z</time>
      </trkpt>
      <trkpt lat="44.14394" lon="5.13666">
        <ele>471.6639404</ele>
        <time>2015-06-06T10:34:23Z</time>
      </trkpt>
      <trkpt lat="44.14399" lon="5.13657">
        <ele>471.6639404</ele>
        <time>2015-06-06T10:34:27Z</time>
      </trkpt>
      <trkpt lat="44.14414" lon="5.1363">
        <ele>472.6253662</ele>
        <time>2015-06-06T10:34:33Z</time>
      </trkpt>
      <trkpt lat="44.14419" lon="5.13618">
        <ele>473.1060791</ele>
        <time>2015-06-06T10:34:35Z</time>
      </trkpt>
      <trkpt lat="44.14415" lon="5.13563">
        <ele>474.5479736</ele>
        <time>2015-06-06T10:34:42Z</time>
      </trkpt>
      <trkpt lat="44.14411" lon="5.13557">
        <ele>475.0286865</ele>
        <time>2015-06-06T10:34:43Z</time>
      </trkpt>
      <trkpt lat="44.14403" lon="5.13546">
        <ele>475.0286865</ele>
        <time>2015-06-06T10:34:45Z</time>
      </trkpt>
      <trkpt lat="44.14386" lon="5.13532">
        <ele>473.5866699</ele>
        <time>2015-06-06T10:34:48Z</time>
      </trkpt>
      <trkpt lat="44.14355" lon="5.13524">
        <ele>472.1446533</ele>
        <time>2015-06-06T10:34:53Z</time>
      </trkpt>
      <trkpt lat="44.14312" lon="5.13513">
        <ele>472.1446533</ele>
        <time>2015-06-06T10:35:01Z</time>
      </trkpt>
      <trkpt lat="44.14263" lon="5.13507">
        <ele>469.2607422</ele>
        <time>2015-06-06T10:35:10Z</time>
      </trkpt>
      <trkpt lat="44.14245" lon="5.13509">
        <ele>467.8187256</ele>
        <time>2015-06-06T10:35:13Z</time>
      </trkpt>
      <trkpt lat="44.14234" lon="5.13509">
        <ele>466.8574219</ele>
        <time>2015-06-06T10:35:15Z</time>
      </trkpt>
      <trkpt lat="44.14194" lon="5.13476">
        <ele>462.0507813</ele>
        <time>2015-06-06T10:35:22Z</time>
      </trkpt>
      <trkpt lat="44.14166" lon="5.13458">
        <ele>459.647583</ele>
        <time>2015-06-06T10:35:26Z</time>
      </trkpt>
      <trkpt lat="44.14137" lon="5.13416">
        <ele>458.2055664</ele>
        <time>2015-06-06T10:35:32Z</time>
      </trkpt>
      <trkpt lat="44.14128" lon="5.1339">
        <ele>456.7635498</ele>
        <time>2015-06-06T10:35:35Z</time>
      </trkpt>
      <trkpt lat="44.14099" lon="5.13334">
        <ele>453.3989258</ele>
        <time>2015-06-06T10:35:43Z</time>
      </trkpt>
      <trkpt lat="44.14086" lon="5.13309">
        <ele>453.8796387</ele>
        <time>2015-06-06T10:35:49Z</time>
      </trkpt>
      <trkpt lat="44.1408" lon="5.13299">
        <ele>454.8408203</ele>
        <time>2015-06-06T10:35:53Z</time>
      </trkpt>
      <trkpt lat="44.14077" lon="5.13292">
        <ele>456.282959</ele>
        <time>2015-06-06T10:35:56Z</time>
      </trkpt>
      <trkpt lat="44.14064" lon="5.13274">
        <ele>456.282959</ele>
        <time>2015-06-06T10:36:06Z</time>
      </trkpt>
      <trkpt lat="44.1406" lon="5.13272">
        <ele>455.8022461</ele>
        <time>2015-06-06T10:36:08Z</time>
      </trkpt>
      <trkpt lat="44.14054" lon="5.13263">
        <ele>455.8022461</ele>
        <time>2015-06-06T10:36:12Z</time>
      </trkpt>
      <trkpt lat="44.14038" lon="5.1326">
        <ele>454.8408203</ele>
        <time>2015-06-06T10:36:20Z</time>
      </trkpt>
      <trkpt lat="44.14035" lon="5.13256">
        <ele>455.3215332</ele>
        <time>2015-06-06T10:36:23Z</time>
      </trkpt>
      <trkpt lat="44.14034" lon="5.13254">
        <ele>453.8796387</ele>
        <time>2015-06-06T10:36:33Z</time>
      </trkpt>
      <trkpt lat="44.14034" lon="5.13253">
        <ele>453.8796387</ele>
        <time>2015-06-06T10:37:51Z</time>
      </trkpt>
      <trkpt lat="44.1403" lon="5.13237">
        <ele>450.0344238</ele>
        <time>2015-06-06T10:37:56Z</time>
      </trkpt>
      <trkpt lat="44.14029" lon="5.13227">
        <ele>448.1118164</ele>
        <time>2015-06-06T10:37:58Z</time>
      </trkpt>
      <trkpt lat="44.14012" lon="5.13201">
        <ele>443.3050537</ele>
        <time>2015-06-06T10:38:04Z</time>
      </trkpt>
      <trkpt lat="44.13995" lon="5.13187">
        <ele>440.4212646</ele>
        <time>2015-06-06T10:38:08Z</time>
      </trkpt>
      <trkpt lat="44.13979" lon="5.13171">
        <ele>438.4985352</ele>
        <time>2015-06-06T10:38:12Z</time>
      </trkpt>
      <trkpt lat="44.13956" lon="5.13137">
        <ele>434.6533203</ele>
        <time>2015-06-06T10:38:19Z</time>
      </trkpt>
      <trkpt lat="44.13927" lon="5.13082">
        <ele>433.2113037</ele>
        <time>2015-06-06T10:38:29Z</time>
      </trkpt>
      <trkpt lat="44.13924" lon="5.13077">
        <ele>433.6918945</ele>
        <time>2015-06-06T10:38:30Z</time>
      </trkpt>
      <trkpt lat="44.13916" lon="5.13061">
        <ele>433.6918945</ele>
        <time>2015-06-06T10:38:33Z</time>
      </trkpt>
      <trkpt lat="44.13902" lon="5.13035">
        <ele>434.1726074</ele>
        <time>2015-06-06T10:38:38Z</time>
      </trkpt>
      <trkpt lat="44.13898" lon="5.13001">
        <ele>432.7307129</ele>
        <time>2015-06-06T10:38:43Z</time>
      </trkpt>
      <trkpt lat="44.13887" lon="5.12952">
        <ele>429.8465576</ele>
        <time>2015-06-06T10:38:50Z</time>
      </trkpt>
      <trkpt lat="44.13862" lon="5.12909">
        <ele>427.9239502</ele>
        <time>2015-06-06T10:38:59Z</time>
      </trkpt>
      <trkpt lat="44.13859" lon="5.12882">
        <ele>426.0013428</ele>
        <time>2015-06-06T10:39:04Z</time>
      </trkpt>
      <trkpt lat="44.13854" lon="5.12858">
        <ele>425.0401611</ele>
        <time>2015-06-06T10:39:09Z</time>
      </trkpt>
      <trkpt lat="44.13852" lon="5.12847">
        <ele>425.520752</ele>
        <time>2015-06-06T10:39:11Z</time>
      </trkpt>
      <trkpt lat="44.13852" lon="5.12841">
        <ele>424.0787354</ele>
        <time>2015-06-06T10:39:13Z</time>
      </trkpt>
      <trkpt lat="44.1385" lon="5.12828">
        <ele>423.1174316</ele>
        <time>2015-06-06T10:39:16Z</time>
      </trkpt>
      <trkpt lat="44.13848" lon="5.12798">
        <ele>421.1948242</ele>
        <time>2015-06-06T10:39:20Z</time>
      </trkpt>
      <trkpt lat="44.13851" lon="5.12771">
        <ele>420.7141113</ele>
        <time>2015-06-06T10:39:25Z</time>
      </trkpt>
      <trkpt lat="44.1385" lon="5.12748">
        <ele>420.2333984</ele>
        <time>2015-06-06T10:39:29Z</time>
      </trkpt>
      <trkpt lat="44.1384" lon="5.12706">
        <ele>419.2722168</ele>
        <time>2015-06-06T10:39:36Z</time>
      </trkpt>
      <trkpt lat="44.13836" lon="5.12692">
        <ele>418.310791</ele>
        <time>2015-06-06T10:39:38Z</time>
      </trkpt>
      <trkpt lat="44.13823" lon="5.12658">
        <ele>416.8688965</ele>
        <time>2015-06-06T10:39:43Z</time>
      </trkpt>
      <trkpt lat="44.13809" lon="5.12638">
        <ele>416.3881836</ele>
        <time>2015-06-06T10:39:50Z</time>
      </trkpt>
      <trkpt lat="44.13808" lon="5.12636">
        <ele>415.9074707</ele>
        <time>2015-06-06T10:39:54Z</time>
      </trkpt>
      <trkpt lat="44.13791" lon="5.12612">
        <ele>414.4654541</ele>
        <time>2015-06-06T10:40:00Z</time>
      </trkpt>
      <trkpt lat="44.13774" lon="5.1258">
        <ele>412.0622559</ele>
        <time>2015-06-06T10:40:08Z</time>
      </trkpt>
      <trkpt lat="44.13769" lon="5.12568">
        <ele>409.1783447</ele>
        <time>2015-06-06T10:40:15Z</time>
      </trkpt>
      <trkpt lat="44.13764" lon="5.12564">
        <ele>408.217041</ele>
        <time>2015-06-06T10:40:25Z</time>
      </trkpt>
      <trkpt lat="44.13763" lon="5.12562">
        <ele>407.2556152</ele>
        <time>2015-06-06T10:40:28Z</time>
      </trkpt>
      <trkpt lat="44.1376" lon="5.12552">
        <ele>406.7749023</ele>
        <time>2015-06-06T10:40:33Z</time>
      </trkpt>
      <trkpt lat="44.13759" lon="5.12546">
        <ele>407.2556152</ele>
        <time>2015-06-06T10:40:35Z</time>
      </trkpt>
      <trkpt lat="44.13761" lon="5.12511">
        <ele>408.217041</ele>
        <time>2015-06-06T10:40:42Z</time>
      </trkpt>
      <trkpt lat="44.13767" lon="5.12482">
        <ele>408.217041</ele>
        <time>2015-06-06T10:40:46Z</time>
      </trkpt>
      <trkpt lat="44.13761" lon="5.12425">
        <ele>409.1783447</ele>
        <time>2015-06-06T10:40:55Z</time>
      </trkpt>
      <trkpt lat="44.13763" lon="5.12407">
        <ele>409.1783447</ele>
        <time>2015-06-06T10:40:58Z</time>
      </trkpt>
      <trkpt lat="44.13758" lon="5.12362">
        <ele>410.1396484</ele>
        <time>2015-06-06T10:41:06Z</time>
      </trkpt>
      <trkpt lat="44.13753" lon="5.12316">
        <ele>411.581665</ele>
        <time>2015-06-06T10:41:14Z</time>
      </trkpt>
      <trkpt lat="44.13757" lon="5.12274">
        <ele>413.5042725</ele>
        <time>2015-06-06T10:41:20Z</time>
      </trkpt>
      <trkpt lat="44.13755" lon="5.12269">
        <ele>413.5042725</ele>
        <time>2015-06-06T10:41:34Z</time>
      </trkpt>
      <trkpt lat="44.13755" lon="5.12268">
        <ele>412.5428467</ele>
        <time>2015-06-06T10:43:45Z</time>
      </trkpt>
      <trkpt lat="44.13741" lon="5.12259">
        <ele>413.0235596</ele>
        <time>2015-06-06T10:43:50Z</time>
      </trkpt>
      <trkpt lat="44.13732" lon="5.12249">
        <ele>412.5428467</ele>
        <time>2015-06-06T10:43:54Z</time>
      </trkpt>
      <trkpt lat="44.13727" lon="5.12243">
        <ele>412.0622559</ele>
        <time>2015-06-06T10:43:56Z</time>
      </trkpt>
      <trkpt lat="44.13703" lon="5.12226">
        <ele>411.581665</ele>
        <time>2015-06-06T10:44:02Z</time>
      </trkpt>
      <trkpt lat="44.13688" lon="5.12218">
        <ele>412.0622559</ele>
        <time>2015-06-06T10:44:05Z</time>
      </trkpt>
      <trkpt lat="44.13666" lon="5.122">
        <ele>411.1009521</ele>
        <time>2015-06-06T10:44:10Z</time>
      </trkpt>
      <trkpt lat="44.13659" lon="5.1215">
        <ele>408.217041</ele>
        <time>2015-06-06T10:44:19Z</time>
      </trkpt>
      <trkpt lat="44.13643" lon="5.12131">
        <ele>405.3330078</ele>
        <time>2015-06-06T10:44:23Z</time>
      </trkpt>
      <trkpt lat="44.13624" lon="5.12115">
        <ele>403.8911133</ele>
        <time>2015-06-06T10:44:28Z</time>
      </trkpt>
      <trkpt lat="44.13604" lon="5.12099">
        <ele>401.487793</ele>
        <time>2015-06-06T10:44:32Z</time>
      </trkpt>
      <trkpt lat="44.13592" lon="5.1209">
        <ele>401.9685059</ele>
        <time>2015-06-06T10:44:35Z</time>
      </trkpt>
      <trkpt lat="44.13575" lon="5.12074">
        <ele>399.0843506</ele>
        <time>2015-06-06T10:44:39Z</time>
      </trkpt>
      <trkpt lat="44.1355" lon="5.12051">
        <ele>394.7585449</ele>
        <time>2015-06-06T10:44:45Z</time>
      </trkpt>
      <trkpt lat="44.13547" lon="5.1205">
        <ele>394.2779541</ele>
        <time>2015-06-06T10:44:46Z</time>
      </trkpt>
      <trkpt lat="44.13525" lon="5.12036">
        <ele>396.6811523</ele>
        <time>2015-06-06T10:44:53Z</time>
      </trkpt>
      <trkpt lat="44.13512" lon="5.12021">
        <ele>394.2779541</ele>
        <time>2015-06-06T10:44:57Z</time>
      </trkpt>
      <trkpt lat="44.135" lon="5.12012">
        <ele>395.2391357</ele>
        <time>2015-06-06T10:45:00Z</time>
      </trkpt>
      <trkpt lat="44.13481" lon="5.12006">
        <ele>393.7972412</ele>
        <time>2015-06-06T10:45:04Z</time>
      </trkpt>
      <trkpt lat="44.13463" lon="5.11991">
        <ele>393.7972412</ele>
        <time>2015-06-06T10:45:08Z</time>
      </trkpt>
      <trkpt lat="44.13449" lon="5.11977">
        <ele>399.0843506</ele>
        <time>2015-06-06T10:45:11Z</time>
      </trkpt>
      <trkpt lat="44.13414" lon="5.11967">
        <ele>397.1617432</ele>
        <time>2015-06-06T10:45:19Z</time>
      </trkpt>
      <trkpt lat="44.13416" lon="5.11959">
        <ele>394.7585449</ele>
        <time>2015-06-06T10:45:26Z</time>
      </trkpt>
      <trkpt lat="44.13415" lon="5.1196">
        <ele>394.7585449</ele>
        <time>2015-06-06T10:45:42Z</time>
      </trkpt>
      <trkpt lat="44.13416" lon="5.1196">
        <ele>394.2779541</ele>
        <time>2015-06-06T10:46:46Z</time>
      </trkpt>
      <trkpt lat="44.13421" lon="5.11962">
        <ele>393.7972412</ele>
        <time>2015-06-06T10:46:49Z</time>
      </trkpt>
      <trkpt lat="44.13429" lon="5.11963">
        <ele>392.3553467</ele>
        <time>2015-06-06T10:46:51Z</time>
      </trkpt>
      <trkpt lat="44.13461" lon="5.11961">
        <ele>387.0679932</ele>
        <time>2015-06-06T10:46:59Z</time>
      </trkpt>
      <trkpt lat="44.13492" lon="5.11962">
        <ele>382.2613525</ele>
        <time>2015-06-06T10:47:06Z</time>
      </trkpt>
      <trkpt lat="44.13499" lon="5.11963">
        <ele>381.3000488</ele>
        <time>2015-06-06T10:47:08Z</time>
      </trkpt>
      <trkpt lat="44.13513" lon="5.11962">
        <ele>379.8580322</ele>
        <time>2015-06-06T10:47:11Z</time>
      </trkpt>
      <trkpt lat="44.13534" lon="5.11968">
        <ele>379.8580322</ele>
        <time>2015-06-06T10:47:15Z</time>
      </trkpt>
      <trkpt lat="44.13566" lon="5.1199">
        <ele>376.4935303</ele>
        <time>2015-06-06T10:47:21Z</time>
      </trkpt>
      <trkpt lat="44.13575" lon="5.11999">
        <ele>375.0515137</ele>
        <time>2015-06-06T10:47:23Z</time>
      </trkpt>
      <trkpt lat="44.13591" lon="5.12008">
        <ele>373.1289063</ele>
        <time>2015-06-06T10:47:27Z</time>
      </trkpt>
      <trkpt lat="44.13601" lon="5.12008">
        <ele>373.1289063</ele>
        <time>2015-06-06T10:47:29Z</time>
      </trkpt>
      <trkpt lat="44.13617" lon="5.11994">
        <ele>372.1674805</ele>
        <time>2015-06-06T10:47:34Z</time>
      </trkpt>
      <trkpt lat="44.1363" lon="5.11968">
        <ele>370.244873</ele>
        <time>2015-06-06T10:47:40Z</time>
      </trkpt>
      <trkpt lat="44.13637" lon="5.11959">
        <ele>368.3222656</ele>
        <time>2015-06-06T10:47:42Z</time>
      </trkpt>
      <trkpt lat="44.13667" lon="5.11946">
        <ele>363.5157471</ele>
        <time>2015-06-06T10:47:49Z</time>
      </trkpt>
      <trkpt lat="44.13672" lon="5.11935">
        <ele>361.1124268</ele>
        <time>2015-06-06T10:47:52Z</time>
      </trkpt>
      <trkpt lat="44.13659" lon="5.11907">
        <ele>357.7478027</ele>
        <time>2015-06-06T10:47:59Z</time>
      </trkpt>
      <trkpt lat="44.1365" lon="5.11891">
        <ele>355.8251953</ele>
        <time>2015-06-06T10:48:04Z</time>
      </trkpt>
      <trkpt lat="44.13637" lon="5.11891">
        <ele>351.0184326</ele>
        <time>2015-06-06T10:48:10Z</time>
      </trkpt>
      <trkpt lat="44.13632" lon="5.11901">
        <ele>349.5765381</ele>
        <time>2015-06-06T10:48:13Z</time>
      </trkpt>
      <trkpt lat="44.13624" lon="5.11903">
        <ele>348.1346436</ele>
        <time>2015-06-06T10:48:17Z</time>
      </trkpt>
      <trkpt lat="44.13621" lon="5.11898">
        <ele>346.2120361</ele>
        <time>2015-06-06T10:48:22Z</time>
      </trkpt>
      <trkpt lat="44.13625" lon="5.11891">
        <ele>346.2120361</ele>
        <time>2015-06-06T10:48:24Z</time>
      </trkpt>
      <trkpt lat="44.13628" lon="5.11876">
        <ele>345.2506104</ele>
        <time>2015-06-06T10:48:32Z</time>
      </trkpt>
      <trkpt lat="44.1363" lon="5.11872">
        <ele>345.7313232</ele>
        <time>2015-06-06T10:48:52Z</time>
      </trkpt>
      <trkpt lat="44.13635" lon="5.11862">
        <ele>345.7313232</ele>
        <time>2015-06-06T10:48:55Z</time>
      </trkpt>
      <trkpt lat="44.13649" lon="5.11856">
        <ele>345.2506104</ele>
        <time>2015-06-06T10:48:59Z</time>
      </trkpt>
      <trkpt lat="44.13685" lon="5.11864">
        <ele>342.3666992</ele>
        <time>2015-06-06T10:49:07Z</time>
      </trkpt>
      <trkpt lat="44.13702" lon="5.11871">
        <ele>338.5214844</ele>
        <time>2015-06-06T10:49:11Z</time>
      </trkpt>
      <trkpt lat="44.13716" lon="5.11881">
        <ele>337.0794678</ele>
        <time>2015-06-06T10:49:15Z</time>
      </trkpt>
      <trkpt lat="44.13726" lon="5.11872">
        <ele>339.482666</ele>
        <time>2015-06-06T10:49:22Z</time>
      </trkpt>
      <trkpt lat="44.13728" lon="5.11869">
        <ele>339.0020752</ele>
        <time>2015-06-06T10:49:24Z</time>
      </trkpt>
      <trkpt lat="44.13734" lon="5.11856">
        <ele>340.4440918</ele>
        <time>2015-06-06T10:49:38Z</time>
      </trkpt>
      <trkpt lat="44.13734" lon="5.11855">
        <ele>340.4440918</ele>
        <time>2015-06-06T10:49:53Z</time>
      </trkpt>
      <trkpt lat="44.13735" lon="5.11854">
        <ele>340.4440918</ele>
        <time>2015-06-06T10:50:09Z</time>
      </trkpt>
      <trkpt lat="44.13738" lon="5.11845">
        <ele>338.5214844</ele>
        <time>2015-06-06T10:50:12Z</time>
      </trkpt>
      <trkpt lat="44.13769" lon="5.1179">
        <ele>336.1181641</ele>
        <time>2015-06-06T10:50:20Z</time>
      </trkpt>
      <trkpt lat="44.13767" lon="5.11742">
        <ele>329.8695068</ele>
        <time>2015-06-06T10:50:28Z</time>
      </trkpt>
      <trkpt lat="44.13754" lon="5.11705">
        <ele>323.6209717</ele>
        <time>2015-06-06T10:50:34Z</time>
      </trkpt>
      <trkpt lat="44.1374" lon="5.11688">
        <ele>320.7370605</ele>
        <time>2015-06-06T10:50:40Z</time>
      </trkpt>
      <trkpt lat="44.13713" lon="5.11674">
        <ele>316.4110107</ele>
        <time>2015-06-06T10:50:47Z</time>
      </trkpt>
      <trkpt lat="44.13688" lon="5.11665">
        <ele>314.4884033</ele>
        <time>2015-06-06T10:50:52Z</time>
      </trkpt>
      <trkpt lat="44.13662" lon="5.11664">
        <ele>315.9304199</ele>
        <time>2015-06-06T10:50:57Z</time>
      </trkpt>
      <trkpt lat="44.13649" lon="5.1167">
        <ele>316.8917236</ele>
        <time>2015-06-06T10:51:04Z</time>
      </trkpt>
      <trkpt lat="44.13649" lon="5.11669">
        <ele>316.4110107</ele>
        <time>2015-06-06T10:51:37Z</time>
      </trkpt>
      <trkpt lat="44.13649" lon="5.1167">
        <ele>316.4110107</ele>
        <time>2015-06-06T10:52:05Z</time>
      </trkpt>
      <trkpt lat="44.1365" lon="5.11673">
        <ele>315.9304199</ele>
        <time>2015-06-06T10:52:16Z</time>
      </trkpt>
      <trkpt lat="44.13649" lon="5.11674">
        <ele>315.4498291</ele>
        <time>2015-06-06T10:52:22Z</time>
      </trkpt>
      <trkpt lat="44.13631" lon="5.11674">
        <ele>311.1237793</ele>
        <time>2015-06-06T10:52:29Z</time>
      </trkpt>
      <trkpt lat="44.13627" lon="5.11671">
        <ele>310.6430664</ele>
        <time>2015-06-06T10:52:38Z</time>
      </trkpt>
      <trkpt lat="44.13626" lon="5.11668">
        <ele>310.1624756</ele>
        <time>2015-06-06T10:52:42Z</time>
      </trkpt>
      <trkpt lat="44.13623" lon="5.11666">
        <ele>311.1237793</ele>
        <time>2015-06-06T10:52:52Z</time>
      </trkpt>
      <trkpt lat="44.13622" lon="5.11666">
        <ele>311.1237793</ele>
        <time>2015-06-06T10:54:37Z</time>
      </trkpt>
      <trkpt lat="44.1361" lon="5.11661">
        <ele>310.1624756</ele>
        <time>2015-06-06T10:55:14Z</time>
      </trkpt>
      <trkpt lat="44.13588" lon="5.11669">
        <ele>309.6818848</ele>
        <time>2015-06-06T10:55:22Z</time>
      </trkpt>
      <trkpt lat="44.13585" lon="5.11669">
        <ele>310.1624756</ele>
        <time>2015-06-06T10:55:28Z</time>
      </trkpt>
      <trkpt lat="44.13558" lon="5.11656">
        <ele>309.6818848</ele>
        <time>2015-06-06T10:55:36Z</time>
      </trkpt>
      <trkpt lat="44.13534" lon="5.11647">
        <ele>308.2398682</ele>
        <time>2015-06-06T10:55:42Z</time>
      </trkpt>
      <trkpt lat="44.13531" lon="5.11648">
        <ele>308.720459</ele>
        <time>2015-06-06T10:55:55Z</time>
      </trkpt>
      <trkpt lat="44.13529" lon="5.11644">
        <ele>308.720459</ele>
        <time>2015-06-06T10:56:24Z</time>
      </trkpt>
      <trkpt lat="44.13527" lon="5.11632">
        <ele>307.2785645</ele>
        <time>2015-06-06T10:56:28Z</time>
      </trkpt>
      <trkpt lat="44.13525" lon="5.11619">
        <ele>305.8366699</ele>
        <time>2015-06-06T10:56:35Z</time>
      </trkpt>
      <trkpt lat="44.13523" lon="5.11617">
        <ele>305.355957</ele>
        <time>2015-06-06T10:56:45Z</time>
      </trkpt>
      <trkpt lat="44.13523" lon="5.11613">
        <ele>305.355957</ele>
        <time>2015-06-06T10:56:48Z</time>
      </trkpt>
      <trkpt lat="44.13521" lon="5.1161">
        <ele>306.7978516</ele>
        <time>2015-06-06T10:56:57Z</time>
      </trkpt>
      <trkpt lat="44.13521" lon="5.11608">
        <ele>308.2398682</ele>
        <time>2015-06-06T10:57:15Z</time>
      </trkpt>
      <trkpt lat="44.13515" lon="5.11602">
        <ele>307.7592773</ele>
        <time>2015-06-06T10:57:30Z</time>
      </trkpt>
      <trkpt lat="44.13509" lon="5.11583">
        <ele>309.2011719</ele>
        <time>2015-06-06T10:57:41Z</time>
      </trkpt>
      <trkpt lat="44.13503" lon="5.1158">
        <ele>309.2011719</ele>
        <time>2015-06-06T10:57:45Z</time>
      </trkpt>
      <trkpt lat="44.13491" lon="5.11577">
        <ele>309.6818848</ele>
        <time>2015-06-06T10:57:53Z</time>
      </trkpt>
      <trkpt lat="44.1349" lon="5.11581">
        <ele>307.2785645</ele>
        <time>2015-06-06T10:58:07Z</time>
      </trkpt>
      <trkpt lat="44.1349" lon="5.11581">
        <ele>306.7978516</ele>
        <time>2015-06-06T10:58:15Z</time>
      </trkpt>
    </trkseg>
  </trk>
</gpx>